<?xml version="1.0" encoding="UTF-8" standalone="no" ?>
<gpx xmlns="http://www.topografix.com/GPX/1/1" xmlns:xsi="http://www.w3.org/2001/XMLSchema-instance" xsi:schemaLocation="http://www.topografix.com/GPX/1/1 http://www.topografix.com/GPX/1/1/gpx.xsd" version="1.1" creator="VisuGPX - https://www.visugpx.com">
  <metadata>
    <name>Mens / Col de Menée</name>
    <desc><![CDATA[De Mens au Col de Menée par le Col de Mens et le Ménil]]></desc>
  </metadata>
  <wpt lat="44.81501" lon="5.74869">
    <ele>769</ele>
    <name><![CDATA[Mens / col de Menée VTT]]></name>
    <type><![CDATA[Generic]]></type>
  </wpt>
  <trk>
    <name><![CDATA[Mens / col de Menée VTT on edp-parcours.com]]></name>
    <trkseg>
      <trkpt lat="44.81501" lon="5.74869">
        <ele>769</ele>
        <time>2017-05-04T15:42:09Z</time>
      </trkpt>
      <trkpt lat="44.81507" lon="5.74872">
        <ele>769</ele>
        <time>2017-05-04T15:42:21Z</time>
      </trkpt>
      <trkpt lat="44.81509" lon="5.7487">
        <ele>769</ele>
        <time>2017-05-04T15:42:26Z</time>
      </trkpt>
      <trkpt lat="44.81515" lon="5.74863">
        <ele>769</ele>
        <time>2017-05-04T15:42:35Z</time>
      </trkpt>
      <trkpt lat="44.8153" lon="5.74851">
        <ele>769</ele>
        <time>2017-05-04T15:42:46Z</time>
      </trkpt>
      <trkpt lat="44.81542" lon="5.74842">
        <ele>770</ele>
        <time>2017-05-04T15:43:04Z</time>
      </trkpt>
      <trkpt lat="44.81566" lon="5.74828">
        <ele>770</ele>
        <time>2017-05-04T15:43:18Z</time>
      </trkpt>
      <trkpt lat="44.81588" lon="5.74816">
        <ele>770</ele>
        <time>2017-05-04T15:43:25Z</time>
      </trkpt>
      <trkpt lat="44.81597" lon="5.74814">
        <ele>770</ele>
        <time>2017-05-04T15:43:36Z</time>
      </trkpt>
      <trkpt lat="44.81642" lon="5.74812">
        <ele>769</ele>
        <time>2017-05-04T15:43:48Z</time>
      </trkpt>
      <trkpt lat="44.81668" lon="5.74808">
        <ele>767</ele>
        <time>2017-05-04T15:44:04Z</time>
      </trkpt>
      <trkpt lat="44.81667" lon="5.74793">
        <ele>767</ele>
        <time>2017-05-04T15:44:19Z</time>
      </trkpt>
      <trkpt lat="44.81657" lon="5.74709">
        <ele>767</ele>
        <time>2017-05-04T15:44:37Z</time>
      </trkpt>
      <trkpt lat="44.81648" lon="5.746">
        <ele>764</ele>
        <time>2017-05-04T15:44:56Z</time>
      </trkpt>
      <trkpt lat="44.81641" lon="5.74498">
        <ele>758</ele>
        <time>2017-05-04T15:45:14Z</time>
      </trkpt>
      <trkpt lat="44.81632" lon="5.74482">
        <ele>758</ele>
        <time>2017-05-04T15:45:25Z</time>
      </trkpt>
      <trkpt lat="44.8162" lon="5.74464">
        <ele>758</ele>
        <time>2017-05-04T15:45:38Z</time>
      </trkpt>
      <trkpt lat="44.81614" lon="5.74457">
        <ele>757</ele>
        <time>2017-05-04T15:45:54Z</time>
      </trkpt>
      <trkpt lat="44.8156" lon="5.74425">
        <ele>757</ele>
        <time>2017-05-04T15:45:59Z</time>
      </trkpt>
      <trkpt lat="44.8145" lon="5.7436">
        <ele>753</ele>
        <time>2017-05-04T15:46:01Z</time>
      </trkpt>
      <trkpt lat="44.81353" lon="5.743">
        <ele>749</ele>
        <time>2017-05-04T15:46:06Z</time>
      </trkpt>
      <trkpt lat="44.81323" lon="5.74278">
        <ele>748</ele>
        <time>2017-05-04T15:46:19Z</time>
      </trkpt>
      <trkpt lat="44.81306" lon="5.74259">
        <ele>748</ele>
        <time>2017-05-04T15:46:32Z</time>
      </trkpt>
      <trkpt lat="44.81302" lon="5.74253">
        <ele>748</ele>
        <time>2017-05-04T15:46:45Z</time>
      </trkpt>
      <trkpt lat="44.81297" lon="5.74244">
        <ele>746</ele>
        <time>2017-05-04T15:46:52Z</time>
      </trkpt>
      <trkpt lat="44.81292" lon="5.74246">
        <ele>746</ele>
        <time>2017-05-04T15:46:58Z</time>
      </trkpt>
      <trkpt lat="44.81284" lon="5.74242">
        <ele>746</ele>
        <time>2017-05-04T15:47:12Z</time>
      </trkpt>
      <trkpt lat="44.81273" lon="5.74207">
        <ele>746</ele>
        <time>2017-05-04T15:47:18Z</time>
      </trkpt>
      <trkpt lat="44.81265" lon="5.74179">
        <ele>746</ele>
        <time>2017-05-04T15:47:35Z</time>
      </trkpt>
      <trkpt lat="44.81254" lon="5.74156">
        <ele>745</ele>
        <time>2017-05-04T15:47:37Z</time>
      </trkpt>
      <trkpt lat="44.81244" lon="5.74143">
        <ele>748</ele>
        <time>2017-05-04T15:47:44Z</time>
      </trkpt>
      <trkpt lat="44.81229" lon="5.74135">
        <ele>748</ele>
        <time>2017-05-04T15:48:04Z</time>
      </trkpt>
      <trkpt lat="44.81215" lon="5.74136">
        <ele>749</ele>
        <time>2017-05-04T15:48:07Z</time>
      </trkpt>
      <trkpt lat="44.81197" lon="5.7415">
        <ele>750</ele>
        <time>2017-05-04T15:48:16Z</time>
      </trkpt>
      <trkpt lat="44.81195" lon="5.74152">
        <ele>750</ele>
        <time>2017-05-04T15:48:36Z</time>
      </trkpt>
      <trkpt lat="44.81186" lon="5.74133">
        <ele>750</ele>
        <time>2017-05-04T15:48:54Z</time>
      </trkpt>
      <trkpt lat="44.81176" lon="5.74105">
        <ele>751</ele>
        <time>2017-05-04T15:49:06Z</time>
      </trkpt>
      <trkpt lat="44.81173" lon="5.74091">
        <ele>752</ele>
        <time>2017-05-04T15:49:12Z</time>
      </trkpt>
      <trkpt lat="44.81165" lon="5.74095">
        <ele>755</ele>
        <time>2017-05-04T15:49:28Z</time>
      </trkpt>
      <trkpt lat="44.81159" lon="5.74102">
        <ele>756</ele>
        <time>2017-05-04T15:49:31Z</time>
      </trkpt>
      <trkpt lat="44.81141" lon="5.7412">
        <ele>757</ele>
        <time>2017-05-04T15:49:51Z</time>
      </trkpt>
      <trkpt lat="44.81124" lon="5.74134">
        <ele>758</ele>
        <time>2017-05-04T15:50:06Z</time>
      </trkpt>
      <trkpt lat="44.81102" lon="5.74143">
        <ele>759</ele>
        <time>2017-05-04T15:50:19Z</time>
      </trkpt>
      <trkpt lat="44.81083" lon="5.74132">
        <ele>763</ele>
        <time>2017-05-04T15:50:26Z</time>
      </trkpt>
      <trkpt lat="44.8105" lon="5.74118">
        <ele>763</ele>
        <time>2017-05-04T15:50:43Z</time>
      </trkpt>
      <trkpt lat="44.81034" lon="5.74112">
        <ele>763</ele>
        <time>2017-05-04T15:50:50Z</time>
      </trkpt>
      <trkpt lat="44.8101" lon="5.74106">
        <ele>763</ele>
        <time>2017-05-04T15:51:09Z</time>
      </trkpt>
      <trkpt lat="44.80998" lon="5.741">
        <ele>763</ele>
        <time>2017-05-04T15:51:13Z</time>
      </trkpt>
      <trkpt lat="44.80993" lon="5.74094">
        <ele>763</ele>
        <time>2017-05-04T15:51:24Z</time>
      </trkpt>
      <trkpt lat="44.80992" lon="5.74091">
        <ele>763</ele>
        <time>2017-05-04T15:51:38Z</time>
      </trkpt>
      <trkpt lat="44.80986" lon="5.74091">
        <ele>763</ele>
        <time>2017-05-04T15:51:40Z</time>
      </trkpt>
      <trkpt lat="44.80967" lon="5.74083">
        <ele>758</ele>
        <time>2017-05-04T15:51:43Z</time>
      </trkpt>
      <trkpt lat="44.80906" lon="5.74055">
        <ele>753</ele>
        <time>2017-05-04T15:51:56Z</time>
      </trkpt>
      <trkpt lat="44.80867" lon="5.74034">
        <ele>750</ele>
        <time>2017-05-04T15:52:14Z</time>
      </trkpt>
      <trkpt lat="44.80842" lon="5.74014">
        <ele>746</ele>
        <time>2017-05-04T15:52:24Z</time>
      </trkpt>
      <trkpt lat="44.80827" lon="5.74006">
        <ele>743</ele>
        <time>2017-05-04T15:52:35Z</time>
      </trkpt>
      <trkpt lat="44.80811" lon="5.74001">
        <ele>744</ele>
        <time>2017-05-04T15:52:48Z</time>
      </trkpt>
      <trkpt lat="44.80781" lon="5.73992">
        <ele>734</ele>
        <time>2017-05-04T15:53:01Z</time>
      </trkpt>
      <trkpt lat="44.80772" lon="5.73985">
        <ele>733</ele>
        <time>2017-05-04T15:53:08Z</time>
      </trkpt>
      <trkpt lat="44.80766" lon="5.73986">
        <ele>733</ele>
        <time>2017-05-04T15:53:23Z</time>
      </trkpt>
      <trkpt lat="44.80704" lon="5.74027">
        <ele>737</ele>
        <time>2017-05-04T15:53:33Z</time>
      </trkpt>
      <trkpt lat="44.8064" lon="5.74069">
        <ele>735</ele>
        <time>2017-05-04T15:53:42Z</time>
      </trkpt>
      <trkpt lat="44.80623" lon="5.74086">
        <ele>739</ele>
        <time>2017-05-04T15:53:52Z</time>
      </trkpt>
      <trkpt lat="44.80609" lon="5.74119">
        <ele>740</ele>
        <time>2017-05-04T15:53:55Z</time>
      </trkpt>
      <trkpt lat="44.80601" lon="5.74125">
        <ele>739</ele>
        <time>2017-05-04T15:54:03Z</time>
      </trkpt>
      <trkpt lat="44.80597" lon="5.74126">
        <ele>739</ele>
        <time>2017-05-04T15:54:10Z</time>
      </trkpt>
      <trkpt lat="44.80582" lon="5.74124">
        <ele>733</ele>
        <time>2017-05-04T15:54:24Z</time>
      </trkpt>
      <trkpt lat="44.80509" lon="5.74111">
        <ele>735</ele>
        <time>2017-05-04T15:54:30Z</time>
      </trkpt>
      <trkpt lat="44.80488" lon="5.74104">
        <ele>737</ele>
        <time>2017-05-04T15:54:46Z</time>
      </trkpt>
      <trkpt lat="44.80481" lon="5.74093">
        <ele>737</ele>
        <time>2017-05-04T15:55:06Z</time>
      </trkpt>
      <trkpt lat="44.80484" lon="5.74073">
        <ele>741</ele>
        <time>2017-05-04T15:55:12Z</time>
      </trkpt>
      <trkpt lat="44.80504" lon="5.74046">
        <ele>737</ele>
        <time>2017-05-04T15:55:19Z</time>
      </trkpt>
      <trkpt lat="44.80534" lon="5.74003">
        <ele>737</ele>
        <time>2017-05-04T15:55:39Z</time>
      </trkpt>
      <trkpt lat="44.80536" lon="5.73995">
        <ele>741</ele>
        <time>2017-05-04T15:55:54Z</time>
      </trkpt>
      <trkpt lat="44.80533" lon="5.73983">
        <ele>741</ele>
        <time>2017-05-04T15:55:57Z</time>
      </trkpt>
      <trkpt lat="44.80529" lon="5.73977">
        <ele>742</ele>
        <time>2017-05-04T15:56:07Z</time>
      </trkpt>
      <trkpt lat="44.80522" lon="5.73975">
        <ele>742</ele>
        <time>2017-05-04T15:56:25Z</time>
      </trkpt>
      <trkpt lat="44.80492" lon="5.73954">
        <ele>750</ele>
        <time>2017-05-04T15:56:33Z</time>
      </trkpt>
      <trkpt lat="44.80489" lon="5.73953">
        <ele>750</ele>
        <time>2017-05-04T15:56:35Z</time>
      </trkpt>
      <trkpt lat="44.80468" lon="5.73942">
        <ele>751</ele>
        <time>2017-05-04T15:56:42Z</time>
      </trkpt>
      <trkpt lat="44.80456" lon="5.73939">
        <ele>752</ele>
        <time>2017-05-04T15:56:50Z</time>
      </trkpt>
      <trkpt lat="44.8045" lon="5.73939">
        <ele>752</ele>
        <time>2017-05-04T15:57:06Z</time>
      </trkpt>
      <trkpt lat="44.80434" lon="5.73949">
        <ele>752</ele>
        <time>2017-05-04T15:57:22Z</time>
      </trkpt>
      <trkpt lat="44.80393" lon="5.73953">
        <ele>759</ele>
        <time>2017-05-04T15:57:30Z</time>
      </trkpt>
      <trkpt lat="44.80385" lon="5.7395">
        <ele>760</ele>
        <time>2017-05-04T15:57:42Z</time>
      </trkpt>
      <trkpt lat="44.80381" lon="5.73946">
        <ele>760</ele>
        <time>2017-05-04T15:57:58Z</time>
      </trkpt>
      <trkpt lat="44.8037" lon="5.73946">
        <ele>761</ele>
        <time>2017-05-04T15:58:03Z</time>
      </trkpt>
      <trkpt lat="44.8035" lon="5.73953">
        <ele>762</ele>
        <time>2017-05-04T15:58:16Z</time>
      </trkpt>
      <trkpt lat="44.80322" lon="5.73963">
        <ele>772</ele>
        <time>2017-05-04T15:58:21Z</time>
      </trkpt>
      <trkpt lat="44.80312" lon="5.73966">
        <ele>773</ele>
        <time>2017-05-04T15:58:30Z</time>
      </trkpt>
      <trkpt lat="44.80293" lon="5.73991">
        <ele>774</ele>
        <time>2017-05-04T15:58:42Z</time>
      </trkpt>
      <trkpt lat="44.80265" lon="5.74032">
        <ele>769</ele>
        <time>2017-05-04T15:58:54Z</time>
      </trkpt>
      <trkpt lat="44.8023" lon="5.74083">
        <ele>775</ele>
        <time>2017-05-04T15:59:01Z</time>
      </trkpt>
      <trkpt lat="44.80209" lon="5.74104">
        <ele>770</ele>
        <time>2017-05-04T15:59:03Z</time>
      </trkpt>
      <trkpt lat="44.80194" lon="5.74112">
        <ele>771</ele>
        <time>2017-05-04T15:59:18Z</time>
      </trkpt>
      <trkpt lat="44.80179" lon="5.74112">
        <ele>772</ele>
        <time>2017-05-04T15:59:27Z</time>
      </trkpt>
      <trkpt lat="44.80161" lon="5.74111">
        <ele>782</ele>
        <time>2017-05-04T15:59:43Z</time>
      </trkpt>
      <trkpt lat="44.80144" lon="5.74115">
        <ele>783</ele>
        <time>2017-05-04T15:59:47Z</time>
      </trkpt>
      <trkpt lat="44.80114" lon="5.74135">
        <ele>783</ele>
        <time>2017-05-04T15:59:49Z</time>
      </trkpt>
      <trkpt lat="44.80081" lon="5.7415">
        <ele>787</ele>
        <time>2017-05-04T16:00:06Z</time>
      </trkpt>
      <trkpt lat="44.80064" lon="5.74152">
        <ele>788</ele>
        <time>2017-05-04T16:00:15Z</time>
      </trkpt>
      <trkpt lat="44.80043" lon="5.74148">
        <ele>791</ele>
        <time>2017-05-04T16:00:35Z</time>
      </trkpt>
      <trkpt lat="44.80024" lon="5.74144">
        <ele>792</ele>
        <time>2017-05-04T16:00:44Z</time>
      </trkpt>
      <trkpt lat="44.8001" lon="5.74146">
        <ele>791</ele>
        <time>2017-05-04T16:00:47Z</time>
      </trkpt>
      <trkpt lat="44.79988" lon="5.74153">
        <ele>794</ele>
        <time>2017-05-04T16:01:00Z</time>
      </trkpt>
      <trkpt lat="44.79943" lon="5.74161">
        <ele>798</ele>
        <time>2017-05-04T16:01:19Z</time>
      </trkpt>
      <trkpt lat="44.7992" lon="5.74168">
        <ele>794</ele>
        <time>2017-05-04T16:01:30Z</time>
      </trkpt>
      <trkpt lat="44.79869" lon="5.74196">
        <ele>794</ele>
        <time>2017-05-04T16:01:40Z</time>
      </trkpt>
      <trkpt lat="44.79817" lon="5.74224">
        <ele>798</ele>
        <time>2017-05-04T16:01:54Z</time>
      </trkpt>
      <trkpt lat="44.798" lon="5.74234">
        <ele>798</ele>
        <time>2017-05-04T16:02:01Z</time>
      </trkpt>
      <trkpt lat="44.79784" lon="5.74249">
        <ele>799</ele>
        <time>2017-05-04T16:02:04Z</time>
      </trkpt>
      <trkpt lat="44.79768" lon="5.74262">
        <ele>793</ele>
        <time>2017-05-04T16:02:18Z</time>
      </trkpt>
      <trkpt lat="44.79754" lon="5.74278">
        <ele>792</ele>
        <time>2017-05-04T16:02:26Z</time>
      </trkpt>
      <trkpt lat="44.7974" lon="5.74295">
        <ele>799</ele>
        <time>2017-05-04T16:02:46Z</time>
      </trkpt>
      <trkpt lat="44.79726" lon="5.74321">
        <ele>797</ele>
        <time>2017-05-04T16:02:59Z</time>
      </trkpt>
      <trkpt lat="44.79704" lon="5.74374">
        <ele>796</ele>
        <time>2017-05-04T16:03:03Z</time>
      </trkpt>
      <trkpt lat="44.79684" lon="5.74442">
        <ele>795</ele>
        <time>2017-05-04T16:03:06Z</time>
      </trkpt>
      <trkpt lat="44.79647" lon="5.74568">
        <ele>797</ele>
        <time>2017-05-04T16:03:24Z</time>
      </trkpt>
      <trkpt lat="44.79638" lon="5.74595">
        <ele>796</ele>
        <time>2017-05-04T16:03:43Z</time>
      </trkpt>
      <trkpt lat="44.79625" lon="5.74617">
        <ele>796</ele>
        <time>2017-05-04T16:03:59Z</time>
      </trkpt>
      <trkpt lat="44.79603" lon="5.7465">
        <ele>797</ele>
        <time>2017-05-04T16:04:04Z</time>
      </trkpt>
      <trkpt lat="44.79593" lon="5.74675">
        <ele>797</ele>
        <time>2017-05-04T16:04:17Z</time>
      </trkpt>
      <trkpt lat="44.79579" lon="5.74726">
        <ele>799</ele>
        <time>2017-05-04T16:04:23Z</time>
      </trkpt>
      <trkpt lat="44.79561" lon="5.74784">
        <ele>798</ele>
        <time>2017-05-04T16:04:32Z</time>
      </trkpt>
      <trkpt lat="44.79545" lon="5.74844">
        <ele>796</ele>
        <time>2017-05-04T16:04:35Z</time>
      </trkpt>
      <trkpt lat="44.79539" lon="5.7487">
        <ele>797</ele>
        <time>2017-05-04T16:04:43Z</time>
      </trkpt>
      <trkpt lat="44.79538" lon="5.7488">
        <ele>797</ele>
        <time>2017-05-04T16:05:03Z</time>
      </trkpt>
      <trkpt lat="44.79533" lon="5.7488">
        <ele>797</ele>
        <time>2017-05-04T16:05:09Z</time>
      </trkpt>
      <trkpt lat="44.79506" lon="5.74881">
        <ele>797</ele>
        <time>2017-05-04T16:05:28Z</time>
      </trkpt>
      <trkpt lat="44.79458" lon="5.74886">
        <ele>799</ele>
        <time>2017-05-04T16:05:34Z</time>
      </trkpt>
      <trkpt lat="44.79429" lon="5.74884">
        <ele>800</ele>
        <time>2017-05-04T16:05:52Z</time>
      </trkpt>
      <trkpt lat="44.794" lon="5.74877">
        <ele>801</ele>
        <time>2017-05-04T16:06:12Z</time>
      </trkpt>
      <trkpt lat="44.79368" lon="5.74877">
        <ele>802</ele>
        <time>2017-05-04T16:06:16Z</time>
      </trkpt>
      <trkpt lat="44.79348" lon="5.74881">
        <ele>802</ele>
        <time>2017-05-04T16:06:19Z</time>
      </trkpt>
      <trkpt lat="44.79335" lon="5.74887">
        <ele>802</ele>
        <time>2017-05-04T16:06:23Z</time>
      </trkpt>
      <trkpt lat="44.79306" lon="5.74907">
        <ele>804</ele>
        <time>2017-05-04T16:06:39Z</time>
      </trkpt>
      <trkpt lat="44.79274" lon="5.74937">
        <ele>806</ele>
        <time>2017-05-04T16:06:56Z</time>
      </trkpt>
      <trkpt lat="44.79247" lon="5.74966">
        <ele>810</ele>
        <time>2017-05-04T16:07:00Z</time>
      </trkpt>
      <trkpt lat="44.79226" lon="5.75">
        <ele>811</ele>
        <time>2017-05-04T16:07:13Z</time>
      </trkpt>
      <trkpt lat="44.79202" lon="5.75047">
        <ele>812</ele>
        <time>2017-05-04T16:07:27Z</time>
      </trkpt>
      <trkpt lat="44.79185" lon="5.75075">
        <ele>813</ele>
        <time>2017-05-04T16:07:29Z</time>
      </trkpt>
      <trkpt lat="44.79172" lon="5.75091">
        <ele>813</ele>
        <time>2017-05-04T16:07:49Z</time>
      </trkpt>
      <trkpt lat="44.7916" lon="5.751">
        <ele>814</ele>
        <time>2017-05-04T16:07:55Z</time>
      </trkpt>
      <trkpt lat="44.79133" lon="5.7512">
        <ele>815</ele>
        <time>2017-05-04T16:08:06Z</time>
      </trkpt>
      <trkpt lat="44.79103" lon="5.7514">
        <ele>815</ele>
        <time>2017-05-04T16:08:25Z</time>
      </trkpt>
      <trkpt lat="44.79084" lon="5.75149">
        <ele>816</ele>
        <time>2017-05-04T16:08:43Z</time>
      </trkpt>
      <trkpt lat="44.79054" lon="5.75158">
        <ele>819</ele>
        <time>2017-05-04T16:09:00Z</time>
      </trkpt>
      <trkpt lat="44.79022" lon="5.75171">
        <ele>817</ele>
        <time>2017-05-04T16:09:16Z</time>
      </trkpt>
      <trkpt lat="44.78984" lon="5.75196">
        <ele>822</ele>
        <time>2017-05-04T16:09:31Z</time>
      </trkpt>
      <trkpt lat="44.7895" lon="5.75217">
        <ele>824</ele>
        <time>2017-05-04T16:09:46Z</time>
      </trkpt>
      <trkpt lat="44.78938" lon="5.75222">
        <ele>824</ele>
        <time>2017-05-04T16:09:50Z</time>
      </trkpt>
      <trkpt lat="44.78908" lon="5.75236">
        <ele>828</ele>
        <time>2017-05-04T16:09:54Z</time>
      </trkpt>
      <trkpt lat="44.78897" lon="5.75245">
        <ele>829</ele>
        <time>2017-05-04T16:10:06Z</time>
      </trkpt>
      <trkpt lat="44.78888" lon="5.75256">
        <ele>822</ele>
        <time>2017-05-04T16:10:23Z</time>
      </trkpt>
      <trkpt lat="44.78868" lon="5.75288">
        <ele>821</ele>
        <time>2017-05-04T16:10:38Z</time>
      </trkpt>
      <trkpt lat="44.78854" lon="5.7532">
        <ele>819</ele>
        <time>2017-05-04T16:10:46Z</time>
      </trkpt>
      <trkpt lat="44.7882" lon="5.75421">
        <ele>819</ele>
        <time>2017-05-04T16:11:06Z</time>
      </trkpt>
      <trkpt lat="44.78813" lon="5.75457">
        <ele>821</ele>
        <time>2017-05-04T16:11:17Z</time>
      </trkpt>
      <trkpt lat="44.78813" lon="5.75477">
        <ele>822</ele>
        <time>2017-05-04T16:11:19Z</time>
      </trkpt>
      <trkpt lat="44.78824" lon="5.7553">
        <ele>825</ele>
        <time>2017-05-04T16:11:23Z</time>
      </trkpt>
      <trkpt lat="44.78824" lon="5.75553">
        <ele>825</ele>
        <time>2017-05-04T16:11:42Z</time>
      </trkpt>
      <trkpt lat="44.78822" lon="5.75579">
        <ele>825</ele>
        <time>2017-05-04T16:11:55Z</time>
      </trkpt>
      <trkpt lat="44.78812" lon="5.75597">
        <ele>827</ele>
        <time>2017-05-04T16:12:11Z</time>
      </trkpt>
      <trkpt lat="44.78804" lon="5.75635">
        <ele>828</ele>
        <time>2017-05-04T16:12:19Z</time>
      </trkpt>
      <trkpt lat="44.78787" lon="5.75696">
        <ele>827</ele>
        <time>2017-05-04T16:12:27Z</time>
      </trkpt>
      <trkpt lat="44.78766" lon="5.75745">
        <ele>829</ele>
        <time>2017-05-04T16:12:45Z</time>
      </trkpt>
      <trkpt lat="44.78734" lon="5.7581">
        <ele>831</ele>
        <time>2017-05-04T16:13:00Z</time>
      </trkpt>
      <trkpt lat="44.7873" lon="5.7582">
        <ele>830</ele>
        <time>2017-05-04T16:13:20Z</time>
      </trkpt>
      <trkpt lat="44.7873" lon="5.7583">
        <ele>829</ele>
        <time>2017-05-04T16:13:30Z</time>
      </trkpt>
      <trkpt lat="44.78715" lon="5.7585">
        <ele>824</ele>
        <time>2017-05-04T16:13:46Z</time>
      </trkpt>
      <trkpt lat="44.78701" lon="5.75874">
        <ele>824</ele>
        <time>2017-05-04T16:14:03Z</time>
      </trkpt>
      <trkpt lat="44.78691" lon="5.75898">
        <ele>823</ele>
        <time>2017-05-04T16:14:20Z</time>
      </trkpt>
      <trkpt lat="44.78649" lon="5.75984">
        <ele>821</ele>
        <time>2017-05-04T16:14:33Z</time>
      </trkpt>
      <trkpt lat="44.78636" lon="5.76022">
        <ele>818</ele>
        <time>2017-05-04T16:14:50Z</time>
      </trkpt>
      <trkpt lat="44.7862" lon="5.76054">
        <ele>819</ele>
        <time>2017-05-04T16:14:58Z</time>
      </trkpt>
      <trkpt lat="44.78603" lon="5.7608">
        <ele>819</ele>
        <time>2017-05-04T16:15:05Z</time>
      </trkpt>
      <trkpt lat="44.78577" lon="5.76111">
        <ele>823</ele>
        <time>2017-05-04T16:15:20Z</time>
      </trkpt>
      <trkpt lat="44.78544" lon="5.76136">
        <ele>825</ele>
        <time>2017-05-04T16:15:23Z</time>
      </trkpt>
      <trkpt lat="44.78527" lon="5.76155">
        <ele>825</ele>
        <time>2017-05-04T16:15:33Z</time>
      </trkpt>
      <trkpt lat="44.78516" lon="5.76171">
        <ele>821</ele>
        <time>2017-05-04T16:15:35Z</time>
      </trkpt>
      <trkpt lat="44.78508" lon="5.76193">
        <ele>820</ele>
        <time>2017-05-04T16:15:55Z</time>
      </trkpt>
      <trkpt lat="44.78501" lon="5.76216">
        <ele>819</ele>
        <time>2017-05-04T16:16:10Z</time>
      </trkpt>
      <trkpt lat="44.78488" lon="5.7622">
        <ele>821</ele>
        <time>2017-05-04T16:16:21Z</time>
      </trkpt>
      <trkpt lat="44.78448" lon="5.76229">
        <ele>823</ele>
        <time>2017-05-04T16:16:26Z</time>
      </trkpt>
      <trkpt lat="44.78431" lon="5.76242">
        <ele>823</ele>
        <time>2017-05-04T16:16:34Z</time>
      </trkpt>
      <trkpt lat="44.78422" lon="5.76253">
        <ele>822</ele>
        <time>2017-05-04T16:16:37Z</time>
      </trkpt>
      <trkpt lat="44.78406" lon="5.76274">
        <ele>825</ele>
        <time>2017-05-04T16:16:46Z</time>
      </trkpt>
      <trkpt lat="44.78371" lon="5.76346">
        <ele>826</ele>
        <time>2017-05-04T16:16:53Z</time>
      </trkpt>
      <trkpt lat="44.78333" lon="5.76442">
        <ele>835</ele>
        <time>2017-05-04T16:17:00Z</time>
      </trkpt>
      <trkpt lat="44.78314" lon="5.76493">
        <ele>835</ele>
        <time>2017-05-04T16:17:04Z</time>
      </trkpt>
      <trkpt lat="44.783" lon="5.76509">
        <ele>835</ele>
        <time>2017-05-04T16:17:08Z</time>
      </trkpt>
      <trkpt lat="44.7825" lon="5.76541">
        <ele>840</ele>
        <time>2017-05-04T16:17:28Z</time>
      </trkpt>
      <trkpt lat="44.782" lon="5.76573">
        <ele>841</ele>
        <time>2017-05-04T16:17:32Z</time>
      </trkpt>
      <trkpt lat="44.78185" lon="5.76587">
        <ele>842</ele>
        <time>2017-05-04T16:17:43Z</time>
      </trkpt>
      <trkpt lat="44.78158" lon="5.7662">
        <ele>844</ele>
        <time>2017-05-04T16:17:56Z</time>
      </trkpt>
      <trkpt lat="44.78146" lon="5.76656">
        <ele>844</ele>
        <time>2017-05-04T16:18:12Z</time>
      </trkpt>
      <trkpt lat="44.78139" lon="5.76703">
        <ele>847</ele>
        <time>2017-05-04T16:18:31Z</time>
      </trkpt>
      <trkpt lat="44.78138" lon="5.76714">
        <ele>847</ele>
        <time>2017-05-04T16:18:46Z</time>
      </trkpt>
      <trkpt lat="44.78136" lon="5.76739">
        <ele>848</ele>
        <time>2017-05-04T16:19:03Z</time>
      </trkpt>
      <trkpt lat="44.78114" lon="5.76735">
        <ele>848</ele>
        <time>2017-05-04T16:19:23Z</time>
      </trkpt>
      <trkpt lat="44.7808" lon="5.76733">
        <ele>850</ele>
        <time>2017-05-04T16:19:26Z</time>
      </trkpt>
      <trkpt lat="44.78058" lon="5.76736">
        <ele>850</ele>
        <time>2017-05-04T16:19:34Z</time>
      </trkpt>
      <trkpt lat="44.78042" lon="5.76741">
        <ele>850</ele>
        <time>2017-05-04T16:19:53Z</time>
      </trkpt>
      <trkpt lat="44.78022" lon="5.7676">
        <ele>852</ele>
        <time>2017-05-04T16:19:55Z</time>
      </trkpt>
      <trkpt lat="44.78004" lon="5.76779">
        <ele>852</ele>
        <time>2017-05-04T16:19:57Z</time>
      </trkpt>
      <trkpt lat="44.77982" lon="5.76787">
        <ele>852</ele>
        <time>2017-05-04T16:20:17Z</time>
      </trkpt>
      <trkpt lat="44.77935" lon="5.76798">
        <ele>853</ele>
        <time>2017-05-04T16:20:27Z</time>
      </trkpt>
      <trkpt lat="44.77906" lon="5.768">
        <ele>854</ele>
        <time>2017-05-04T16:20:34Z</time>
      </trkpt>
      <trkpt lat="44.77894" lon="5.76804">
        <ele>854</ele>
        <time>2017-05-04T16:20:53Z</time>
      </trkpt>
      <trkpt lat="44.77883" lon="5.76817">
        <ele>854</ele>
        <time>2017-05-04T16:21:02Z</time>
      </trkpt>
      <trkpt lat="44.77869" lon="5.76838">
        <ele>855</ele>
        <time>2017-05-04T16:21:12Z</time>
      </trkpt>
      <trkpt lat="44.77856" lon="5.76851">
        <ele>855</ele>
        <time>2017-05-04T16:21:18Z</time>
      </trkpt>
      <trkpt lat="44.77847" lon="5.76864">
        <ele>856</ele>
        <time>2017-05-04T16:21:20Z</time>
      </trkpt>
      <trkpt lat="44.77836" lon="5.76882">
        <ele>856</ele>
        <time>2017-05-04T16:21:33Z</time>
      </trkpt>
      <trkpt lat="44.77823" lon="5.76884">
        <ele>859</ele>
        <time>2017-05-04T16:21:46Z</time>
      </trkpt>
      <trkpt lat="44.77812" lon="5.76879">
        <ele>859</ele>
        <time>2017-05-04T16:21:54Z</time>
      </trkpt>
      <trkpt lat="44.77801" lon="5.76874">
        <ele>860</ele>
        <time>2017-05-04T16:22:07Z</time>
      </trkpt>
      <trkpt lat="44.7779" lon="5.76881">
        <ele>860</ele>
        <time>2017-05-04T16:22:14Z</time>
      </trkpt>
      <trkpt lat="44.77744" lon="5.76907">
        <ele>865</ele>
        <time>2017-05-04T16:22:31Z</time>
      </trkpt>
      <trkpt lat="44.77709" lon="5.76927">
        <ele>868</ele>
        <time>2017-05-04T16:22:43Z</time>
      </trkpt>
      <trkpt lat="44.77674" lon="5.76942">
        <ele>871</ele>
        <time>2017-05-04T16:22:52Z</time>
      </trkpt>
      <trkpt lat="44.77658" lon="5.76948">
        <ele>876</ele>
        <time>2017-05-04T16:23:01Z</time>
      </trkpt>
      <trkpt lat="44.77643" lon="5.76959">
        <ele>875</ele>
        <time>2017-05-04T16:23:04Z</time>
      </trkpt>
      <trkpt lat="44.77609" lon="5.76972">
        <ele>876</ele>
        <time>2017-05-04T16:23:12Z</time>
      </trkpt>
      <trkpt lat="44.77554" lon="5.76989">
        <ele>879</ele>
        <time>2017-05-04T16:23:26Z</time>
      </trkpt>
      <trkpt lat="44.77496" lon="5.77021">
        <ele>878</ele>
        <time>2017-05-04T16:23:44Z</time>
      </trkpt>
      <trkpt lat="44.77476" lon="5.77029">
        <ele>877</ele>
        <time>2017-05-04T16:23:58Z</time>
      </trkpt>
      <trkpt lat="44.77462" lon="5.77033">
        <ele>878</ele>
        <time>2017-05-04T16:24:11Z</time>
      </trkpt>
      <trkpt lat="44.77376" lon="5.77075">
        <ele>881</ele>
        <time>2017-05-04T16:24:21Z</time>
      </trkpt>
      <trkpt lat="44.77367" lon="5.77075">
        <ele>882</ele>
        <time>2017-05-04T16:24:29Z</time>
      </trkpt>
      <trkpt lat="44.77314" lon="5.77033">
        <ele>886</ele>
        <time>2017-05-04T16:24:34Z</time>
      </trkpt>
      <trkpt lat="44.77293" lon="5.7702">
        <ele>887</ele>
        <time>2017-05-04T16:24:45Z</time>
      </trkpt>
      <trkpt lat="44.7727" lon="5.77011">
        <ele>888</ele>
        <time>2017-05-04T16:24:51Z</time>
      </trkpt>
      <trkpt lat="44.77252" lon="5.77008">
        <ele>890</ele>
        <time>2017-05-04T16:25:02Z</time>
      </trkpt>
      <trkpt lat="44.77192" lon="5.77007">
        <ele>891</ele>
        <time>2017-05-04T16:25:08Z</time>
      </trkpt>
      <trkpt lat="44.77182" lon="5.77005">
        <ele>892</ele>
        <time>2017-05-04T16:25:27Z</time>
      </trkpt>
      <trkpt lat="44.77149" lon="5.76991">
        <ele>896</ele>
        <time>2017-05-04T16:25:29Z</time>
      </trkpt>
      <trkpt lat="44.77137" lon="5.76987">
        <ele>898</ele>
        <time>2017-05-04T16:25:31Z</time>
      </trkpt>
      <trkpt lat="44.77101" lon="5.76991">
        <ele>898</ele>
        <time>2017-05-04T16:25:45Z</time>
      </trkpt>
      <trkpt lat="44.77059" lon="5.76998">
        <ele>902</ele>
        <time>2017-05-04T16:25:54Z</time>
      </trkpt>
      <trkpt lat="44.76981" lon="5.76995">
        <ele>908</ele>
        <time>2017-05-04T16:25:57Z</time>
      </trkpt>
      <trkpt lat="44.76855" lon="5.76983">
        <ele>918</ele>
        <time>2017-05-04T16:26:09Z</time>
      </trkpt>
      <trkpt lat="44.76827" lon="5.76979">
        <ele>922</ele>
        <time>2017-05-04T16:26:16Z</time>
      </trkpt>
      <trkpt lat="44.76817" lon="5.76975">
        <ele>922</ele>
        <time>2017-05-04T16:26:27Z</time>
      </trkpt>
      <trkpt lat="44.76775" lon="5.76956">
        <ele>923</ele>
        <time>2017-05-04T16:26:39Z</time>
      </trkpt>
      <trkpt lat="44.7674" lon="5.76951">
        <ele>928</ele>
        <time>2017-05-04T16:26:49Z</time>
      </trkpt>
      <trkpt lat="44.76712" lon="5.7695">
        <ele>930</ele>
        <time>2017-05-04T16:27:06Z</time>
      </trkpt>
      <trkpt lat="44.76681" lon="5.7695">
        <ele>931</ele>
        <time>2017-05-04T16:27:20Z</time>
      </trkpt>
      <trkpt lat="44.76654" lon="5.76962">
        <ele>938</ele>
        <time>2017-05-04T16:27:32Z</time>
      </trkpt>
      <trkpt lat="44.76624" lon="5.76977">
        <ele>940</ele>
        <time>2017-05-04T16:27:40Z</time>
      </trkpt>
      <trkpt lat="44.7661" lon="5.76982">
        <ele>942</ele>
        <time>2017-05-04T16:27:50Z</time>
      </trkpt>
      <trkpt lat="44.76599" lon="5.76982">
        <ele>943</ele>
        <time>2017-05-04T16:27:53Z</time>
      </trkpt>
      <trkpt lat="44.76587" lon="5.76978">
        <ele>943</ele>
        <time>2017-05-04T16:28:13Z</time>
      </trkpt>
      <trkpt lat="44.7658" lon="5.76966">
        <ele>949</ele>
        <time>2017-05-04T16:28:22Z</time>
      </trkpt>
      <trkpt lat="44.76587" lon="5.76978">
        <ele>943</ele>
        <time>2017-05-04T16:28:38Z</time>
      </trkpt>
      <trkpt lat="44.76556" lon="5.77013">
        <ele>959</ele>
        <time>2017-05-04T16:28:40Z</time>
      </trkpt>
      <trkpt lat="44.76537" lon="5.77027">
        <ele>962</ele>
        <time>2017-05-04T16:28:48Z</time>
      </trkpt>
      <trkpt lat="44.765" lon="5.77043">
        <ele>964</ele>
        <time>2017-05-04T16:28:51Z</time>
      </trkpt>
      <trkpt lat="44.76484" lon="5.77052">
        <ele>972</ele>
        <time>2017-05-04T16:29:02Z</time>
      </trkpt>
      <trkpt lat="44.76474" lon="5.77061">
        <ele>973</ele>
        <time>2017-05-04T16:29:14Z</time>
      </trkpt>
      <trkpt lat="44.76469" lon="5.77068">
        <ele>974</ele>
        <time>2017-05-04T16:29:29Z</time>
      </trkpt>
      <trkpt lat="44.76466" lon="5.77081">
        <ele>974</ele>
        <time>2017-05-04T16:29:44Z</time>
      </trkpt>
      <trkpt lat="44.76461" lon="5.7711">
        <ele>978</ele>
        <time>2017-05-04T16:29:48Z</time>
      </trkpt>
      <trkpt lat="44.76458" lon="5.77187">
        <ele>983</ele>
        <time>2017-05-04T16:30:01Z</time>
      </trkpt>
      <trkpt lat="44.76455" lon="5.77216">
        <ele>983</ele>
        <time>2017-05-04T16:30:06Z</time>
      </trkpt>
      <trkpt lat="44.76445" lon="5.77239">
        <ele>983</ele>
        <time>2017-05-04T16:30:14Z</time>
      </trkpt>
      <trkpt lat="44.76433" lon="5.77249">
        <ele>982</ele>
        <time>2017-05-04T16:30:29Z</time>
      </trkpt>
      <trkpt lat="44.76417" lon="5.77252">
        <ele>982</ele>
        <time>2017-05-04T16:30:31Z</time>
      </trkpt>
      <trkpt lat="44.76402" lon="5.77255">
        <ele>986</ele>
        <time>2017-05-04T16:30:51Z</time>
      </trkpt>
      <trkpt lat="44.76394" lon="5.77263">
        <ele>988</ele>
        <time>2017-05-04T16:31:11Z</time>
      </trkpt>
      <trkpt lat="44.76368" lon="5.77296">
        <ele>991</ele>
        <time>2017-05-04T16:31:20Z</time>
      </trkpt>
      <trkpt lat="44.76358" lon="5.773">
        <ele>992</ele>
        <time>2017-05-04T16:31:36Z</time>
      </trkpt>
      <trkpt lat="44.76352" lon="5.77295">
        <ele>992</ele>
        <time>2017-05-04T16:31:43Z</time>
      </trkpt>
      <trkpt lat="44.76354" lon="5.77283">
        <ele>992</ele>
        <time>2017-05-04T16:31:45Z</time>
      </trkpt>
      <trkpt lat="44.76362" lon="5.77264">
        <ele>992</ele>
        <time>2017-05-04T16:31:53Z</time>
      </trkpt>
      <trkpt lat="44.76364" lon="5.77232">
        <ele>994</ele>
        <time>2017-05-04T16:32:13Z</time>
      </trkpt>
      <trkpt lat="44.76362" lon="5.772">
        <ele>995</ele>
        <time>2017-05-04T16:32:29Z</time>
      </trkpt>
      <trkpt lat="44.76352" lon="5.77169">
        <ele>1000</ele>
        <time>2017-05-04T16:32:40Z</time>
      </trkpt>
      <trkpt lat="44.76327" lon="5.77129">
        <ele>1024</ele>
        <time>2017-05-04T16:32:54Z</time>
      </trkpt>
      <trkpt lat="44.76308" lon="5.77115">
        <ele>1028</ele>
        <time>2017-05-04T16:33:09Z</time>
      </trkpt>
      <trkpt lat="44.76273" lon="5.77106">
        <ele>1036</ele>
        <time>2017-05-04T16:33:13Z</time>
      </trkpt>
      <trkpt lat="44.76263" lon="5.77105">
        <ele>1038</ele>
        <time>2017-05-04T16:33:29Z</time>
      </trkpt>
      <trkpt lat="44.76257" lon="5.77096">
        <ele>1043</ele>
        <time>2017-05-04T16:33:41Z</time>
      </trkpt>
      <trkpt lat="44.76257" lon="5.77066">
        <ele>1045</ele>
        <time>2017-05-04T16:33:45Z</time>
      </trkpt>
      <trkpt lat="44.76261" lon="5.77035">
        <ele>1043</ele>
        <time>2017-05-04T16:33:52Z</time>
      </trkpt>
      <trkpt lat="44.76245" lon="5.77051">
        <ele>1063</ele>
        <time>2017-05-04T16:34:06Z</time>
      </trkpt>
      <trkpt lat="44.76232" lon="5.77061">
        <ele>1064</ele>
        <time>2017-05-04T16:34:24Z</time>
      </trkpt>
      <trkpt lat="44.76202" lon="5.77062">
        <ele>1071</ele>
        <time>2017-05-04T16:34:32Z</time>
      </trkpt>
      <trkpt lat="44.76193" lon="5.7706">
        <ele>1073</ele>
        <time>2017-05-04T16:34:35Z</time>
      </trkpt>
      <trkpt lat="44.76188" lon="5.77064">
        <ele>1074</ele>
        <time>2017-05-04T16:34:48Z</time>
      </trkpt>
      <trkpt lat="44.76176" lon="5.77091">
        <ele>1076</ele>
        <time>2017-05-04T16:34:53Z</time>
      </trkpt>
      <trkpt lat="44.76168" lon="5.77102">
        <ele>1073</ele>
        <time>2017-05-04T16:35:02Z</time>
      </trkpt>
      <trkpt lat="44.76154" lon="5.77111">
        <ele>1091</ele>
        <time>2017-05-04T16:35:11Z</time>
      </trkpt>
      <trkpt lat="44.76122" lon="5.77126">
        <ele>1096</ele>
        <time>2017-05-04T16:35:14Z</time>
      </trkpt>
      <trkpt lat="44.76108" lon="5.77139">
        <ele>1098</ele>
        <time>2017-05-04T16:35:34Z</time>
      </trkpt>
      <trkpt lat="44.76103" lon="5.7717">
        <ele>1097</ele>
        <time>2017-05-04T16:35:46Z</time>
      </trkpt>
      <trkpt lat="44.76104" lon="5.77174">
        <ele>1096</ele>
        <time>2017-05-04T16:35:56Z</time>
      </trkpt>
      <trkpt lat="44.76107" lon="5.77229">
        <ele>1096</ele>
        <time>2017-05-04T16:36:15Z</time>
      </trkpt>
      <trkpt lat="44.76098" lon="5.77233">
        <ele>1099</ele>
        <time>2017-05-04T16:36:33Z</time>
      </trkpt>
      <trkpt lat="44.76088" lon="5.77227">
        <ele>1100</ele>
        <time>2017-05-04T16:36:53Z</time>
      </trkpt>
      <trkpt lat="44.76074" lon="5.77211">
        <ele>1113</ele>
        <time>2017-05-04T16:37:03Z</time>
      </trkpt>
      <trkpt lat="44.76061" lon="5.77189">
        <ele>1112</ele>
        <time>2017-05-04T16:37:09Z</time>
      </trkpt>
      <trkpt lat="44.76048" lon="5.77169">
        <ele>1112</ele>
        <time>2017-05-04T16:37:13Z</time>
      </trkpt>
      <trkpt lat="44.76044" lon="5.77159">
        <ele>1112</ele>
        <time>2017-05-04T16:37:31Z</time>
      </trkpt>
      <trkpt lat="44.76041" lon="5.77157">
        <ele>1112</ele>
        <time>2017-05-04T16:37:51Z</time>
      </trkpt>
      <trkpt lat="44.76037" lon="5.77157">
        <ele>1112</ele>
        <time>2017-05-04T16:38:02Z</time>
      </trkpt>
      <trkpt lat="44.76019" lon="5.77161">
        <ele>1111</ele>
        <time>2017-05-04T16:38:15Z</time>
      </trkpt>
      <trkpt lat="44.76017" lon="5.77144">
        <ele>1112</ele>
        <time>2017-05-04T16:38:21Z</time>
      </trkpt>
      <trkpt lat="44.76029" lon="5.77115">
        <ele>1113</ele>
        <time>2017-05-04T16:38:35Z</time>
      </trkpt>
      <trkpt lat="44.76032" lon="5.77099">
        <ele>1114</ele>
        <time>2017-05-04T16:38:44Z</time>
      </trkpt>
      <trkpt lat="44.76032" lon="5.77071">
        <ele>1123</ele>
        <time>2017-05-04T16:38:55Z</time>
      </trkpt>
      <trkpt lat="44.76031" lon="5.7706">
        <ele>1125</ele>
        <time>2017-05-04T16:39:01Z</time>
      </trkpt>
      <trkpt lat="44.76028" lon="5.7705">
        <ele>1126</ele>
        <time>2017-05-04T16:39:18Z</time>
      </trkpt>
      <trkpt lat="44.76021" lon="5.77039">
        <ele>1127</ele>
        <time>2017-05-04T16:39:37Z</time>
      </trkpt>
      <trkpt lat="44.76012" lon="5.77035">
        <ele>1128</ele>
        <time>2017-05-04T16:39:48Z</time>
      </trkpt>
      <trkpt lat="44.76004" lon="5.77022">
        <ele>1130</ele>
        <time>2017-05-04T16:40:05Z</time>
      </trkpt>
      <trkpt lat="44.75989" lon="5.76986">
        <ele>1130</ele>
        <time>2017-05-04T16:40:13Z</time>
      </trkpt>
      <trkpt lat="44.75973" lon="5.76934">
        <ele>1132</ele>
        <time>2017-05-04T16:40:18Z</time>
      </trkpt>
      <trkpt lat="44.75973" lon="5.76915">
        <ele>1142</ele>
        <time>2017-05-04T16:40:24Z</time>
      </trkpt>
      <trkpt lat="44.75984" lon="5.76852">
        <ele>1149</ele>
        <time>2017-05-04T16:40:41Z</time>
      </trkpt>
      <trkpt lat="44.75997" lon="5.76796">
        <ele>1158</ele>
        <time>2017-05-04T16:41:01Z</time>
      </trkpt>
      <trkpt lat="44.76004" lon="5.76781">
        <ele>1167</ele>
        <time>2017-05-04T16:41:04Z</time>
      </trkpt>
      <trkpt lat="44.76009" lon="5.76777">
        <ele>1168</ele>
        <time>2017-05-04T16:41:18Z</time>
      </trkpt>
      <trkpt lat="44.76013" lon="5.76771">
        <ele>1168</ele>
        <time>2017-05-04T16:41:28Z</time>
      </trkpt>
      <trkpt lat="44.76017" lon="5.76744">
        <ele>1176</ele>
        <time>2017-05-04T16:41:48Z</time>
      </trkpt>
      <trkpt lat="44.76016" lon="5.76699">
        <ele>1182</ele>
        <time>2017-05-04T16:42:04Z</time>
      </trkpt>
      <trkpt lat="44.76013" lon="5.76628">
        <ele>1203</ele>
        <time>2017-05-04T16:42:10Z</time>
      </trkpt>
      <trkpt lat="44.7601" lon="5.76596">
        <ele>1213</ele>
        <time>2017-05-04T16:42:18Z</time>
      </trkpt>
      <trkpt lat="44.76014" lon="5.76567">
        <ele>1224</ele>
        <time>2017-05-04T16:42:21Z</time>
      </trkpt>
      <trkpt lat="44.76004" lon="5.7656">
        <ele>1225</ele>
        <time>2017-05-04T16:42:33Z</time>
      </trkpt>
      <trkpt lat="44.76" lon="5.76547">
        <ele>1225</ele>
        <time>2017-05-04T16:42:36Z</time>
      </trkpt>
      <trkpt lat="44.7599" lon="5.76511">
        <ele>1237</ele>
        <time>2017-05-04T16:42:54Z</time>
      </trkpt>
      <trkpt lat="44.75968" lon="5.76433">
        <ele>1248</ele>
        <time>2017-05-04T16:43:09Z</time>
      </trkpt>
      <trkpt lat="44.75983" lon="5.76408">
        <ele>1261</ele>
        <time>2017-05-04T16:43:28Z</time>
      </trkpt>
      <trkpt lat="44.76018" lon="5.76339">
        <ele>1260</ele>
        <time>2017-05-04T16:43:47Z</time>
      </trkpt>
      <trkpt lat="44.76022" lon="5.76325">
        <ele>1270</ele>
        <time>2017-05-04T16:43:49Z</time>
      </trkpt>
      <trkpt lat="44.76026" lon="5.76323">
        <ele>1269</ele>
        <time>2017-05-04T16:43:54Z</time>
      </trkpt>
      <trkpt lat="44.76028" lon="5.76326">
        <ele>1269</ele>
        <time>2017-05-04T16:44:12Z</time>
      </trkpt>
      <trkpt lat="44.76024" lon="5.76373">
        <ele>1253</ele>
        <time>2017-05-04T16:44:24Z</time>
      </trkpt>
      <trkpt lat="44.76026" lon="5.76381">
        <ele>1252</ele>
        <time>2017-05-04T16:44:33Z</time>
      </trkpt>
      <trkpt lat="44.7603" lon="5.76383">
        <ele>1251</ele>
        <time>2017-05-04T16:44:52Z</time>
      </trkpt>
      <trkpt lat="44.76032" lon="5.76381">
        <ele>1250</ele>
        <time>2017-05-04T16:45:12Z</time>
      </trkpt>
      <trkpt lat="44.76043" lon="5.76343">
        <ele>1250</ele>
        <time>2017-05-04T16:45:23Z</time>
      </trkpt>
      <trkpt lat="44.76046" lon="5.76335">
        <ele>1249</ele>
        <time>2017-05-04T16:45:38Z</time>
      </trkpt>
      <trkpt lat="44.76061" lon="5.7632">
        <ele>1258</ele>
        <time>2017-05-04T16:45:45Z</time>
      </trkpt>
      <trkpt lat="44.76073" lon="5.76317">
        <ele>1254</ele>
        <time>2017-05-04T16:45:58Z</time>
      </trkpt>
      <trkpt lat="44.76079" lon="5.76311">
        <ele>1256</ele>
        <time>2017-05-04T16:46:02Z</time>
      </trkpt>
      <trkpt lat="44.76093" lon="5.76284">
        <ele>1245</ele>
        <time>2017-05-04T16:46:18Z</time>
      </trkpt>
      <trkpt lat="44.76115" lon="5.76274">
        <ele>1243</ele>
        <time>2017-05-04T16:46:28Z</time>
      </trkpt>
      <trkpt lat="44.76143" lon="5.76271">
        <ele>1238</ele>
        <time>2017-05-04T16:46:43Z</time>
      </trkpt>
      <trkpt lat="44.76196" lon="5.76215">
        <ele>1239</ele>
        <time>2017-05-04T16:46:56Z</time>
      </trkpt>
      <trkpt lat="44.76222" lon="5.76184">
        <ele>1239</ele>
        <time>2017-05-04T16:47:03Z</time>
      </trkpt>
      <trkpt lat="44.76246" lon="5.76188">
        <ele>1236</ele>
        <time>2017-05-04T16:47:19Z</time>
      </trkpt>
      <trkpt lat="44.76268" lon="5.76181">
        <ele>1216</ele>
        <time>2017-05-04T16:47:37Z</time>
      </trkpt>
      <trkpt lat="44.76274" lon="5.76163">
        <ele>1231</ele>
        <time>2017-05-04T16:47:49Z</time>
      </trkpt>
      <trkpt lat="44.76278" lon="5.76145">
        <ele>1231</ele>
        <time>2017-05-04T16:48:01Z</time>
      </trkpt>
      <trkpt lat="44.76268" lon="5.76093">
        <ele>1247</ele>
        <time>2017-05-04T16:48:03Z</time>
      </trkpt>
      <trkpt lat="44.76265" lon="5.76061">
        <ele>1264</ele>
        <time>2017-05-04T16:48:14Z</time>
      </trkpt>
      <trkpt lat="44.76268" lon="5.76054">
        <ele>1264</ele>
        <time>2017-05-04T16:48:18Z</time>
      </trkpt>
      <trkpt lat="44.76279" lon="5.7605">
        <ele>1262</ele>
        <time>2017-05-04T16:48:30Z</time>
      </trkpt>
      <trkpt lat="44.7629" lon="5.76047">
        <ele>1260</ele>
        <time>2017-05-04T16:48:49Z</time>
      </trkpt>
      <trkpt lat="44.76306" lon="5.76036">
        <ele>1257</ele>
        <time>2017-05-04T16:48:52Z</time>
      </trkpt>
      <trkpt lat="44.76314" lon="5.76013">
        <ele>1257</ele>
        <time>2017-05-04T16:48:54Z</time>
      </trkpt>
      <trkpt lat="44.76322" lon="5.75973">
        <ele>1278</ele>
        <time>2017-05-04T16:49:12Z</time>
      </trkpt>
      <trkpt lat="44.7632" lon="5.75942">
        <ele>1287</ele>
        <time>2017-05-04T16:49:25Z</time>
      </trkpt>
      <trkpt lat="44.76324" lon="5.75931">
        <ele>1287</ele>
        <time>2017-05-04T16:49:40Z</time>
      </trkpt>
      <trkpt lat="44.76342" lon="5.75913">
        <ele>1284</ele>
        <time>2017-05-04T16:49:44Z</time>
      </trkpt>
      <trkpt lat="44.76358" lon="5.75906">
        <ele>1282</ele>
        <time>2017-05-04T16:49:57Z</time>
      </trkpt>
      <trkpt lat="44.76373" lon="5.75908">
        <ele>1278</ele>
        <time>2017-05-04T16:50:14Z</time>
      </trkpt>
      <trkpt lat="44.76398" lon="5.75891">
        <ele>1273</ele>
        <time>2017-05-04T16:50:26Z</time>
      </trkpt>
      <trkpt lat="44.76413" lon="5.75877">
        <ele>1275</ele>
        <time>2017-05-04T16:50:38Z</time>
      </trkpt>
      <trkpt lat="44.76425" lon="5.75854">
        <ele>1251</ele>
        <time>2017-05-04T16:50:46Z</time>
      </trkpt>
      <trkpt lat="44.76417" lon="5.75747">
        <ele>1282</ele>
        <time>2017-05-04T16:50:55Z</time>
      </trkpt>
      <trkpt lat="44.76414" lon="5.75696">
        <ele>1311</ele>
        <time>2017-05-04T16:50:57Z</time>
      </trkpt>
      <trkpt lat="44.76416" lon="5.75688">
        <ele>1310</ele>
        <time>2017-05-04T16:51:14Z</time>
      </trkpt>
      <trkpt lat="44.76423" lon="5.75674">
        <ele>1289</ele>
        <time>2017-05-04T16:51:19Z</time>
      </trkpt>
      <trkpt lat="44.7643" lon="5.75666">
        <ele>1297</ele>
        <time>2017-05-04T16:51:38Z</time>
      </trkpt>
      <trkpt lat="44.76468" lon="5.75654">
        <ele>1285</ele>
        <time>2017-05-04T16:51:50Z</time>
      </trkpt>
      <trkpt lat="44.76511" lon="5.75639">
        <ele>1255</ele>
        <time>2017-05-04T16:51:54Z</time>
      </trkpt>
      <trkpt lat="44.76549" lon="5.75611">
        <ele>1254</ele>
        <time>2017-05-04T16:52:00Z</time>
      </trkpt>
      <trkpt lat="44.76594" lon="5.75572">
        <ele>1249</ele>
        <time>2017-05-04T16:52:13Z</time>
      </trkpt>
      <trkpt lat="44.76612" lon="5.75548">
        <ele>1245</ele>
        <time>2017-05-04T16:52:29Z</time>
      </trkpt>
      <trkpt lat="44.76619" lon="5.75531">
        <ele>1246</ele>
        <time>2017-05-04T16:52:32Z</time>
      </trkpt>
      <trkpt lat="44.76622" lon="5.75507">
        <ele>1248</ele>
        <time>2017-05-04T16:52:42Z</time>
      </trkpt>
      <trkpt lat="44.76622" lon="5.75478">
        <ele>1254</ele>
        <time>2017-05-04T16:52:57Z</time>
      </trkpt>
      <trkpt lat="44.76608" lon="5.75413">
        <ele>1252</ele>
        <time>2017-05-04T16:53:02Z</time>
      </trkpt>
      <trkpt lat="44.76597" lon="5.75342">
        <ele>1244</ele>
        <time>2017-05-04T16:53:07Z</time>
      </trkpt>
      <trkpt lat="44.76592" lon="5.75326">
        <ele>1235</ele>
        <time>2017-05-04T16:53:15Z</time>
      </trkpt>
      <trkpt lat="44.7659" lon="5.75323">
        <ele>1235</ele>
        <time>2017-05-04T16:53:27Z</time>
      </trkpt>
      <trkpt lat="44.76569" lon="5.75321">
        <ele>1248</ele>
        <time>2017-05-04T16:53:30Z</time>
      </trkpt>
      <trkpt lat="44.76526" lon="5.7531">
        <ele>1256</ele>
        <time>2017-05-04T16:53:49Z</time>
      </trkpt>
      <trkpt lat="44.76492" lon="5.75285">
        <ele>1278</ele>
        <time>2017-05-04T16:53:57Z</time>
      </trkpt>
      <trkpt lat="44.76484" lon="5.75275">
        <ele>1276</ele>
        <time>2017-05-04T16:54:17Z</time>
      </trkpt>
      <trkpt lat="44.76477" lon="5.75261">
        <ele>1274</ele>
        <time>2017-05-04T16:54:29Z</time>
      </trkpt>
      <trkpt lat="44.76472" lon="5.75243">
        <ele>1263</ele>
        <time>2017-05-04T16:54:45Z</time>
      </trkpt>
      <trkpt lat="44.76471" lon="5.75224">
        <ele>1263</ele>
        <time>2017-05-04T16:54:49Z</time>
      </trkpt>
      <trkpt lat="44.76476" lon="5.75209">
        <ele>1261</ele>
        <time>2017-05-04T16:54:52Z</time>
      </trkpt>
      <trkpt lat="44.76481" lon="5.75202">
        <ele>1259</ele>
        <time>2017-05-04T16:55:08Z</time>
      </trkpt>
      <trkpt lat="44.76496" lon="5.75194">
        <ele>1253</ele>
        <time>2017-05-04T16:55:16Z</time>
      </trkpt>
      <trkpt lat="44.76503" lon="5.75187">
        <ele>1224</ele>
        <time>2017-05-04T16:55:24Z</time>
      </trkpt>
      <trkpt lat="44.76509" lon="5.75176">
        <ele>1225</ele>
        <time>2017-05-04T16:55:33Z</time>
      </trkpt>
      <trkpt lat="44.76511" lon="5.75156">
        <ele>1215</ele>
        <time>2017-05-04T16:55:43Z</time>
      </trkpt>
      <trkpt lat="44.76502" lon="5.7513">
        <ele>1206</ele>
        <time>2017-05-04T16:55:59Z</time>
      </trkpt>
      <trkpt lat="44.76475" lon="5.75099">
        <ele>1236</ele>
        <time>2017-05-04T16:56:06Z</time>
      </trkpt>
      <trkpt lat="44.76427" lon="5.75055">
        <ele>1231</ele>
        <time>2017-05-04T16:56:20Z</time>
      </trkpt>
      <trkpt lat="44.76388" lon="5.7503">
        <ele>1249</ele>
        <time>2017-05-04T16:56:28Z</time>
      </trkpt>
      <trkpt lat="44.7635" lon="5.75024">
        <ele>1252</ele>
        <time>2017-05-04T16:56:36Z</time>
      </trkpt>
      <trkpt lat="44.76334" lon="5.75017">
        <ele>1249</ele>
        <time>2017-05-04T16:56:48Z</time>
      </trkpt>
      <trkpt lat="44.76328" lon="5.75008">
        <ele>1253</ele>
        <time>2017-05-04T16:57:01Z</time>
      </trkpt>
      <trkpt lat="44.76328" lon="5.75">
        <ele>1241</ele>
        <time>2017-05-04T16:57:03Z</time>
      </trkpt>
      <trkpt lat="44.76334" lon="5.74994">
        <ele>1236</ele>
        <time>2017-05-04T16:57:13Z</time>
      </trkpt>
      <trkpt lat="44.76355" lon="5.74987">
        <ele>1225</ele>
        <time>2017-05-04T16:57:28Z</time>
      </trkpt>
      <trkpt lat="44.76371" lon="5.74972">
        <ele>1219</ele>
        <time>2017-05-04T16:57:34Z</time>
      </trkpt>
      <trkpt lat="44.76398" lon="5.74949">
        <ele>1212</ele>
        <time>2017-05-04T16:57:48Z</time>
      </trkpt>
      <trkpt lat="44.76422" lon="5.7492">
        <ele>1195</ele>
        <time>2017-05-04T16:57:53Z</time>
      </trkpt>
      <trkpt lat="44.76444" lon="5.74894">
        <ele>1178</ele>
        <time>2017-05-04T16:58:05Z</time>
      </trkpt>
      <trkpt lat="44.76463" lon="5.74866">
        <ele>1172</ele>
        <time>2017-05-04T16:58:09Z</time>
      </trkpt>
      <trkpt lat="44.76476" lon="5.74833">
        <ele>1157</ele>
        <time>2017-05-04T16:58:17Z</time>
      </trkpt>
      <trkpt lat="44.76484" lon="5.74828">
        <ele>1158</ele>
        <time>2017-05-04T16:58:22Z</time>
      </trkpt>
      <trkpt lat="44.76487" lon="5.74822">
        <ele>1158</ele>
        <time>2017-05-04T16:58:39Z</time>
      </trkpt>
      <trkpt lat="44.76496" lon="5.74786">
        <ele>1150</ele>
        <time>2017-05-04T16:58:46Z</time>
      </trkpt>
      <trkpt lat="44.7651" lon="5.74767">
        <ele>1146</ele>
        <time>2017-05-04T16:58:55Z</time>
      </trkpt>
      <trkpt lat="44.76516" lon="5.74762">
        <ele>1145</ele>
        <time>2017-05-04T16:59:11Z</time>
      </trkpt>
      <trkpt lat="44.76518" lon="5.74755">
        <ele>1145</ele>
        <time>2017-05-04T16:59:26Z</time>
      </trkpt>
      <trkpt lat="44.7653" lon="5.74732">
        <ele>1135</ele>
        <time>2017-05-04T16:59:38Z</time>
      </trkpt>
      <trkpt lat="44.76547" lon="5.74713">
        <ele>1132</ele>
        <time>2017-05-04T16:59:45Z</time>
      </trkpt>
      <trkpt lat="44.76555" lon="5.74709">
        <ele>1132</ele>
        <time>2017-05-04T17:00:05Z</time>
      </trkpt>
      <trkpt lat="44.76578" lon="5.7462">
        <ele>1118</ele>
        <time>2017-05-04T17:00:15Z</time>
      </trkpt>
      <trkpt lat="44.76609" lon="5.74543">
        <ele>1114</ele>
        <time>2017-05-04T17:00:29Z</time>
      </trkpt>
      <trkpt lat="44.76628" lon="5.74481">
        <ele>1109</ele>
        <time>2017-05-04T17:00:47Z</time>
      </trkpt>
      <trkpt lat="44.76633" lon="5.74451">
        <ele>1108</ele>
        <time>2017-05-04T17:00:51Z</time>
      </trkpt>
      <trkpt lat="44.76634" lon="5.74419">
        <ele>1108</ele>
        <time>2017-05-04T17:00:59Z</time>
      </trkpt>
      <trkpt lat="44.76628" lon="5.74378">
        <ele>1097</ele>
        <time>2017-05-04T17:01:02Z</time>
      </trkpt>
      <trkpt lat="44.76629" lon="5.74344">
        <ele>1095</ele>
        <time>2017-05-04T17:01:04Z</time>
      </trkpt>
      <trkpt lat="44.76633" lon="5.74306">
        <ele>1087</ele>
        <time>2017-05-04T17:01:21Z</time>
      </trkpt>
      <trkpt lat="44.76632" lon="5.74291">
        <ele>1085</ele>
        <time>2017-05-04T17:01:27Z</time>
      </trkpt>
      <trkpt lat="44.76624" lon="5.74244">
        <ele>1073</ele>
        <time>2017-05-04T17:01:46Z</time>
      </trkpt>
      <trkpt lat="44.76617" lon="5.7418">
        <ele>1066</ele>
        <time>2017-05-04T17:01:48Z</time>
      </trkpt>
      <trkpt lat="44.76608" lon="5.74136">
        <ele>1052</ele>
        <time>2017-05-04T17:01:55Z</time>
      </trkpt>
      <trkpt lat="44.76604" lon="5.74096">
        <ele>1049</ele>
        <time>2017-05-04T17:02:01Z</time>
      </trkpt>
      <trkpt lat="44.7661" lon="5.74093">
        <ele>1049</ele>
        <time>2017-05-04T17:02:12Z</time>
      </trkpt>
      <trkpt lat="44.76631" lon="5.7411">
        <ele>1048</ele>
        <time>2017-05-04T17:02:29Z</time>
      </trkpt>
      <trkpt lat="44.76666" lon="5.74167">
        <ele>1067</ele>
        <time>2017-05-04T17:02:34Z</time>
      </trkpt>
      <trkpt lat="44.76693" lon="5.742">
        <ele>1075</ele>
        <time>2017-05-04T17:02:49Z</time>
      </trkpt>
      <trkpt lat="44.76735" lon="5.74208">
        <ele>1075</ele>
        <time>2017-05-04T17:03:08Z</time>
      </trkpt>
      <trkpt lat="44.76742" lon="5.74202">
        <ele>1074</ele>
        <time>2017-05-04T17:03:12Z</time>
      </trkpt>
      <trkpt lat="44.76799" lon="5.74117">
        <ele>1052</ele>
        <time>2017-05-04T17:03:17Z</time>
      </trkpt>
      <trkpt lat="44.76809" lon="5.74105">
        <ele>1051</ele>
        <time>2017-05-04T17:03:19Z</time>
      </trkpt>
      <trkpt lat="44.76816" lon="5.7409">
        <ele>1049</ele>
        <time>2017-05-04T17:03:34Z</time>
      </trkpt>
      <trkpt lat="44.76827" lon="5.74059">
        <ele>1032</ele>
        <time>2017-05-04T17:03:48Z</time>
      </trkpt>
      <trkpt lat="44.76833" lon="5.74047">
        <ele>1028</ele>
        <time>2017-05-04T17:03:50Z</time>
      </trkpt>
      <trkpt lat="44.76839" lon="5.74038">
        <ele>1028</ele>
        <time>2017-05-04T17:03:59Z</time>
      </trkpt>
      <trkpt lat="44.76864" lon="5.74031">
        <ele>1026</ele>
        <time>2017-05-04T17:04:15Z</time>
      </trkpt>
      <trkpt lat="44.76876" lon="5.74021">
        <ele>1025</ele>
        <time>2017-05-04T17:04:23Z</time>
      </trkpt>
      <trkpt lat="44.76891" lon="5.74008">
        <ele>1023</ele>
        <time>2017-05-04T17:04:27Z</time>
      </trkpt>
      <trkpt lat="44.76898" lon="5.74003">
        <ele>1022</ele>
        <time>2017-05-04T17:04:42Z</time>
      </trkpt>
      <trkpt lat="44.76899" lon="5.73999">
        <ele>1015</ele>
        <time>2017-05-04T17:04:49Z</time>
      </trkpt>
      <trkpt lat="44.76905" lon="5.73991">
        <ele>1015</ele>
        <time>2017-05-04T17:05:05Z</time>
      </trkpt>
      <trkpt lat="44.76914" lon="5.73986">
        <ele>1015</ele>
        <time>2017-05-04T17:05:19Z</time>
      </trkpt>
      <trkpt lat="44.76921" lon="5.73972">
        <ele>1007</ele>
        <time>2017-05-04T17:05:31Z</time>
      </trkpt>
      <trkpt lat="44.76932" lon="5.73953">
        <ele>1004</ele>
        <time>2017-05-04T17:05:48Z</time>
      </trkpt>
      <trkpt lat="44.76941" lon="5.73947">
        <ele>1003</ele>
        <time>2017-05-04T17:05:53Z</time>
      </trkpt>
      <trkpt lat="44.76953" lon="5.73944">
        <ele>1002</ele>
        <time>2017-05-04T17:06:04Z</time>
      </trkpt>
      <trkpt lat="44.76981" lon="5.73924">
        <ele>998</ele>
        <time>2017-05-04T17:06:19Z</time>
      </trkpt>
      <trkpt lat="44.77004" lon="5.73899">
        <ele>987</ele>
        <time>2017-05-04T17:06:21Z</time>
      </trkpt>
      <trkpt lat="44.77016" lon="5.73885">
        <ele>983</ele>
        <time>2017-05-04T17:06:31Z</time>
      </trkpt>
      <trkpt lat="44.77021" lon="5.73884">
        <ele>982</ele>
        <time>2017-05-04T17:06:45Z</time>
      </trkpt>
      <trkpt lat="44.77026" lon="5.73876">
        <ele>981</ele>
        <time>2017-05-04T17:06:54Z</time>
      </trkpt>
      <trkpt lat="44.7703" lon="5.73869">
        <ele>981</ele>
        <time>2017-05-04T17:07:08Z</time>
      </trkpt>
      <trkpt lat="44.77031" lon="5.7386">
        <ele>980</ele>
        <time>2017-05-04T17:07:12Z</time>
      </trkpt>
      <trkpt lat="44.7704" lon="5.73849">
        <ele>979</ele>
        <time>2017-05-04T17:07:17Z</time>
      </trkpt>
      <trkpt lat="44.77056" lon="5.7384">
        <ele>976</ele>
        <time>2017-05-04T17:07:34Z</time>
      </trkpt>
      <trkpt lat="44.77059" lon="5.73835">
        <ele>976</ele>
        <time>2017-05-04T17:07:47Z</time>
      </trkpt>
      <trkpt lat="44.77062" lon="5.73827">
        <ele>972</ele>
        <time>2017-05-04T17:07:49Z</time>
      </trkpt>
      <trkpt lat="44.77067" lon="5.73813">
        <ele>971</ele>
        <time>2017-05-04T17:07:53Z</time>
      </trkpt>
      <trkpt lat="44.7708" lon="5.73792">
        <ele>970</ele>
        <time>2017-05-04T17:07:57Z</time>
      </trkpt>
      <trkpt lat="44.77084" lon="5.73789">
        <ele>964</ele>
        <time>2017-05-04T17:08:00Z</time>
      </trkpt>
      <trkpt lat="44.7709" lon="5.73785">
        <ele>964</ele>
        <time>2017-05-04T17:08:13Z</time>
      </trkpt>
      <trkpt lat="44.77089" lon="5.73767">
        <ele>963</ele>
        <time>2017-05-04T17:08:32Z</time>
      </trkpt>
      <trkpt lat="44.7709" lon="5.73753">
        <ele>964</ele>
        <time>2017-05-04T17:08:46Z</time>
      </trkpt>
      <trkpt lat="44.77089" lon="5.73738">
        <ele>961</ele>
        <time>2017-05-04T17:09:04Z</time>
      </trkpt>
      <trkpt lat="44.77094" lon="5.73734">
        <ele>960</ele>
        <time>2017-05-04T17:09:07Z</time>
      </trkpt>
      <trkpt lat="44.77103" lon="5.73716">
        <ele>958</ele>
        <time>2017-05-04T17:09:26Z</time>
      </trkpt>
      <trkpt lat="44.77115" lon="5.73695">
        <ele>957</ele>
        <time>2017-05-04T17:09:39Z</time>
      </trkpt>
      <trkpt lat="44.7713" lon="5.73676">
        <ele>956</ele>
        <time>2017-05-04T17:09:45Z</time>
      </trkpt>
      <trkpt lat="44.77142" lon="5.73649">
        <ele>950</ele>
        <time>2017-05-04T17:09:50Z</time>
      </trkpt>
      <trkpt lat="44.77152" lon="5.73625">
        <ele>949</ele>
        <time>2017-05-04T17:10:01Z</time>
      </trkpt>
      <trkpt lat="44.7716" lon="5.7361">
        <ele>948</ele>
        <time>2017-05-04T17:10:06Z</time>
      </trkpt>
      <trkpt lat="44.77168" lon="5.73588">
        <ele>946</ele>
        <time>2017-05-04T17:10:21Z</time>
      </trkpt>
      <trkpt lat="44.77178" lon="5.73546">
        <ele>940</ele>
        <time>2017-05-04T17:10:32Z</time>
      </trkpt>
      <trkpt lat="44.77187" lon="5.73511">
        <ele>937</ele>
        <time>2017-05-04T17:10:51Z</time>
      </trkpt>
      <trkpt lat="44.772" lon="5.73479">
        <ele>929</ele>
        <time>2017-05-04T17:11:05Z</time>
      </trkpt>
      <trkpt lat="44.77214" lon="5.73454">
        <ele>928</ele>
        <time>2017-05-04T17:11:11Z</time>
      </trkpt>
      <trkpt lat="44.77223" lon="5.73446">
        <ele>928</ele>
        <time>2017-05-04T17:11:26Z</time>
      </trkpt>
      <trkpt lat="44.77245" lon="5.73433">
        <ele>927</ele>
        <time>2017-05-04T17:11:36Z</time>
      </trkpt>
      <trkpt lat="44.77262" lon="5.73422">
        <ele>927</ele>
        <time>2017-05-04T17:11:48Z</time>
      </trkpt>
      <trkpt lat="44.7728" lon="5.73407">
        <ele>923</ele>
        <time>2017-05-04T17:11:50Z</time>
      </trkpt>
      <trkpt lat="44.77288" lon="5.73401">
        <ele>923</ele>
        <time>2017-05-04T17:12:04Z</time>
      </trkpt>
      <trkpt lat="44.77308" lon="5.73393">
        <ele>922</ele>
        <time>2017-05-04T17:12:11Z</time>
      </trkpt>
      <trkpt lat="44.77321" lon="5.73384">
        <ele>922</ele>
        <time>2017-05-04T17:12:19Z</time>
      </trkpt>
      <trkpt lat="44.77325" lon="5.73371">
        <ele>921</ele>
        <time>2017-05-04T17:12:33Z</time>
      </trkpt>
      <trkpt lat="44.77322" lon="5.73356">
        <ele>921</ele>
        <time>2017-05-04T17:12:36Z</time>
      </trkpt>
      <trkpt lat="44.77319" lon="5.7333">
        <ele>917</ele>
        <time>2017-05-04T17:12:48Z</time>
      </trkpt>
      <trkpt lat="44.77324" lon="5.7331">
        <ele>916</ele>
        <time>2017-05-04T17:12:55Z</time>
      </trkpt>
      <trkpt lat="44.77339" lon="5.73295">
        <ele>915</ele>
        <time>2017-05-04T17:13:00Z</time>
      </trkpt>
      <trkpt lat="44.77368" lon="5.73266">
        <ele>914</ele>
        <time>2017-05-04T17:13:17Z</time>
      </trkpt>
      <trkpt lat="44.77388" lon="5.73248">
        <ele>910</ele>
        <time>2017-05-04T17:13:36Z</time>
      </trkpt>
      <trkpt lat="44.77394" lon="5.73237">
        <ele>910</ele>
        <time>2017-05-04T17:13:44Z</time>
      </trkpt>
      <trkpt lat="44.77394" lon="5.73225">
        <ele>910</ele>
        <time>2017-05-04T17:13:56Z</time>
      </trkpt>
      <trkpt lat="44.7739" lon="5.73214">
        <ele>909</ele>
        <time>2017-05-04T17:14:09Z</time>
      </trkpt>
      <trkpt lat="44.77383" lon="5.73202">
        <ele>909</ele>
        <time>2017-05-04T17:14:19Z</time>
      </trkpt>
      <trkpt lat="44.77377" lon="5.73188">
        <ele>909</ele>
        <time>2017-05-04T17:14:24Z</time>
      </trkpt>
      <trkpt lat="44.77375" lon="5.73168">
        <ele>908</ele>
        <time>2017-05-04T17:14:42Z</time>
      </trkpt>
      <trkpt lat="44.77376" lon="5.73154">
        <ele>904</ele>
        <time>2017-05-04T17:14:47Z</time>
      </trkpt>
      <trkpt lat="44.7738" lon="5.73142">
        <ele>904</ele>
        <time>2017-05-04T17:15:00Z</time>
      </trkpt>
      <trkpt lat="44.77393" lon="5.73116">
        <ele>903</ele>
        <time>2017-05-04T17:15:03Z</time>
      </trkpt>
      <trkpt lat="44.77425" lon="5.73047">
        <ele>899</ele>
        <time>2017-05-04T17:15:06Z</time>
      </trkpt>
      <trkpt lat="44.77441" lon="5.72997">
        <ele>898</ele>
        <time>2017-05-04T17:15:17Z</time>
      </trkpt>
      <trkpt lat="44.77447" lon="5.7298">
        <ele>897</ele>
        <time>2017-05-04T17:15:35Z</time>
      </trkpt>
      <trkpt lat="44.77448" lon="5.72966">
        <ele>897</ele>
        <time>2017-05-04T17:15:52Z</time>
      </trkpt>
      <trkpt lat="44.77447" lon="5.7295">
        <ele>897</ele>
        <time>2017-05-04T17:16:10Z</time>
      </trkpt>
      <trkpt lat="44.77454" lon="5.7295">
        <ele>897</ele>
        <time>2017-05-04T17:16:29Z</time>
      </trkpt>
      <trkpt lat="44.77459" lon="5.72952">
        <ele>897</ele>
        <time>2017-05-04T17:16:39Z</time>
      </trkpt>
      <trkpt lat="44.77458" lon="5.72933">
        <ele>897</ele>
        <time>2017-05-04T17:16:45Z</time>
      </trkpt>
      <trkpt lat="44.77458" lon="5.72897">
        <ele>897</ele>
        <time>2017-05-04T17:16:57Z</time>
      </trkpt>
      <trkpt lat="44.77456" lon="5.7287">
        <ele>897</ele>
        <time>2017-05-04T17:17:17Z</time>
      </trkpt>
      <trkpt lat="44.77461" lon="5.72846">
        <ele>897</ele>
        <time>2017-05-04T17:17:35Z</time>
      </trkpt>
      <trkpt lat="44.77463" lon="5.72813">
        <ele>897</ele>
        <time>2017-05-04T17:17:53Z</time>
      </trkpt>
      <trkpt lat="44.77466" lon="5.72754">
        <ele>897</ele>
        <time>2017-05-04T17:18:05Z</time>
      </trkpt>
      <trkpt lat="44.77471" lon="5.72728">
        <ele>898</ele>
        <time>2017-05-04T17:18:21Z</time>
      </trkpt>
      <trkpt lat="44.77471" lon="5.72709">
        <ele>898</ele>
        <time>2017-05-04T17:18:23Z</time>
      </trkpt>
      <trkpt lat="44.77462" lon="5.72633">
        <ele>902</ele>
        <time>2017-05-04T17:18:41Z</time>
      </trkpt>
      <trkpt lat="44.77461" lon="5.72603">
        <ele>903</ele>
        <time>2017-05-04T17:18:59Z</time>
      </trkpt>
      <trkpt lat="44.7746" lon="5.72588">
        <ele>903</ele>
        <time>2017-05-04T17:19:03Z</time>
      </trkpt>
      <trkpt lat="44.77456" lon="5.72574">
        <ele>906</ele>
        <time>2017-05-04T17:19:23Z</time>
      </trkpt>
      <trkpt lat="44.77445" lon="5.72549">
        <ele>905</ele>
        <time>2017-05-04T17:19:36Z</time>
      </trkpt>
      <trkpt lat="44.77437" lon="5.72518">
        <ele>906</ele>
        <time>2017-05-04T17:19:54Z</time>
      </trkpt>
      <trkpt lat="44.77434" lon="5.72503">
        <ele>907</ele>
        <time>2017-05-04T17:20:12Z</time>
      </trkpt>
      <trkpt lat="44.77434" lon="5.72487">
        <ele>906</ele>
        <time>2017-05-04T17:20:25Z</time>
      </trkpt>
      <trkpt lat="44.77437" lon="5.72455">
        <ele>904</ele>
        <time>2017-05-04T17:20:33Z</time>
      </trkpt>
      <trkpt lat="44.7744" lon="5.72425">
        <ele>903</ele>
        <time>2017-05-04T17:20:40Z</time>
      </trkpt>
      <trkpt lat="44.77446" lon="5.72388">
        <ele>900</ele>
        <time>2017-05-04T17:20:48Z</time>
      </trkpt>
      <trkpt lat="44.77456" lon="5.72352">
        <ele>899</ele>
        <time>2017-05-04T17:20:57Z</time>
      </trkpt>
      <trkpt lat="44.77466" lon="5.72326">
        <ele>897</ele>
        <time>2017-05-04T17:21:05Z</time>
      </trkpt>
      <trkpt lat="44.77471" lon="5.72315">
        <ele>897</ele>
        <time>2017-05-04T17:21:20Z</time>
      </trkpt>
      <trkpt lat="44.77473" lon="5.72301">
        <ele>897</ele>
        <time>2017-05-04T17:21:24Z</time>
      </trkpt>
      <trkpt lat="44.77478" lon="5.72274">
        <ele>897</ele>
        <time>2017-05-04T17:21:34Z</time>
      </trkpt>
      <trkpt lat="44.77499" lon="5.7221">
        <ele>894</ele>
        <time>2017-05-04T17:21:41Z</time>
      </trkpt>
      <trkpt lat="44.77505" lon="5.72197">
        <ele>893</ele>
        <time>2017-05-04T17:21:50Z</time>
      </trkpt>
      <trkpt lat="44.77514" lon="5.72186">
        <ele>893</ele>
        <time>2017-05-04T17:21:55Z</time>
      </trkpt>
      <trkpt lat="44.7753" lon="5.72161">
        <ele>892</ele>
        <time>2017-05-04T17:22:02Z</time>
      </trkpt>
      <trkpt lat="44.77543" lon="5.72132">
        <ele>890</ele>
        <time>2017-05-04T17:22:20Z</time>
      </trkpt>
      <trkpt lat="44.77552" lon="5.72104">
        <ele>890</ele>
        <time>2017-05-04T17:22:33Z</time>
      </trkpt>
      <trkpt lat="44.7756" lon="5.72071">
        <ele>890</ele>
        <time>2017-05-04T17:22:40Z</time>
      </trkpt>
      <trkpt lat="44.77572" lon="5.72038">
        <ele>891</ele>
        <time>2017-05-04T17:22:59Z</time>
      </trkpt>
      <trkpt lat="44.7758" lon="5.72005">
        <ele>893</ele>
        <time>2017-05-04T17:23:08Z</time>
      </trkpt>
      <trkpt lat="44.77585" lon="5.71967">
        <ele>887</ele>
        <time>2017-05-04T17:23:28Z</time>
      </trkpt>
      <trkpt lat="44.77588" lon="5.71926">
        <ele>889</ele>
        <time>2017-05-04T17:23:34Z</time>
      </trkpt>
      <trkpt lat="44.77585" lon="5.71889">
        <ele>886</ele>
        <time>2017-05-04T17:23:54Z</time>
      </trkpt>
      <trkpt lat="44.77582" lon="5.71853">
        <ele>886</ele>
        <time>2017-05-04T17:23:58Z</time>
      </trkpt>
      <trkpt lat="44.7758" lon="5.71827">
        <ele>884</ele>
        <time>2017-05-04T17:24:00Z</time>
      </trkpt>
      <trkpt lat="44.77582" lon="5.71811">
        <ele>881</ele>
        <time>2017-05-04T17:24:20Z</time>
      </trkpt>
      <trkpt lat="44.77588" lon="5.71797">
        <ele>882</ele>
        <time>2017-05-04T17:24:27Z</time>
      </trkpt>
      <trkpt lat="44.77596" lon="5.71782">
        <ele>881</ele>
        <time>2017-05-04T17:24:31Z</time>
      </trkpt>
      <trkpt lat="44.77617" lon="5.7175">
        <ele>880</ele>
        <time>2017-05-04T17:24:47Z</time>
      </trkpt>
      <trkpt lat="44.7764" lon="5.71719">
        <ele>879</ele>
        <time>2017-05-04T17:24:57Z</time>
      </trkpt>
      <trkpt lat="44.77654" lon="5.71696">
        <ele>879</ele>
        <time>2017-05-04T17:25:03Z</time>
      </trkpt>
      <trkpt lat="44.77694" lon="5.71621">
        <ele>879</ele>
        <time>2017-05-04T17:25:12Z</time>
      </trkpt>
      <trkpt lat="44.77713" lon="5.71584">
        <ele>879</ele>
        <time>2017-05-04T17:25:16Z</time>
      </trkpt>
      <trkpt lat="44.77722" lon="5.71569">
        <ele>878</ele>
        <time>2017-05-04T17:25:33Z</time>
      </trkpt>
      <trkpt lat="44.77736" lon="5.71553">
        <ele>877</ele>
        <time>2017-05-04T17:25:39Z</time>
      </trkpt>
      <trkpt lat="44.77783" lon="5.71509">
        <ele>875</ele>
        <time>2017-05-04T17:25:57Z</time>
      </trkpt>
      <trkpt lat="44.77794" lon="5.71487">
        <ele>873</ele>
        <time>2017-05-04T17:26:08Z</time>
      </trkpt>
      <trkpt lat="44.77804" lon="5.71458">
        <ele>872</ele>
        <time>2017-05-04T17:26:13Z</time>
      </trkpt>
      <trkpt lat="44.77821" lon="5.71432">
        <ele>872</ele>
        <time>2017-05-04T17:26:22Z</time>
      </trkpt>
      <trkpt lat="44.77837" lon="5.71401">
        <ele>871</ele>
        <time>2017-05-04T17:26:37Z</time>
      </trkpt>
      <trkpt lat="44.77844" lon="5.7138">
        <ele>870</ele>
        <time>2017-05-04T17:26:42Z</time>
      </trkpt>
      <trkpt lat="44.77838" lon="5.71352">
        <ele>869</ele>
        <time>2017-05-04T17:26:50Z</time>
      </trkpt>
      <trkpt lat="44.77829" lon="5.71321">
        <ele>865</ele>
        <time>2017-05-04T17:26:56Z</time>
      </trkpt>
      <trkpt lat="44.77827" lon="5.71303">
        <ele>863</ele>
        <time>2017-05-04T17:27:16Z</time>
      </trkpt>
      <trkpt lat="44.77828" lon="5.7129">
        <ele>862</ele>
        <time>2017-05-04T17:27:36Z</time>
      </trkpt>
      <trkpt lat="44.77831" lon="5.71276">
        <ele>862</ele>
        <time>2017-05-04T17:27:47Z</time>
      </trkpt>
      <trkpt lat="44.77839" lon="5.7126">
        <ele>863</ele>
        <time>2017-05-04T17:28:02Z</time>
      </trkpt>
      <trkpt lat="44.77851" lon="5.7123">
        <ele>858</ele>
        <time>2017-05-04T17:28:07Z</time>
      </trkpt>
      <trkpt lat="44.77854" lon="5.71189">
        <ele>856</ele>
        <time>2017-05-04T17:28:20Z</time>
      </trkpt>
      <trkpt lat="44.77854" lon="5.71159">
        <ele>851</ele>
        <time>2017-05-04T17:28:23Z</time>
      </trkpt>
      <trkpt lat="44.77857" lon="5.71143">
        <ele>850</ele>
        <time>2017-05-04T17:28:33Z</time>
      </trkpt>
      <trkpt lat="44.77862" lon="5.71132">
        <ele>849</ele>
        <time>2017-05-04T17:28:51Z</time>
      </trkpt>
      <trkpt lat="44.77868" lon="5.71128">
        <ele>849</ele>
        <time>2017-05-04T17:29:03Z</time>
      </trkpt>
      <trkpt lat="44.77878" lon="5.71128">
        <ele>849</ele>
        <time>2017-05-04T17:29:14Z</time>
      </trkpt>
      <trkpt lat="44.779" lon="5.71133">
        <ele>848</ele>
        <time>2017-05-04T17:29:25Z</time>
      </trkpt>
      <trkpt lat="44.77909" lon="5.71132">
        <ele>848</ele>
        <time>2017-05-04T17:29:27Z</time>
      </trkpt>
      <trkpt lat="44.77919" lon="5.71127">
        <ele>845</ele>
        <time>2017-05-04T17:29:40Z</time>
      </trkpt>
      <trkpt lat="44.77928" lon="5.71122">
        <ele>844</ele>
        <time>2017-05-04T17:29:51Z</time>
      </trkpt>
      <trkpt lat="44.77935" lon="5.71124">
        <ele>844</ele>
        <time>2017-05-04T17:30:08Z</time>
      </trkpt>
      <trkpt lat="44.77943" lon="5.71125">
        <ele>844</ele>
        <time>2017-05-04T17:30:25Z</time>
      </trkpt>
      <trkpt lat="44.7795" lon="5.71118">
        <ele>844</ele>
        <time>2017-05-04T17:30:33Z</time>
      </trkpt>
      <trkpt lat="44.77961" lon="5.71083">
        <ele>838</ele>
        <time>2017-05-04T17:30:38Z</time>
      </trkpt>
      <trkpt lat="44.77974" lon="5.71055">
        <ele>837</ele>
        <time>2017-05-04T17:30:45Z</time>
      </trkpt>
      <trkpt lat="44.77987" lon="5.71016">
        <ele>834</ele>
        <time>2017-05-04T17:30:56Z</time>
      </trkpt>
      <trkpt lat="44.77997" lon="5.70977">
        <ele>830</ele>
        <time>2017-05-04T17:31:09Z</time>
      </trkpt>
      <trkpt lat="44.78006" lon="5.70933">
        <ele>826</ele>
        <time>2017-05-04T17:31:20Z</time>
      </trkpt>
      <trkpt lat="44.78024" lon="5.70876">
        <ele>821</ele>
        <time>2017-05-04T17:31:25Z</time>
      </trkpt>
      <trkpt lat="44.78039" lon="5.70841">
        <ele>819</ele>
        <time>2017-05-04T17:31:35Z</time>
      </trkpt>
      <trkpt lat="44.78062" lon="5.70803">
        <ele>815</ele>
        <time>2017-05-04T17:31:51Z</time>
      </trkpt>
      <trkpt lat="44.78088" lon="5.70769">
        <ele>813</ele>
        <time>2017-05-04T17:31:57Z</time>
      </trkpt>
      <trkpt lat="44.78102" lon="5.70746">
        <ele>811</ele>
        <time>2017-05-04T17:32:03Z</time>
      </trkpt>
      <trkpt lat="44.7811" lon="5.70727">
        <ele>811</ele>
        <time>2017-05-04T17:32:05Z</time>
      </trkpt>
      <trkpt lat="44.78082" lon="5.70716">
        <ele>811</ele>
        <time>2017-05-04T17:32:22Z</time>
      </trkpt>
      <trkpt lat="44.78063" lon="5.70706">
        <ele>811</ele>
        <time>2017-05-04T17:32:42Z</time>
      </trkpt>
      <trkpt lat="44.78038" lon="5.70686">
        <ele>811</ele>
        <time>2017-05-04T17:32:52Z</time>
      </trkpt>
      <trkpt lat="44.78012" lon="5.70662">
        <ele>811</ele>
        <time>2017-05-04T17:32:55Z</time>
      </trkpt>
      <trkpt lat="44.7799" lon="5.70646">
        <ele>806</ele>
        <time>2017-05-04T17:33:14Z</time>
      </trkpt>
      <trkpt lat="44.77985" lon="5.70638">
        <ele>805</ele>
        <time>2017-05-04T17:33:30Z</time>
      </trkpt>
      <trkpt lat="44.77982" lon="5.70627">
        <ele>805</ele>
        <time>2017-05-04T17:33:36Z</time>
      </trkpt>
      <trkpt lat="44.7798" lon="5.70589">
        <ele>807</ele>
        <time>2017-05-04T17:33:40Z</time>
      </trkpt>
      <trkpt lat="44.7798" lon="5.70538">
        <ele>806</ele>
        <time>2017-05-04T17:33:59Z</time>
      </trkpt>
      <trkpt lat="44.77979" lon="5.70499">
        <ele>808</ele>
        <time>2017-05-04T17:34:02Z</time>
      </trkpt>
      <trkpt lat="44.77975" lon="5.70422">
        <ele>807</ele>
        <time>2017-05-04T17:34:09Z</time>
      </trkpt>
      <trkpt lat="44.77975" lon="5.70381">
        <ele>804</ele>
        <time>2017-05-04T17:34:19Z</time>
      </trkpt>
      <trkpt lat="44.77978" lon="5.70357">
        <ele>803</ele>
        <time>2017-05-04T17:34:38Z</time>
      </trkpt>
      <trkpt lat="44.77982" lon="5.70318">
        <ele>800</ele>
        <time>2017-05-04T17:34:40Z</time>
      </trkpt>
      <trkpt lat="44.77982" lon="5.70268">
        <ele>798</ele>
        <time>2017-05-04T17:34:43Z</time>
      </trkpt>
      <trkpt lat="44.77988" lon="5.70221">
        <ele>794</ele>
        <time>2017-05-04T17:34:51Z</time>
      </trkpt>
      <trkpt lat="44.77999" lon="5.70175">
        <ele>796</ele>
        <time>2017-05-04T17:35:08Z</time>
      </trkpt>
      <trkpt lat="44.78011" lon="5.70141">
        <ele>797</ele>
        <time>2017-05-04T17:35:24Z</time>
      </trkpt>
      <trkpt lat="44.78027" lon="5.70102">
        <ele>796</ele>
        <time>2017-05-04T17:35:44Z</time>
      </trkpt>
      <trkpt lat="44.78031" lon="5.70085">
        <ele>795</ele>
        <time>2017-05-04T17:35:47Z</time>
      </trkpt>
      <trkpt lat="44.78033" lon="5.70068">
        <ele>793</ele>
        <time>2017-05-04T17:36:05Z</time>
      </trkpt>
      <trkpt lat="44.78036" lon="5.70028">
        <ele>792</ele>
        <time>2017-05-04T17:36:22Z</time>
      </trkpt>
      <trkpt lat="44.78043" lon="5.6999">
        <ele>789</ele>
        <time>2017-05-04T17:36:33Z</time>
      </trkpt>
      <trkpt lat="44.78069" lon="5.69921">
        <ele>791</ele>
        <time>2017-05-04T17:36:36Z</time>
      </trkpt>
      <trkpt lat="44.78078" lon="5.69891">
        <ele>788</ele>
        <time>2017-05-04T17:36:54Z</time>
      </trkpt>
      <trkpt lat="44.78079" lon="5.69859">
        <ele>787</ele>
        <time>2017-05-04T17:37:03Z</time>
      </trkpt>
      <trkpt lat="44.78078" lon="5.69821">
        <ele>786</ele>
        <time>2017-05-04T17:37:14Z</time>
      </trkpt>
      <trkpt lat="44.78074" lon="5.69789">
        <ele>781</ele>
        <time>2017-05-04T17:37:27Z</time>
      </trkpt>
      <trkpt lat="44.78071" lon="5.69758">
        <ele>781</ele>
        <time>2017-05-04T17:37:38Z</time>
      </trkpt>
      <trkpt lat="44.78071" lon="5.69744">
        <ele>778</ele>
        <time>2017-05-04T17:37:50Z</time>
      </trkpt>
      <trkpt lat="44.7808" lon="5.69694">
        <ele>774</ele>
        <time>2017-05-04T17:38:08Z</time>
      </trkpt>
      <trkpt lat="44.7809" lon="5.69649">
        <ele>773</ele>
        <time>2017-05-04T17:38:27Z</time>
      </trkpt>
      <trkpt lat="44.78102" lon="5.69639">
        <ele>773</ele>
        <time>2017-05-04T17:38:34Z</time>
      </trkpt>
      <trkpt lat="44.78134" lon="5.6962">
        <ele>772</ele>
        <time>2017-05-04T17:38:50Z</time>
      </trkpt>
      <trkpt lat="44.78162" lon="5.69601">
        <ele>771</ele>
        <time>2017-05-04T17:38:57Z</time>
      </trkpt>
      <trkpt lat="44.782" lon="5.69579">
        <ele>766</ele>
        <time>2017-05-04T17:39:06Z</time>
      </trkpt>
      <trkpt lat="44.78213" lon="5.69572">
        <ele>765</ele>
        <time>2017-05-04T17:39:09Z</time>
      </trkpt>
      <trkpt lat="44.78216" lon="5.69566">
        <ele>765</ele>
        <time>2017-05-04T17:39:20Z</time>
      </trkpt>
      <trkpt lat="44.78236" lon="5.69569">
        <ele>765</ele>
        <time>2017-05-04T17:39:32Z</time>
      </trkpt>
      <trkpt lat="44.78236" lon="5.69556">
        <ele>765</ele>
        <time>2017-05-04T17:39:44Z</time>
      </trkpt>
      <trkpt lat="44.78233" lon="5.69524">
        <ele>763</ele>
        <time>2017-05-04T17:39:57Z</time>
      </trkpt>
      <trkpt lat="44.78231" lon="5.69484">
        <ele>758</ele>
        <time>2017-05-04T17:40:16Z</time>
      </trkpt>
      <trkpt lat="44.78231" lon="5.69458">
        <ele>756</ele>
        <time>2017-05-04T17:40:33Z</time>
      </trkpt>
      <trkpt lat="44.78237" lon="5.69444">
        <ele>756</ele>
        <time>2017-05-04T17:40:37Z</time>
      </trkpt>
      <trkpt lat="44.78219" lon="5.69411">
        <ele>749</ele>
        <time>2017-05-04T17:40:48Z</time>
      </trkpt>
      <trkpt lat="44.78214" lon="5.69392">
        <ele>748</ele>
        <time>2017-05-04T17:40:52Z</time>
      </trkpt>
      <trkpt lat="44.78218" lon="5.69382">
        <ele>747</ele>
        <time>2017-05-04T17:41:05Z</time>
      </trkpt>
      <trkpt lat="44.78223" lon="5.69372">
        <ele>747</ele>
        <time>2017-05-04T17:41:09Z</time>
      </trkpt>
      <trkpt lat="44.78224" lon="5.69362">
        <ele>746</ele>
        <time>2017-05-04T17:41:25Z</time>
      </trkpt>
      <trkpt lat="44.78222" lon="5.69354">
        <ele>746</ele>
        <time>2017-05-04T17:41:34Z</time>
      </trkpt>
      <trkpt lat="44.78214" lon="5.69331">
        <ele>739</ele>
        <time>2017-05-04T17:41:43Z</time>
      </trkpt>
      <trkpt lat="44.78211" lon="5.69322">
        <ele>739</ele>
        <time>2017-05-04T17:41:54Z</time>
      </trkpt>
      <trkpt lat="44.78211" lon="5.69311">
        <ele>738</ele>
        <time>2017-05-04T17:42:00Z</time>
      </trkpt>
      <trkpt lat="44.78212" lon="5.69278">
        <ele>737</ele>
        <time>2017-05-04T17:42:14Z</time>
      </trkpt>
      <trkpt lat="44.78209" lon="5.69252">
        <ele>736</ele>
        <time>2017-05-04T17:42:23Z</time>
      </trkpt>
      <trkpt lat="44.782" lon="5.69237">
        <ele>732</ele>
        <time>2017-05-04T17:42:40Z</time>
      </trkpt>
      <trkpt lat="44.78198" lon="5.6923">
        <ele>732</ele>
        <time>2017-05-04T17:42:45Z</time>
      </trkpt>
      <trkpt lat="44.78196" lon="5.69212">
        <ele>731</ele>
        <time>2017-05-04T17:42:56Z</time>
      </trkpt>
      <trkpt lat="44.78196" lon="5.692">
        <ele>731</ele>
        <time>2017-05-04T17:43:12Z</time>
      </trkpt>
      <trkpt lat="44.78192" lon="5.69189">
        <ele>730</ele>
        <time>2017-05-04T17:43:18Z</time>
      </trkpt>
      <trkpt lat="44.78186" lon="5.69184">
        <ele>729</ele>
        <time>2017-05-04T17:43:37Z</time>
      </trkpt>
      <trkpt lat="44.78186" lon="5.69168">
        <ele>728</ele>
        <time>2017-05-04T17:43:53Z</time>
      </trkpt>
      <trkpt lat="44.78194" lon="5.69114">
        <ele>727</ele>
        <time>2017-05-04T17:44:12Z</time>
      </trkpt>
      <trkpt lat="44.78203" lon="5.69071">
        <ele>726</ele>
        <time>2017-05-04T17:44:29Z</time>
      </trkpt>
      <trkpt lat="44.78206" lon="5.69041">
        <ele>726</ele>
        <time>2017-05-04T17:44:47Z</time>
      </trkpt>
      <trkpt lat="44.78203" lon="5.69003">
        <ele>725</ele>
        <time>2017-05-04T17:44:57Z</time>
      </trkpt>
      <trkpt lat="44.78204" lon="5.68986">
        <ele>723</ele>
        <time>2017-05-04T17:45:07Z</time>
      </trkpt>
      <trkpt lat="44.78207" lon="5.68968">
        <ele>722</ele>
        <time>2017-05-04T17:45:25Z</time>
      </trkpt>
      <trkpt lat="44.78221" lon="5.68906">
        <ele>720</ele>
        <time>2017-05-04T17:45:31Z</time>
      </trkpt>
      <trkpt lat="44.78228" lon="5.68869">
        <ele>718</ele>
        <time>2017-05-04T17:45:45Z</time>
      </trkpt>
      <trkpt lat="44.78232" lon="5.68824">
        <ele>716</ele>
        <time>2017-05-04T17:46:05Z</time>
      </trkpt>
      <trkpt lat="44.78239" lon="5.68788">
        <ele>713</ele>
        <time>2017-05-04T17:46:15Z</time>
      </trkpt>
      <trkpt lat="44.78245" lon="5.68777">
        <ele>713</ele>
        <time>2017-05-04T17:46:28Z</time>
      </trkpt>
      <trkpt lat="44.78253" lon="5.6877">
        <ele>719</ele>
        <time>2017-05-04T17:46:47Z</time>
      </trkpt>
      <trkpt lat="44.78262" lon="5.68767">
        <ele>719</ele>
        <time>2017-05-04T17:46:55Z</time>
      </trkpt>
      <trkpt lat="44.78279" lon="5.68766">
        <ele>721</ele>
        <time>2017-05-04T17:47:04Z</time>
      </trkpt>
      <trkpt lat="44.78357" lon="5.68772">
        <ele>725</ele>
        <time>2017-05-04T17:47:10Z</time>
      </trkpt>
      <trkpt lat="44.78393" lon="5.68776">
        <ele>725</ele>
        <time>2017-05-04T17:47:30Z</time>
      </trkpt>
      <trkpt lat="44.78408" lon="5.68775">
        <ele>725</ele>
        <time>2017-05-04T17:47:32Z</time>
      </trkpt>
      <trkpt lat="44.78422" lon="5.68771">
        <ele>726</ele>
        <time>2017-05-04T17:47:48Z</time>
      </trkpt>
      <trkpt lat="44.78457" lon="5.68756">
        <ele>726</ele>
        <time>2017-05-04T17:47:56Z</time>
      </trkpt>
      <trkpt lat="44.78501" lon="5.68734">
        <ele>722</ele>
        <time>2017-05-04T17:48:05Z</time>
      </trkpt>
      <trkpt lat="44.78529" lon="5.68714">
        <ele>721</ele>
        <time>2017-05-04T17:48:12Z</time>
      </trkpt>
      <trkpt lat="44.78539" lon="5.68704">
        <ele>721</ele>
        <time>2017-05-04T17:48:14Z</time>
      </trkpt>
      <trkpt lat="44.78555" lon="5.68691">
        <ele>721</ele>
        <time>2017-05-04T17:48:25Z</time>
      </trkpt>
      <trkpt lat="44.7858" lon="5.68681">
        <ele>721</ele>
        <time>2017-05-04T17:48:45Z</time>
      </trkpt>
      <trkpt lat="44.78592" lon="5.68674">
        <ele>723</ele>
        <time>2017-05-04T17:48:52Z</time>
      </trkpt>
      <trkpt lat="44.78599" lon="5.68667">
        <ele>724</ele>
        <time>2017-05-04T17:49:11Z</time>
      </trkpt>
      <trkpt lat="44.7856" lon="5.68676">
        <ele>720</ele>
        <time>2017-05-04T17:49:26Z</time>
      </trkpt>
      <trkpt lat="44.78546" lon="5.68673">
        <ele>720</ele>
        <time>2017-05-04T17:49:33Z</time>
      </trkpt>
      <trkpt lat="44.7854" lon="5.68666">
        <ele>712</ele>
        <time>2017-05-04T17:49:38Z</time>
      </trkpt>
      <trkpt lat="44.78537" lon="5.68659">
        <ele>711</ele>
        <time>2017-05-04T17:49:53Z</time>
      </trkpt>
      <trkpt lat="44.78536" lon="5.68644">
        <ele>710</ele>
        <time>2017-05-04T17:50:04Z</time>
      </trkpt>
      <trkpt lat="44.7854" lon="5.68628">
        <ele>709</ele>
        <time>2017-05-04T17:50:20Z</time>
      </trkpt>
      <trkpt lat="44.7856" lon="5.68597">
        <ele>709</ele>
        <time>2017-05-04T17:50:25Z</time>
      </trkpt>
      <trkpt lat="44.78585" lon="5.68555">
        <ele>710</ele>
        <time>2017-05-04T17:50:30Z</time>
      </trkpt>
      <trkpt lat="44.78595" lon="5.68535">
        <ele>708</ele>
        <time>2017-05-04T17:50:34Z</time>
      </trkpt>
      <trkpt lat="44.78608" lon="5.68495">
        <ele>702</ele>
        <time>2017-05-04T17:50:50Z</time>
      </trkpt>
      <trkpt lat="44.7864" lon="5.6839">
        <ele>696</ele>
        <time>2017-05-04T17:50:55Z</time>
      </trkpt>
      <trkpt lat="44.78652" lon="5.68335">
        <ele>696</ele>
        <time>2017-05-04T17:51:12Z</time>
      </trkpt>
      <trkpt lat="44.78654" lon="5.68316">
        <ele>690</ele>
        <time>2017-05-04T17:51:28Z</time>
      </trkpt>
      <trkpt lat="44.7865" lon="5.68297">
        <ele>687</ele>
        <time>2017-05-04T17:51:32Z</time>
      </trkpt>
      <trkpt lat="44.78637" lon="5.68273">
        <ele>684</ele>
        <time>2017-05-04T17:51:49Z</time>
      </trkpt>
      <trkpt lat="44.78625" lon="5.68268">
        <ele>683</ele>
        <time>2017-05-04T17:51:53Z</time>
      </trkpt>
      <trkpt lat="44.78615" lon="5.68274">
        <ele>683</ele>
        <time>2017-05-04T17:51:55Z</time>
      </trkpt>
      <trkpt lat="44.78606" lon="5.68279">
        <ele>683</ele>
        <time>2017-05-04T17:51:57Z</time>
      </trkpt>
      <trkpt lat="44.78596" lon="5.68271">
        <ele>681</ele>
        <time>2017-05-04T17:52:08Z</time>
      </trkpt>
      <trkpt lat="44.78593" lon="5.68258">
        <ele>680</ele>
        <time>2017-05-04T17:52:12Z</time>
      </trkpt>
      <trkpt lat="44.78597" lon="5.68242">
        <ele>676</ele>
        <time>2017-05-04T17:52:32Z</time>
      </trkpt>
      <trkpt lat="44.78604" lon="5.68225">
        <ele>675</ele>
        <time>2017-05-04T17:52:37Z</time>
      </trkpt>
      <trkpt lat="44.78606" lon="5.68214">
        <ele>675</ele>
        <time>2017-05-04T17:52:39Z</time>
      </trkpt>
      <trkpt lat="44.78604" lon="5.68202">
        <ele>674</ele>
        <time>2017-05-04T17:52:47Z</time>
      </trkpt>
      <trkpt lat="44.78595" lon="5.68191">
        <ele>673</ele>
        <time>2017-05-04T17:52:56Z</time>
      </trkpt>
      <trkpt lat="44.78586" lon="5.68187">
        <ele>673</ele>
        <time>2017-05-04T17:53:10Z</time>
      </trkpt>
      <trkpt lat="44.78542" lon="5.68176">
        <ele>675</ele>
        <time>2017-05-04T17:53:23Z</time>
      </trkpt>
      <trkpt lat="44.78508" lon="5.68168">
        <ele>678</ele>
        <time>2017-05-04T17:53:40Z</time>
      </trkpt>
      <trkpt lat="44.78489" lon="5.68168">
        <ele>680</ele>
        <time>2017-05-04T17:53:46Z</time>
      </trkpt>
      <trkpt lat="44.78478" lon="5.68171">
        <ele>680</ele>
        <time>2017-05-04T17:53:55Z</time>
      </trkpt>
      <trkpt lat="44.78466" lon="5.68178">
        <ele>681</ele>
        <time>2017-05-04T17:53:57Z</time>
      </trkpt>
      <trkpt lat="44.78451" lon="5.68187">
        <ele>681</ele>
        <time>2017-05-04T17:54:02Z</time>
      </trkpt>
      <trkpt lat="44.78442" lon="5.68189">
        <ele>682</ele>
        <time>2017-05-04T17:54:21Z</time>
      </trkpt>
      <trkpt lat="44.78435" lon="5.68185">
        <ele>683</ele>
        <time>2017-05-04T17:54:31Z</time>
      </trkpt>
      <trkpt lat="44.7843" lon="5.68174">
        <ele>684</ele>
        <time>2017-05-04T17:54:51Z</time>
      </trkpt>
      <trkpt lat="44.78432" lon="5.68162">
        <ele>688</ele>
        <time>2017-05-04T17:54:56Z</time>
      </trkpt>
      <trkpt lat="44.78444" lon="5.68153">
        <ele>689</ele>
        <time>2017-05-04T17:55:07Z</time>
      </trkpt>
      <trkpt lat="44.7849" lon="5.68123">
        <ele>690</ele>
        <time>2017-05-04T17:55:21Z</time>
      </trkpt>
      <trkpt lat="44.78501" lon="5.68109">
        <ele>688</ele>
        <time>2017-05-04T17:55:39Z</time>
      </trkpt>
      <trkpt lat="44.78503" lon="5.68099">
        <ele>690</ele>
        <time>2017-05-04T17:55:55Z</time>
      </trkpt>
      <trkpt lat="44.785" lon="5.68091">
        <ele>695</ele>
        <time>2017-05-04T17:56:09Z</time>
      </trkpt>
      <trkpt lat="44.78489" lon="5.68085">
        <ele>695</ele>
        <time>2017-05-04T17:56:20Z</time>
      </trkpt>
      <trkpt lat="44.78469" lon="5.68097">
        <ele>693</ele>
        <time>2017-05-04T17:56:32Z</time>
      </trkpt>
      <trkpt lat="44.78459" lon="5.68104">
        <ele>692</ele>
        <time>2017-05-04T17:56:52Z</time>
      </trkpt>
      <trkpt lat="44.78446" lon="5.6811">
        <ele>692</ele>
        <time>2017-05-04T17:56:57Z</time>
      </trkpt>
      <trkpt lat="44.78423" lon="5.68105">
        <ele>694</ele>
        <time>2017-05-04T17:57:14Z</time>
      </trkpt>
      <trkpt lat="44.78413" lon="5.68101">
        <ele>696</ele>
        <time>2017-05-04T17:57:18Z</time>
      </trkpt>
      <trkpt lat="44.78406" lon="5.68095">
        <ele>697</ele>
        <time>2017-05-04T17:57:26Z</time>
      </trkpt>
      <trkpt lat="44.78401" lon="5.68079">
        <ele>701</ele>
        <time>2017-05-04T17:57:43Z</time>
      </trkpt>
      <trkpt lat="44.78404" lon="5.68062">
        <ele>703</ele>
        <time>2017-05-04T17:57:48Z</time>
      </trkpt>
      <trkpt lat="44.78411" lon="5.68051">
        <ele>704</ele>
        <time>2017-05-04T17:57:55Z</time>
      </trkpt>
      <trkpt lat="44.78421" lon="5.68044">
        <ele>704</ele>
        <time>2017-05-04T17:58:02Z</time>
      </trkpt>
      <trkpt lat="44.78439" lon="5.68037">
        <ele>705</ele>
        <time>2017-05-04T17:58:06Z</time>
      </trkpt>
      <trkpt lat="44.78453" lon="5.6803">
        <ele>706</ele>
        <time>2017-05-04T17:58:08Z</time>
      </trkpt>
      <trkpt lat="44.78476" lon="5.68022">
        <ele>707</ele>
        <time>2017-05-04T17:58:15Z</time>
      </trkpt>
      <trkpt lat="44.78497" lon="5.68022">
        <ele>708</ele>
        <time>2017-05-04T17:58:18Z</time>
      </trkpt>
      <trkpt lat="44.78513" lon="5.68032">
        <ele>703</ele>
        <time>2017-05-04T17:58:28Z</time>
      </trkpt>
      <trkpt lat="44.78531" lon="5.68042">
        <ele>701</ele>
        <time>2017-05-04T17:58:45Z</time>
      </trkpt>
      <trkpt lat="44.78544" lon="5.68043">
        <ele>700</ele>
        <time>2017-05-04T17:58:59Z</time>
      </trkpt>
      <trkpt lat="44.78579" lon="5.68022">
        <ele>702</ele>
        <time>2017-05-04T17:59:18Z</time>
      </trkpt>
      <trkpt lat="44.78615" lon="5.68">
        <ele>708</ele>
        <time>2017-05-04T17:59:29Z</time>
      </trkpt>
      <trkpt lat="44.78658" lon="5.67969">
        <ele>707</ele>
        <time>2017-05-04T17:59:35Z</time>
      </trkpt>
      <trkpt lat="44.78679" lon="5.67952">
        <ele>701</ele>
        <time>2017-05-04T17:59:43Z</time>
      </trkpt>
      <trkpt lat="44.78688" lon="5.6794">
        <ele>702</ele>
        <time>2017-05-04T17:59:50Z</time>
      </trkpt>
      <trkpt lat="44.78697" lon="5.6792">
        <ele>702</ele>
        <time>2017-05-04T18:00:04Z</time>
      </trkpt>
      <trkpt lat="44.787" lon="5.6788">
        <ele>707</ele>
        <time>2017-05-04T18:00:14Z</time>
      </trkpt>
      <trkpt lat="44.78705" lon="5.67846">
        <ele>707</ele>
        <time>2017-05-04T18:00:31Z</time>
      </trkpt>
      <trkpt lat="44.78721" lon="5.67812">
        <ele>709</ele>
        <time>2017-05-04T18:00:48Z</time>
      </trkpt>
      <trkpt lat="44.78735" lon="5.67781">
        <ele>709</ele>
        <time>2017-05-04T18:01:00Z</time>
      </trkpt>
      <trkpt lat="44.7874" lon="5.67767">
        <ele>709</ele>
        <time>2017-05-04T18:01:19Z</time>
      </trkpt>
      <trkpt lat="44.7874" lon="5.67752">
        <ele>709</ele>
        <time>2017-05-04T18:01:35Z</time>
      </trkpt>
      <trkpt lat="44.78737" lon="5.67737">
        <ele>711</ele>
        <time>2017-05-04T18:01:39Z</time>
      </trkpt>
      <trkpt lat="44.78726" lon="5.67721">
        <ele>712</ele>
        <time>2017-05-04T18:01:53Z</time>
      </trkpt>
      <trkpt lat="44.78713" lon="5.67696">
        <ele>713</ele>
        <time>2017-05-04T18:02:01Z</time>
      </trkpt>
      <trkpt lat="44.78711" lon="5.67675">
        <ele>713</ele>
        <time>2017-05-04T18:02:16Z</time>
      </trkpt>
      <trkpt lat="44.78714" lon="5.67661">
        <ele>715</ele>
        <time>2017-05-04T18:02:36Z</time>
      </trkpt>
      <trkpt lat="44.78722" lon="5.67634">
        <ele>715</ele>
        <time>2017-05-04T18:02:43Z</time>
      </trkpt>
      <trkpt lat="44.78724" lon="5.67621">
        <ele>716</ele>
        <time>2017-05-04T18:02:54Z</time>
      </trkpt>
      <trkpt lat="44.78723" lon="5.67597">
        <ele>716</ele>
        <time>2017-05-04T18:03:01Z</time>
      </trkpt>
      <trkpt lat="44.78718" lon="5.67545">
        <ele>720</ele>
        <time>2017-05-04T18:03:21Z</time>
      </trkpt>
      <trkpt lat="44.7871" lon="5.6751">
        <ele>721</ele>
        <time>2017-05-04T18:03:34Z</time>
      </trkpt>
      <trkpt lat="44.78695" lon="5.67471">
        <ele>725</ele>
        <time>2017-05-04T18:03:42Z</time>
      </trkpt>
      <trkpt lat="44.78688" lon="5.6744">
        <ele>726</ele>
        <time>2017-05-04T18:03:47Z</time>
      </trkpt>
      <trkpt lat="44.78692" lon="5.67415">
        <ele>729</ele>
        <time>2017-05-04T18:04:06Z</time>
      </trkpt>
      <trkpt lat="44.78704" lon="5.67397">
        <ele>729</ele>
        <time>2017-05-04T18:04:09Z</time>
      </trkpt>
      <trkpt lat="44.78722" lon="5.67394">
        <ele>729</ele>
        <time>2017-05-04T18:04:19Z</time>
      </trkpt>
      <trkpt lat="44.78735" lon="5.67399">
        <ele>728</ele>
        <time>2017-05-04T18:04:39Z</time>
      </trkpt>
      <trkpt lat="44.78739" lon="5.67402">
        <ele>728</ele>
        <time>2017-05-04T18:04:49Z</time>
      </trkpt>
      <trkpt lat="44.78736" lon="5.67396">
        <ele>729</ele>
        <time>2017-05-04T18:05:06Z</time>
      </trkpt>
      <trkpt lat="44.7871" lon="5.67364">
        <ele>730</ele>
        <time>2017-05-04T18:05:16Z</time>
      </trkpt>
      <trkpt lat="44.78696" lon="5.67345">
        <ele>731</ele>
        <time>2017-05-04T18:05:31Z</time>
      </trkpt>
      <trkpt lat="44.7869" lon="5.67333">
        <ele>735</ele>
        <time>2017-05-04T18:05:48Z</time>
      </trkpt>
      <trkpt lat="44.78685" lon="5.67313">
        <ele>736</ele>
        <time>2017-05-04T18:05:55Z</time>
      </trkpt>
      <trkpt lat="44.78672" lon="5.67268">
        <ele>737</ele>
        <time>2017-05-04T18:06:15Z</time>
      </trkpt>
      <trkpt lat="44.78664" lon="5.67209">
        <ele>742</ele>
        <time>2017-05-04T18:06:17Z</time>
      </trkpt>
      <trkpt lat="44.78662" lon="5.67168">
        <ele>744</ele>
        <time>2017-05-04T18:06:21Z</time>
      </trkpt>
      <trkpt lat="44.78672" lon="5.67111">
        <ele>755</ele>
        <time>2017-05-04T18:06:26Z</time>
      </trkpt>
      <trkpt lat="44.78674" lon="5.6708">
        <ele>758</ele>
        <time>2017-05-04T18:06:30Z</time>
      </trkpt>
      <trkpt lat="44.78682" lon="5.67033">
        <ele>765</ele>
        <time>2017-05-04T18:06:46Z</time>
      </trkpt>
      <trkpt lat="44.78688" lon="5.67014">
        <ele>765</ele>
        <time>2017-05-04T18:06:56Z</time>
      </trkpt>
      <trkpt lat="44.78704" lon="5.66984">
        <ele>770</ele>
        <time>2017-05-04T18:07:07Z</time>
      </trkpt>
      <trkpt lat="44.78716" lon="5.66955">
        <ele>771</ele>
        <time>2017-05-04T18:07:22Z</time>
      </trkpt>
      <trkpt lat="44.78725" lon="5.66914">
        <ele>774</ele>
        <time>2017-05-04T18:07:33Z</time>
      </trkpt>
      <trkpt lat="44.78732" lon="5.66875">
        <ele>774</ele>
        <time>2017-05-04T18:07:35Z</time>
      </trkpt>
      <trkpt lat="44.7874" lon="5.66839">
        <ele>776</ele>
        <time>2017-05-04T18:07:51Z</time>
      </trkpt>
      <trkpt lat="44.78733" lon="5.66796">
        <ele>776</ele>
        <time>2017-05-04T18:08:02Z</time>
      </trkpt>
      <trkpt lat="44.78731" lon="5.6676">
        <ele>775</ele>
        <time>2017-05-04T18:08:12Z</time>
      </trkpt>
      <trkpt lat="44.78732" lon="5.66723">
        <ele>776</ele>
        <time>2017-05-04T18:08:24Z</time>
      </trkpt>
      <trkpt lat="44.7873" lon="5.66694">
        <ele>775</ele>
        <time>2017-05-04T18:08:28Z</time>
      </trkpt>
      <trkpt lat="44.78732" lon="5.66677">
        <ele>774</ele>
        <time>2017-05-04T18:08:44Z</time>
      </trkpt>
      <trkpt lat="44.78738" lon="5.66656">
        <ele>773</ele>
        <time>2017-05-04T18:08:56Z</time>
      </trkpt>
      <trkpt lat="44.78753" lon="5.66595">
        <ele>767</ele>
        <time>2017-05-04T18:09:14Z</time>
      </trkpt>
      <trkpt lat="44.78771" lon="5.66548">
        <ele>766</ele>
        <time>2017-05-04T18:09:30Z</time>
      </trkpt>
      <trkpt lat="44.78781" lon="5.66529">
        <ele>766</ele>
        <time>2017-05-04T18:09:38Z</time>
      </trkpt>
      <trkpt lat="44.78793" lon="5.66514">
        <ele>765</ele>
        <time>2017-05-04T18:09:46Z</time>
      </trkpt>
      <trkpt lat="44.78811" lon="5.66501">
        <ele>764</ele>
        <time>2017-05-04T18:10:02Z</time>
      </trkpt>
      <trkpt lat="44.78822" lon="5.66489">
        <ele>764</ele>
        <time>2017-05-04T18:10:13Z</time>
      </trkpt>
      <trkpt lat="44.78837" lon="5.66464">
        <ele>762</ele>
        <time>2017-05-04T18:10:18Z</time>
      </trkpt>
      <trkpt lat="44.78861" lon="5.66443">
        <ele>763</ele>
        <time>2017-05-04T18:10:30Z</time>
      </trkpt>
      <trkpt lat="44.78883" lon="5.66434">
        <ele>762</ele>
        <time>2017-05-04T18:10:46Z</time>
      </trkpt>
      <trkpt lat="44.78878" lon="5.66424">
        <ele>763</ele>
        <time>2017-05-04T18:11:05Z</time>
      </trkpt>
      <trkpt lat="44.78881" lon="5.66399">
        <ele>764</ele>
        <time>2017-05-04T18:11:07Z</time>
      </trkpt>
      <trkpt lat="44.789" lon="5.66324">
        <ele>761</ele>
        <time>2017-05-04T18:11:27Z</time>
      </trkpt>
      <trkpt lat="44.78903" lon="5.66306">
        <ele>761</ele>
        <time>2017-05-04T18:11:44Z</time>
      </trkpt>
      <trkpt lat="44.78903" lon="5.66289">
        <ele>762</ele>
        <time>2017-05-04T18:11:54Z</time>
      </trkpt>
      <trkpt lat="44.78896" lon="5.66226">
        <ele>760</ele>
        <time>2017-05-04T18:12:09Z</time>
      </trkpt>
      <trkpt lat="44.78893" lon="5.66132">
        <ele>758</ele>
        <time>2017-05-04T18:12:18Z</time>
      </trkpt>
      <trkpt lat="44.78892" lon="5.66084">
        <ele>758</ele>
        <time>2017-05-04T18:12:30Z</time>
      </trkpt>
      <trkpt lat="44.78896" lon="5.66069">
        <ele>756</ele>
        <time>2017-05-04T18:12:41Z</time>
      </trkpt>
      <trkpt lat="44.78916" lon="5.66016">
        <ele>756</ele>
        <time>2017-05-04T18:12:58Z</time>
      </trkpt>
      <trkpt lat="44.78919" lon="5.65983">
        <ele>752</ele>
        <time>2017-05-04T18:13:00Z</time>
      </trkpt>
      <trkpt lat="44.7892" lon="5.65937">
        <ele>752</ele>
        <time>2017-05-04T18:13:16Z</time>
      </trkpt>
      <trkpt lat="44.78919" lon="5.65909">
        <ele>753</ele>
        <time>2017-05-04T18:13:35Z</time>
      </trkpt>
      <trkpt lat="44.78916" lon="5.65897">
        <ele>755</ele>
        <time>2017-05-04T18:13:46Z</time>
      </trkpt>
      <trkpt lat="44.7892" lon="5.65889">
        <ele>751</ele>
        <time>2017-05-04T18:13:56Z</time>
      </trkpt>
      <trkpt lat="44.78921" lon="5.65882">
        <ele>751</ele>
        <time>2017-05-04T18:14:00Z</time>
      </trkpt>
      <trkpt lat="44.7892" lon="5.65852">
        <ele>751</ele>
        <time>2017-05-04T18:14:20Z</time>
      </trkpt>
      <trkpt lat="44.78916" lon="5.65813">
        <ele>755</ele>
        <time>2017-05-04T18:14:27Z</time>
      </trkpt>
      <trkpt lat="44.78916" lon="5.65797">
        <ele>756</ele>
        <time>2017-05-04T18:14:30Z</time>
      </trkpt>
      <trkpt lat="44.78919" lon="5.65782">
        <ele>754</ele>
        <time>2017-05-04T18:14:38Z</time>
      </trkpt>
      <trkpt lat="44.78926" lon="5.65772">
        <ele>754</ele>
        <time>2017-05-04T18:14:42Z</time>
      </trkpt>
      <trkpt lat="44.78931" lon="5.65768">
        <ele>754</ele>
        <time>2017-05-04T18:14:48Z</time>
      </trkpt>
      <trkpt lat="44.78938" lon="5.65767">
        <ele>754</ele>
        <time>2017-05-04T18:15:07Z</time>
      </trkpt>
      <trkpt lat="44.78948" lon="5.65767">
        <ele>753</ele>
        <time>2017-05-04T18:15:20Z</time>
      </trkpt>
      <trkpt lat="44.78971" lon="5.65774">
        <ele>753</ele>
        <time>2017-05-04T18:15:39Z</time>
      </trkpt>
      <trkpt lat="44.79003" lon="5.65784">
        <ele>750</ele>
        <time>2017-05-04T18:15:49Z</time>
      </trkpt>
      <trkpt lat="44.79028" lon="5.65794">
        <ele>750</ele>
        <time>2017-05-04T18:16:07Z</time>
      </trkpt>
      <trkpt lat="44.79037" lon="5.65797">
        <ele>750</ele>
        <time>2017-05-04T18:16:22Z</time>
      </trkpt>
      <trkpt lat="44.79047" lon="5.65797">
        <ele>750</ele>
        <time>2017-05-04T18:16:35Z</time>
      </trkpt>
      <trkpt lat="44.79059" lon="5.65791">
        <ele>750</ele>
        <time>2017-05-04T18:16:49Z</time>
      </trkpt>
      <trkpt lat="44.7907" lon="5.65775">
        <ele>749</ele>
        <time>2017-05-04T18:17:08Z</time>
      </trkpt>
      <trkpt lat="44.79073" lon="5.6576">
        <ele>749</ele>
        <time>2017-05-04T18:17:23Z</time>
      </trkpt>
      <trkpt lat="44.79073" lon="5.65742">
        <ele>750</ele>
        <time>2017-05-04T18:17:40Z</time>
      </trkpt>
      <trkpt lat="44.79072" lon="5.65721">
        <ele>751</ele>
        <time>2017-05-04T18:17:45Z</time>
      </trkpt>
      <trkpt lat="44.79063" lon="5.65697">
        <ele>751</ele>
        <time>2017-05-04T18:17:58Z</time>
      </trkpt>
      <trkpt lat="44.7905" lon="5.65676">
        <ele>752</ele>
        <time>2017-05-04T18:18:13Z</time>
      </trkpt>
      <trkpt lat="44.79045" lon="5.65666">
        <ele>752</ele>
        <time>2017-05-04T18:18:15Z</time>
      </trkpt>
      <trkpt lat="44.79049" lon="5.65651">
        <ele>752</ele>
        <time>2017-05-04T18:18:29Z</time>
      </trkpt>
      <trkpt lat="44.79054" lon="5.65645">
        <ele>752</ele>
        <time>2017-05-04T18:18:48Z</time>
      </trkpt>
      <trkpt lat="44.79079" lon="5.65647">
        <ele>751</ele>
        <time>2017-05-04T18:19:08Z</time>
      </trkpt>
      <trkpt lat="44.79093" lon="5.65651">
        <ele>755</ele>
        <time>2017-05-04T18:19:27Z</time>
      </trkpt>
      <trkpt lat="44.79124" lon="5.6565">
        <ele>758</ele>
        <time>2017-05-04T18:19:31Z</time>
      </trkpt>
      <trkpt lat="44.79132" lon="5.65655">
        <ele>759</ele>
        <time>2017-05-04T18:19:40Z</time>
      </trkpt>
      <trkpt lat="44.79137" lon="5.65667">
        <ele>756</ele>
        <time>2017-05-04T18:19:45Z</time>
      </trkpt>
      <trkpt lat="44.79147" lon="5.65689">
        <ele>756</ele>
        <time>2017-05-04T18:19:57Z</time>
      </trkpt>
      <trkpt lat="44.79162" lon="5.65709">
        <ele>755</ele>
        <time>2017-05-04T18:20:11Z</time>
      </trkpt>
      <trkpt lat="44.79173" lon="5.65735">
        <ele>761</ele>
        <time>2017-05-04T18:20:15Z</time>
      </trkpt>
      <trkpt lat="44.79179" lon="5.65757">
        <ele>756</ele>
        <time>2017-05-04T18:20:24Z</time>
      </trkpt>
      <trkpt lat="44.7919" lon="5.6578">
        <ele>759</ele>
        <time>2017-05-04T18:20:40Z</time>
      </trkpt>
      <trkpt lat="44.79209" lon="5.65807">
        <ele>761</ele>
        <time>2017-05-04T18:20:50Z</time>
      </trkpt>
      <trkpt lat="44.79238" lon="5.65848">
        <ele>760</ele>
        <time>2017-05-04T18:20:53Z</time>
      </trkpt>
      <trkpt lat="44.79273" lon="5.65893">
        <ele>768</ele>
        <time>2017-05-04T18:21:01Z</time>
      </trkpt>
      <trkpt lat="44.79293" lon="5.65916">
        <ele>771</ele>
        <time>2017-05-04T18:21:20Z</time>
      </trkpt>
      <trkpt lat="44.79312" lon="5.65932">
        <ele>766</ele>
        <time>2017-05-04T18:21:38Z</time>
      </trkpt>
      <trkpt lat="44.7932" lon="5.65939">
        <ele>766</ele>
        <time>2017-05-04T18:21:49Z</time>
      </trkpt>
      <trkpt lat="44.79334" lon="5.65948">
        <ele>777</ele>
        <time>2017-05-04T18:21:59Z</time>
      </trkpt>
      <trkpt lat="44.79362" lon="5.65955">
        <ele>777</ele>
        <time>2017-05-04T18:22:16Z</time>
      </trkpt>
      <trkpt lat="44.79389" lon="5.65967">
        <ele>778</ele>
        <time>2017-05-04T18:22:29Z</time>
      </trkpt>
      <trkpt lat="44.79402" lon="5.65965">
        <ele>779</ele>
        <time>2017-05-04T18:22:44Z</time>
      </trkpt>
      <trkpt lat="44.79434" lon="5.65947">
        <ele>785</ele>
        <time>2017-05-04T18:23:04Z</time>
      </trkpt>
      <trkpt lat="44.79447" lon="5.65938">
        <ele>785</ele>
        <time>2017-05-04T18:23:11Z</time>
      </trkpt>
      <trkpt lat="44.79446" lon="5.65932">
        <ele>785</ele>
        <time>2017-05-04T18:23:24Z</time>
      </trkpt>
      <trkpt lat="44.79431" lon="5.65908">
        <ele>788</ele>
        <time>2017-05-04T18:23:40Z</time>
      </trkpt>
      <trkpt lat="44.79423" lon="5.65895">
        <ele>788</ele>
        <time>2017-05-04T18:23:43Z</time>
      </trkpt>
      <trkpt lat="44.79432" lon="5.65884">
        <ele>788</ele>
        <time>2017-05-04T18:23:55Z</time>
      </trkpt>
      <trkpt lat="44.79449" lon="5.65859">
        <ele>788</ele>
        <time>2017-05-04T18:24:05Z</time>
      </trkpt>
      <trkpt lat="44.79461" lon="5.65836">
        <ele>788</ele>
        <time>2017-05-04T18:24:17Z</time>
      </trkpt>
      <trkpt lat="44.79473" lon="5.65803">
        <ele>788</ele>
        <time>2017-05-04T18:24:25Z</time>
      </trkpt>
      <trkpt lat="44.79477" lon="5.65766">
        <ele>787</ele>
        <time>2017-05-04T18:24:44Z</time>
      </trkpt>
      <trkpt lat="44.79479" lon="5.65752">
        <ele>787</ele>
        <time>2017-05-04T18:25:00Z</time>
      </trkpt>
      <trkpt lat="44.79478" lon="5.65737">
        <ele>785</ele>
        <time>2017-05-04T18:25:14Z</time>
      </trkpt>
      <trkpt lat="44.79482" lon="5.65732">
        <ele>785</ele>
        <time>2017-05-04T18:25:34Z</time>
      </trkpt>
      <trkpt lat="44.79486" lon="5.65713">
        <ele>784</ele>
        <time>2017-05-04T18:25:38Z</time>
      </trkpt>
      <trkpt lat="44.79489" lon="5.65668">
        <ele>780</ele>
        <time>2017-05-04T18:25:51Z</time>
      </trkpt>
      <trkpt lat="44.79492" lon="5.65637">
        <ele>778</ele>
        <time>2017-05-04T18:26:00Z</time>
      </trkpt>
      <trkpt lat="44.79498" lon="5.65607">
        <ele>777</ele>
        <time>2017-05-04T18:26:19Z</time>
      </trkpt>
      <trkpt lat="44.79531" lon="5.65508">
        <ele>770</ele>
        <time>2017-05-04T18:26:38Z</time>
      </trkpt>
      <trkpt lat="44.79541" lon="5.65466">
        <ele>769</ele>
        <time>2017-05-04T18:26:54Z</time>
      </trkpt>
      <trkpt lat="44.79564" lon="5.65386">
        <ele>767</ele>
        <time>2017-05-04T18:27:03Z</time>
      </trkpt>
      <trkpt lat="44.79575" lon="5.65356">
        <ele>767</ele>
        <time>2017-05-04T18:27:12Z</time>
      </trkpt>
      <trkpt lat="44.7958" lon="5.65344">
        <ele>767</ele>
        <time>2017-05-04T18:27:25Z</time>
      </trkpt>
      <trkpt lat="44.79623" lon="5.65316">
        <ele>760</ele>
        <time>2017-05-04T18:27:41Z</time>
      </trkpt>
      <trkpt lat="44.79656" lon="5.65295">
        <ele>758</ele>
        <time>2017-05-04T18:27:53Z</time>
      </trkpt>
      <trkpt lat="44.79693" lon="5.65269">
        <ele>751</ele>
        <time>2017-05-04T18:28:04Z</time>
      </trkpt>
      <trkpt lat="44.79763" lon="5.65229">
        <ele>739</ele>
        <time>2017-05-04T18:28:09Z</time>
      </trkpt>
      <trkpt lat="44.79794" lon="5.6521">
        <ele>736</ele>
        <time>2017-05-04T18:28:16Z</time>
      </trkpt>
      <trkpt lat="44.79809" lon="5.65206">
        <ele>735</ele>
        <time>2017-05-04T18:28:26Z</time>
      </trkpt>
      <trkpt lat="44.79819" lon="5.65199">
        <ele>734</ele>
        <time>2017-05-04T18:28:36Z</time>
      </trkpt>
      <trkpt lat="44.7983" lon="5.652">
        <ele>733</ele>
        <time>2017-05-04T18:28:56Z</time>
      </trkpt>
      <trkpt lat="44.79839" lon="5.65202">
        <ele>728</ele>
        <time>2017-05-04T18:28:59Z</time>
      </trkpt>
      <trkpt lat="44.7985" lon="5.65206">
        <ele>728</ele>
        <time>2017-05-04T18:29:03Z</time>
      </trkpt>
      <trkpt lat="44.79859" lon="5.65207">
        <ele>728</ele>
        <time>2017-05-04T18:29:20Z</time>
      </trkpt>
      <trkpt lat="44.79872" lon="5.65203">
        <ele>728</ele>
        <time>2017-05-04T18:29:37Z</time>
      </trkpt>
      <trkpt lat="44.79876" lon="5.65194">
        <ele>727</ele>
        <time>2017-05-04T18:29:41Z</time>
      </trkpt>
      <trkpt lat="44.79876" lon="5.65182">
        <ele>727</ele>
        <time>2017-05-04T18:29:47Z</time>
      </trkpt>
      <trkpt lat="44.79878" lon="5.65175">
        <ele>727</ele>
        <time>2017-05-04T18:29:50Z</time>
      </trkpt>
      <trkpt lat="44.79882" lon="5.65171">
        <ele>726</ele>
        <time>2017-05-04T18:30:01Z</time>
      </trkpt>
      <trkpt lat="44.7989" lon="5.6517">
        <ele>726</ele>
        <time>2017-05-04T18:30:05Z</time>
      </trkpt>
      <trkpt lat="44.79899" lon="5.65162">
        <ele>724</ele>
        <time>2017-05-04T18:30:09Z</time>
      </trkpt>
      <trkpt lat="44.79907" lon="5.65156">
        <ele>724</ele>
        <time>2017-05-04T18:30:29Z</time>
      </trkpt>
      <trkpt lat="44.79918" lon="5.65152">
        <ele>728</ele>
        <time>2017-05-04T18:30:40Z</time>
      </trkpt>
      <trkpt lat="44.79927" lon="5.65145">
        <ele>730</ele>
        <time>2017-05-04T18:31:00Z</time>
      </trkpt>
      <trkpt lat="44.79939" lon="5.65128">
        <ele>733</ele>
        <time>2017-05-04T18:31:19Z</time>
      </trkpt>
      <trkpt lat="44.79941" lon="5.65111">
        <ele>734</ele>
        <time>2017-05-04T18:31:27Z</time>
      </trkpt>
      <trkpt lat="44.79939" lon="5.65099">
        <ele>734</ele>
        <time>2017-05-04T18:31:38Z</time>
      </trkpt>
      <trkpt lat="44.79939" lon="5.65084">
        <ele>734</ele>
        <time>2017-05-04T18:31:52Z</time>
      </trkpt>
      <trkpt lat="44.79945" lon="5.65048">
        <ele>743</ele>
        <time>2017-05-04T18:32:09Z</time>
      </trkpt>
      <trkpt lat="44.79955" lon="5.64999">
        <ele>750</ele>
        <time>2017-05-04T18:32:16Z</time>
      </trkpt>
      <trkpt lat="44.79963" lon="5.64936">
        <ele>753</ele>
        <time>2017-05-04T18:32:28Z</time>
      </trkpt>
      <trkpt lat="44.7997" lon="5.64855">
        <ele>760</ele>
        <time>2017-05-04T18:32:39Z</time>
      </trkpt>
      <trkpt lat="44.79972" lon="5.64733">
        <ele>775</ele>
        <time>2017-05-04T18:32:53Z</time>
      </trkpt>
      <trkpt lat="44.79972" lon="5.64664">
        <ele>781</ele>
        <time>2017-05-04T18:33:11Z</time>
      </trkpt>
      <trkpt lat="44.79974" lon="5.64657">
        <ele>781</ele>
        <time>2017-05-04T18:33:21Z</time>
      </trkpt>
      <trkpt lat="44.79996" lon="5.64634">
        <ele>782</ele>
        <time>2017-05-04T18:33:26Z</time>
      </trkpt>
      <trkpt lat="44.79989" lon="5.64598">
        <ele>782</ele>
        <time>2017-05-04T18:33:28Z</time>
      </trkpt>
      <trkpt lat="44.79993" lon="5.64584">
        <ele>783</ele>
        <time>2017-05-04T18:33:32Z</time>
      </trkpt>
      <trkpt lat="44.79999" lon="5.6455">
        <ele>786</ele>
        <time>2017-05-04T18:33:39Z</time>
      </trkpt>
      <trkpt lat="44.79972" lon="5.644">
        <ele>789</ele>
        <time>2017-05-04T18:33:46Z</time>
      </trkpt>
      <trkpt lat="44.79956" lon="5.64321">
        <ele>790</ele>
        <time>2017-05-04T18:34:03Z</time>
      </trkpt>
      <trkpt lat="44.7994" lon="5.6427">
        <ele>790</ele>
        <time>2017-05-04T18:34:12Z</time>
      </trkpt>
      <trkpt lat="44.79907" lon="5.64177">
        <ele>792</ele>
        <time>2017-05-04T18:34:29Z</time>
      </trkpt>
      <trkpt lat="44.79892" lon="5.6414">
        <ele>796</ele>
        <time>2017-05-04T18:34:35Z</time>
      </trkpt>
      <trkpt lat="44.79875" lon="5.64107">
        <ele>798</ele>
        <time>2017-05-04T18:34:53Z</time>
      </trkpt>
      <trkpt lat="44.79857" lon="5.64087">
        <ele>799</ele>
        <time>2017-05-04T18:34:59Z</time>
      </trkpt>
      <trkpt lat="44.79849" lon="5.64082">
        <ele>803</ele>
        <time>2017-05-04T18:35:04Z</time>
      </trkpt>
      <trkpt lat="44.79847" lon="5.64075">
        <ele>803</ele>
        <time>2017-05-04T18:35:11Z</time>
      </trkpt>
      <trkpt lat="44.79844" lon="5.64069">
        <ele>803</ele>
        <time>2017-05-04T18:35:31Z</time>
      </trkpt>
      <trkpt lat="44.79836" lon="5.64062">
        <ele>804</ele>
        <time>2017-05-04T18:35:45Z</time>
      </trkpt>
      <trkpt lat="44.79809" lon="5.64044">
        <ele>809</ele>
        <time>2017-05-04T18:35:47Z</time>
      </trkpt>
      <trkpt lat="44.79787" lon="5.64034">
        <ele>811</ele>
        <time>2017-05-04T18:36:07Z</time>
      </trkpt>
      <trkpt lat="44.79765" lon="5.64022">
        <ele>813</ele>
        <time>2017-05-04T18:36:09Z</time>
      </trkpt>
      <trkpt lat="44.79742" lon="5.64014">
        <ele>817</ele>
        <time>2017-05-04T18:36:27Z</time>
      </trkpt>
      <trkpt lat="44.79737" lon="5.6401">
        <ele>817</ele>
        <time>2017-05-04T18:36:29Z</time>
      </trkpt>
      <trkpt lat="44.79735" lon="5.64005">
        <ele>817</ele>
        <time>2017-05-04T18:36:47Z</time>
      </trkpt>
      <trkpt lat="44.79706" lon="5.63931">
        <ele>825</ele>
        <time>2017-05-04T18:37:03Z</time>
      </trkpt>
      <trkpt lat="44.79699" lon="5.63867">
        <ele>830</ele>
        <time>2017-05-04T18:37:16Z</time>
      </trkpt>
      <trkpt lat="44.79696" lon="5.63804">
        <ele>834</ele>
        <time>2017-05-04T18:37:28Z</time>
      </trkpt>
      <trkpt lat="44.79694" lon="5.63786">
        <ele>835</ele>
        <time>2017-05-04T18:37:39Z</time>
      </trkpt>
      <trkpt lat="44.79692" lon="5.63778">
        <ele>835</ele>
        <time>2017-05-04T18:37:59Z</time>
      </trkpt>
      <trkpt lat="44.79688" lon="5.63771">
        <ele>836</ele>
        <time>2017-05-04T18:38:19Z</time>
      </trkpt>
      <trkpt lat="44.79691" lon="5.63761">
        <ele>837</ele>
        <time>2017-05-04T18:38:28Z</time>
      </trkpt>
      <trkpt lat="44.79692" lon="5.6375">
        <ele>837</ele>
        <time>2017-05-04T18:38:44Z</time>
      </trkpt>
      <trkpt lat="44.79696" lon="5.63716">
        <ele>838</ele>
        <time>2017-05-04T18:38:51Z</time>
      </trkpt>
      <trkpt lat="44.79703" lon="5.63685">
        <ele>838</ele>
        <time>2017-05-04T18:39:09Z</time>
      </trkpt>
      <trkpt lat="44.79716" lon="5.63642">
        <ele>838</ele>
        <time>2017-05-04T18:39:27Z</time>
      </trkpt>
      <trkpt lat="44.79725" lon="5.63591">
        <ele>838</ele>
        <time>2017-05-04T18:39:38Z</time>
      </trkpt>
      <trkpt lat="44.79724" lon="5.63577">
        <ele>841</ele>
        <time>2017-05-04T18:39:52Z</time>
      </trkpt>
      <trkpt lat="44.79725" lon="5.63565">
        <ele>842</ele>
        <time>2017-05-04T18:40:03Z</time>
      </trkpt>
      <trkpt lat="44.79749" lon="5.63512">
        <ele>844</ele>
        <time>2017-05-04T18:40:18Z</time>
      </trkpt>
      <trkpt lat="44.79754" lon="5.63505">
        <ele>843</ele>
        <time>2017-05-04T18:40:20Z</time>
      </trkpt>
      <trkpt lat="44.7975" lon="5.63495">
        <ele>846</ele>
        <time>2017-05-04T18:40:38Z</time>
      </trkpt>
      <trkpt lat="44.79748" lon="5.63493">
        <ele>846</ele>
        <time>2017-05-04T18:40:54Z</time>
      </trkpt>
      <trkpt lat="44.79747" lon="5.63492">
        <ele>847</ele>
        <time>2017-05-04T18:41:14Z</time>
      </trkpt>
      <trkpt lat="44.79711" lon="5.63492">
        <ele>852</ele>
        <time>2017-05-04T18:41:22Z</time>
      </trkpt>
      <trkpt lat="44.79666" lon="5.63478">
        <ele>857</ele>
        <time>2017-05-04T18:41:27Z</time>
      </trkpt>
      <trkpt lat="44.7964" lon="5.63467">
        <ele>857</ele>
        <time>2017-05-04T18:41:34Z</time>
      </trkpt>
      <trkpt lat="44.7963" lon="5.63463">
        <ele>857</ele>
        <time>2017-05-04T18:41:51Z</time>
      </trkpt>
      <trkpt lat="44.79629" lon="5.63459">
        <ele>857</ele>
        <time>2017-05-04T18:41:59Z</time>
      </trkpt>
      <trkpt lat="44.79628" lon="5.63445">
        <ele>858</ele>
        <time>2017-05-04T18:42:09Z</time>
      </trkpt>
      <trkpt lat="44.79634" lon="5.63402">
        <ele>862</ele>
        <time>2017-05-04T18:42:20Z</time>
      </trkpt>
      <trkpt lat="44.79637" lon="5.63371">
        <ele>863</ele>
        <time>2017-05-04T18:42:36Z</time>
      </trkpt>
      <trkpt lat="44.79646" lon="5.63312">
        <ele>870</ele>
        <time>2017-05-04T18:42:52Z</time>
      </trkpt>
      <trkpt lat="44.79652" lon="5.63267">
        <ele>874</ele>
        <time>2017-05-04T18:42:55Z</time>
      </trkpt>
      <trkpt lat="44.79644" lon="5.63218">
        <ele>882</ele>
        <time>2017-05-04T18:43:01Z</time>
      </trkpt>
      <trkpt lat="44.79641" lon="5.6321">
        <ele>883</ele>
        <time>2017-05-04T18:43:15Z</time>
      </trkpt>
      <trkpt lat="44.7964" lon="5.63202">
        <ele>884</ele>
        <time>2017-05-04T18:43:31Z</time>
      </trkpt>
      <trkpt lat="44.79647" lon="5.63165">
        <ele>894</ele>
        <time>2017-05-04T18:43:49Z</time>
      </trkpt>
      <trkpt lat="44.79646" lon="5.63123">
        <ele>896</ele>
        <time>2017-05-04T18:44:02Z</time>
      </trkpt>
      <trkpt lat="44.7964" lon="5.63089">
        <ele>899</ele>
        <time>2017-05-04T18:44:22Z</time>
      </trkpt>
      <trkpt lat="44.79635" lon="5.63061">
        <ele>910</ele>
        <time>2017-05-04T18:44:36Z</time>
      </trkpt>
      <trkpt lat="44.7963" lon="5.63051">
        <ele>911</ele>
        <time>2017-05-04T18:44:46Z</time>
      </trkpt>
      <trkpt lat="44.79621" lon="5.63041">
        <ele>912</ele>
        <time>2017-05-04T18:44:58Z</time>
      </trkpt>
      <trkpt lat="44.79594" lon="5.63021">
        <ele>914</ele>
        <time>2017-05-04T18:45:02Z</time>
      </trkpt>
      <trkpt lat="44.79584" lon="5.63013">
        <ele>916</ele>
        <time>2017-05-04T18:45:10Z</time>
      </trkpt>
      <trkpt lat="44.79575" lon="5.63002">
        <ele>917</ele>
        <time>2017-05-04T18:45:25Z</time>
      </trkpt>
      <trkpt lat="44.7956" lon="5.62974">
        <ele>924</ele>
        <time>2017-05-04T18:45:43Z</time>
      </trkpt>
      <trkpt lat="44.79549" lon="5.62946">
        <ele>926</ele>
        <time>2017-05-04T18:46:03Z</time>
      </trkpt>
      <trkpt lat="44.79541" lon="5.62916">
        <ele>935</ele>
        <time>2017-05-04T18:46:17Z</time>
      </trkpt>
      <trkpt lat="44.79536" lon="5.62884">
        <ele>936</ele>
        <time>2017-05-04T18:46:23Z</time>
      </trkpt>
      <trkpt lat="44.79533" lon="5.62854">
        <ele>938</ele>
        <time>2017-05-04T18:46:38Z</time>
      </trkpt>
      <trkpt lat="44.79523" lon="5.6283">
        <ele>946</ele>
        <time>2017-05-04T18:46:57Z</time>
      </trkpt>
      <trkpt lat="44.79499" lon="5.62831">
        <ele>943</ele>
        <time>2017-05-04T18:47:00Z</time>
      </trkpt>
      <trkpt lat="44.79496" lon="5.62827">
        <ele>944</ele>
        <time>2017-05-04T18:47:10Z</time>
      </trkpt>
      <trkpt lat="44.79495" lon="5.62818">
        <ele>945</ele>
        <time>2017-05-04T18:47:12Z</time>
      </trkpt>
      <trkpt lat="44.79496" lon="5.62807">
        <ele>945</ele>
        <time>2017-05-04T18:47:18Z</time>
      </trkpt>
      <trkpt lat="44.79504" lon="5.62803">
        <ele>947</ele>
        <time>2017-05-04T18:47:34Z</time>
      </trkpt>
      <trkpt lat="44.7951" lon="5.62801">
        <ele>947</ele>
        <time>2017-05-04T18:47:40Z</time>
      </trkpt>
      <trkpt lat="44.79518" lon="5.62793">
        <ele>948</ele>
        <time>2017-05-04T18:47:42Z</time>
      </trkpt>
      <trkpt lat="44.79527" lon="5.62759">
        <ele>950</ele>
        <time>2017-05-04T18:48:01Z</time>
      </trkpt>
      <trkpt lat="44.79537" lon="5.62722">
        <ele>959</ele>
        <time>2017-05-04T18:48:09Z</time>
      </trkpt>
      <trkpt lat="44.79541" lon="5.62713">
        <ele>959</ele>
        <time>2017-05-04T18:48:11Z</time>
      </trkpt>
      <trkpt lat="44.79536" lon="5.62703">
        <ele>960</ele>
        <time>2017-05-04T18:48:20Z</time>
      </trkpt>
      <trkpt lat="44.79532" lon="5.62691">
        <ele>961</ele>
        <time>2017-05-04T18:48:30Z</time>
      </trkpt>
      <trkpt lat="44.79522" lon="5.6267">
        <ele>962</ele>
        <time>2017-05-04T18:48:47Z</time>
      </trkpt>
      <trkpt lat="44.79515" lon="5.62665">
        <ele>968</ele>
        <time>2017-05-04T18:48:54Z</time>
      </trkpt>
      <trkpt lat="44.79506" lon="5.62662">
        <ele>966</ele>
        <time>2017-05-04T18:49:04Z</time>
      </trkpt>
      <trkpt lat="44.79497" lon="5.62658">
        <ele>967</ele>
        <time>2017-05-04T18:49:19Z</time>
      </trkpt>
      <trkpt lat="44.79491" lon="5.62652">
        <ele>969</ele>
        <time>2017-05-04T18:49:28Z</time>
      </trkpt>
      <trkpt lat="44.79481" lon="5.62638">
        <ele>973</ele>
        <time>2017-05-04T18:49:37Z</time>
      </trkpt>
      <trkpt lat="44.79466" lon="5.62637">
        <ele>974</ele>
        <time>2017-05-04T18:49:55Z</time>
      </trkpt>
      <trkpt lat="44.79458" lon="5.62636">
        <ele>974</ele>
        <time>2017-05-04T18:50:15Z</time>
      </trkpt>
      <trkpt lat="44.79423" lon="5.62631">
        <ele>976</ele>
        <time>2017-05-04T18:50:23Z</time>
      </trkpt>
      <trkpt lat="44.79408" lon="5.62624">
        <ele>979</ele>
        <time>2017-05-04T18:50:25Z</time>
      </trkpt>
      <trkpt lat="44.79394" lon="5.6261">
        <ele>980</ele>
        <time>2017-05-04T18:50:27Z</time>
      </trkpt>
      <trkpt lat="44.79379" lon="5.62593">
        <ele>981</ele>
        <time>2017-05-04T18:50:31Z</time>
      </trkpt>
      <trkpt lat="44.79368" lon="5.62576">
        <ele>989</ele>
        <time>2017-05-04T18:50:40Z</time>
      </trkpt>
      <trkpt lat="44.79359" lon="5.62562">
        <ele>990</ele>
        <time>2017-05-04T18:50:53Z</time>
      </trkpt>
      <trkpt lat="44.79347" lon="5.62553">
        <ele>990</ele>
        <time>2017-05-04T18:51:02Z</time>
      </trkpt>
      <trkpt lat="44.79312" lon="5.62542">
        <ele>990</ele>
        <time>2017-05-04T18:51:12Z</time>
      </trkpt>
      <trkpt lat="44.79287" lon="5.62526">
        <ele>991</ele>
        <time>2017-05-04T18:51:21Z</time>
      </trkpt>
      <trkpt lat="44.79258" lon="5.62512">
        <ele>993</ele>
        <time>2017-05-04T18:51:28Z</time>
      </trkpt>
      <trkpt lat="44.79247" lon="5.62503">
        <ele>993</ele>
        <time>2017-05-04T18:51:48Z</time>
      </trkpt>
      <trkpt lat="44.79234" lon="5.62487">
        <ele>996</ele>
        <time>2017-05-04T18:51:58Z</time>
      </trkpt>
      <trkpt lat="44.79211" lon="5.62452">
        <ele>998</ele>
        <time>2017-05-04T18:52:12Z</time>
      </trkpt>
      <trkpt lat="44.79188" lon="5.62421">
        <ele>998</ele>
        <time>2017-05-04T18:52:31Z</time>
      </trkpt>
      <trkpt lat="44.79182" lon="5.62408">
        <ele>1003</ele>
        <time>2017-05-04T18:52:43Z</time>
      </trkpt>
      <trkpt lat="44.79177" lon="5.62388">
        <ele>1006</ele>
        <time>2017-05-04T18:52:46Z</time>
      </trkpt>
      <trkpt lat="44.79164" lon="5.62345">
        <ele>1002</ele>
        <time>2017-05-04T18:52:56Z</time>
      </trkpt>
      <trkpt lat="44.79147" lon="5.62312">
        <ele>1007</ele>
        <time>2017-05-04T18:53:06Z</time>
      </trkpt>
      <trkpt lat="44.79127" lon="5.62287">
        <ele>1007</ele>
        <time>2017-05-04T18:53:14Z</time>
      </trkpt>
      <trkpt lat="44.79109" lon="5.62253">
        <ele>1007</ele>
        <time>2017-05-04T18:53:16Z</time>
      </trkpt>
      <trkpt lat="44.79087" lon="5.62223">
        <ele>1020</ele>
        <time>2017-05-04T18:53:34Z</time>
      </trkpt>
      <trkpt lat="44.79072" lon="5.62212">
        <ele>1006</ele>
        <time>2017-05-04T18:53:41Z</time>
      </trkpt>
      <trkpt lat="44.7906" lon="5.62199">
        <ele>1007</ele>
        <time>2017-05-04T18:53:46Z</time>
      </trkpt>
      <trkpt lat="44.79046" lon="5.62185">
        <ele>1006</ele>
        <time>2017-05-04T18:54:06Z</time>
      </trkpt>
      <trkpt lat="44.79037" lon="5.62169">
        <ele>1006</ele>
        <time>2017-05-04T18:54:11Z</time>
      </trkpt>
      <trkpt lat="44.79034" lon="5.62152">
        <ele>1020</ele>
        <time>2017-05-04T18:54:26Z</time>
      </trkpt>
      <trkpt lat="44.79032" lon="5.62145">
        <ele>1020</ele>
        <time>2017-05-04T18:54:43Z</time>
      </trkpt>
      <trkpt lat="44.79027" lon="5.6214">
        <ele>1020</ele>
        <time>2017-05-04T18:54:47Z</time>
      </trkpt>
      <trkpt lat="44.79013" lon="5.62138">
        <ele>1017</ele>
        <time>2017-05-04T18:54:56Z</time>
      </trkpt>
      <trkpt lat="44.78998" lon="5.62135">
        <ele>998</ele>
        <time>2017-05-04T18:54:59Z</time>
      </trkpt>
      <trkpt lat="44.78986" lon="5.62129">
        <ele>997</ele>
        <time>2017-05-04T18:55:01Z</time>
      </trkpt>
      <trkpt lat="44.78974" lon="5.62119">
        <ele>996</ele>
        <time>2017-05-04T18:55:11Z</time>
      </trkpt>
      <trkpt lat="44.78967" lon="5.62106">
        <ele>997</ele>
        <time>2017-05-04T18:55:15Z</time>
      </trkpt>
      <trkpt lat="44.78963" lon="5.6209">
        <ele>997</ele>
        <time>2017-05-04T18:55:27Z</time>
      </trkpt>
      <trkpt lat="44.78959" lon="5.62054">
        <ele>1010</ele>
        <time>2017-05-04T18:55:38Z</time>
      </trkpt>
      <trkpt lat="44.78953" lon="5.62039">
        <ele>1011</ele>
        <time>2017-05-04T18:55:45Z</time>
      </trkpt>
      <trkpt lat="44.78944" lon="5.62026">
        <ele>1011</ele>
        <time>2017-05-04T18:55:53Z</time>
      </trkpt>
      <trkpt lat="44.78934" lon="5.62008">
        <ele>1011</ele>
        <time>2017-05-04T18:56:07Z</time>
      </trkpt>
      <trkpt lat="44.78931" lon="5.62">
        <ele>1011</ele>
        <time>2017-05-04T18:56:15Z</time>
      </trkpt>
      <trkpt lat="44.78928" lon="5.61997">
        <ele>1020</ele>
        <time>2017-05-04T18:56:26Z</time>
      </trkpt>
      <trkpt lat="44.7892" lon="5.62002">
        <ele>1010</ele>
        <time>2017-05-04T18:56:42Z</time>
      </trkpt>
      <trkpt lat="44.78912" lon="5.62009">
        <ele>1006</ele>
        <time>2017-05-04T18:56:56Z</time>
      </trkpt>
      <trkpt lat="44.78887" lon="5.6202">
        <ele>1001</ele>
        <time>2017-05-04T18:57:11Z</time>
      </trkpt>
      <trkpt lat="44.78874" lon="5.62024">
        <ele>1001</ele>
        <time>2017-05-04T18:57:30Z</time>
      </trkpt>
      <trkpt lat="44.78863" lon="5.62031">
        <ele>1000</ele>
        <time>2017-05-04T18:57:48Z</time>
      </trkpt>
      <trkpt lat="44.78855" lon="5.62038">
        <ele>999</ele>
        <time>2017-05-04T18:58:02Z</time>
      </trkpt>
      <trkpt lat="44.78843" lon="5.62045">
        <ele>997</ele>
        <time>2017-05-04T18:58:16Z</time>
      </trkpt>
      <trkpt lat="44.78831" lon="5.62054">
        <ele>994</ele>
        <time>2017-05-04T18:58:28Z</time>
      </trkpt>
      <trkpt lat="44.78821" lon="5.62064">
        <ele>992</ele>
        <time>2017-05-04T18:58:32Z</time>
      </trkpt>
      <trkpt lat="44.7881" lon="5.62071">
        <ele>992</ele>
        <time>2017-05-04T18:58:51Z</time>
      </trkpt>
      <trkpt lat="44.78797" lon="5.62075">
        <ele>992</ele>
        <time>2017-05-04T18:58:59Z</time>
      </trkpt>
      <trkpt lat="44.78782" lon="5.62076">
        <ele>992</ele>
        <time>2017-05-04T18:59:03Z</time>
      </trkpt>
      <trkpt lat="44.78766" lon="5.62075">
        <ele>989</ele>
        <time>2017-05-04T18:59:05Z</time>
      </trkpt>
      <trkpt lat="44.78749" lon="5.62072">
        <ele>982</ele>
        <time>2017-05-04T18:59:22Z</time>
      </trkpt>
      <trkpt lat="44.78735" lon="5.62066">
        <ele>983</ele>
        <time>2017-05-04T18:59:40Z</time>
      </trkpt>
      <trkpt lat="44.78707" lon="5.62046">
        <ele>983</ele>
        <time>2017-05-04T18:59:52Z</time>
      </trkpt>
      <trkpt lat="44.78693" lon="5.62032">
        <ele>983</ele>
        <time>2017-05-04T19:00:06Z</time>
      </trkpt>
      <trkpt lat="44.78681" lon="5.62017">
        <ele>983</ele>
        <time>2017-05-04T19:00:17Z</time>
      </trkpt>
      <trkpt lat="44.78671" lon="5.62002">
        <ele>983</ele>
        <time>2017-05-04T19:00:23Z</time>
      </trkpt>
      <trkpt lat="44.78661" lon="5.61989">
        <ele>983</ele>
        <time>2017-05-04T19:00:29Z</time>
      </trkpt>
      <trkpt lat="44.78651" lon="5.61973">
        <ele>984</ele>
        <time>2017-05-04T19:00:47Z</time>
      </trkpt>
      <trkpt lat="44.78647" lon="5.61967">
        <ele>984</ele>
        <time>2017-05-04T19:00:56Z</time>
      </trkpt>
      <trkpt lat="44.7864" lon="5.61965">
        <ele>984</ele>
        <time>2017-05-04T19:01:14Z</time>
      </trkpt>
      <trkpt lat="44.78622" lon="5.61964">
        <ele>981</ele>
        <time>2017-05-04T19:01:20Z</time>
      </trkpt>
      <trkpt lat="44.78605" lon="5.61963">
        <ele>979</ele>
        <time>2017-05-04T19:01:39Z</time>
      </trkpt>
      <trkpt lat="44.78587" lon="5.61956">
        <ele>979</ele>
        <time>2017-05-04T19:01:43Z</time>
      </trkpt>
      <trkpt lat="44.78572" lon="5.61946">
        <ele>965</ele>
        <time>2017-05-04T19:02:03Z</time>
      </trkpt>
      <trkpt lat="44.78559" lon="5.6193">
        <ele>966</ele>
        <time>2017-05-04T19:02:10Z</time>
      </trkpt>
      <trkpt lat="44.78553" lon="5.61914">
        <ele>980</ele>
        <time>2017-05-04T19:02:29Z</time>
      </trkpt>
      <trkpt lat="44.78544" lon="5.61899">
        <ele>979</ele>
        <time>2017-05-04T19:02:32Z</time>
      </trkpt>
      <trkpt lat="44.7853" lon="5.61885">
        <ele>978</ele>
        <time>2017-05-04T19:02:42Z</time>
      </trkpt>
      <trkpt lat="44.78504" lon="5.61843">
        <ele>977</ele>
        <time>2017-05-04T19:02:45Z</time>
      </trkpt>
      <trkpt lat="44.78491" lon="5.61822">
        <ele>974</ele>
        <time>2017-05-04T19:03:00Z</time>
      </trkpt>
      <trkpt lat="44.78476" lon="5.61804">
        <ele>974</ele>
        <time>2017-05-04T19:03:15Z</time>
      </trkpt>
      <trkpt lat="44.78448" lon="5.61779">
        <ele>973</ele>
        <time>2017-05-04T19:03:20Z</time>
      </trkpt>
      <trkpt lat="44.78429" lon="5.61771">
        <ele>972</ele>
        <time>2017-05-04T19:03:25Z</time>
      </trkpt>
      <trkpt lat="44.78414" lon="5.61759">
        <ele>963</ele>
        <time>2017-05-04T19:03:40Z</time>
      </trkpt>
      <trkpt lat="44.78403" lon="5.61748">
        <ele>968</ele>
        <time>2017-05-04T19:03:45Z</time>
      </trkpt>
      <trkpt lat="44.78392" lon="5.61726">
        <ele>967</ele>
        <time>2017-05-04T19:04:01Z</time>
      </trkpt>
      <trkpt lat="44.78385" lon="5.61711">
        <ele>967</ele>
        <time>2017-05-04T19:04:10Z</time>
      </trkpt>
      <trkpt lat="44.78376" lon="5.61689">
        <ele>968</ele>
        <time>2017-05-04T19:04:17Z</time>
      </trkpt>
      <trkpt lat="44.78366" lon="5.61671">
        <ele>967</ele>
        <time>2017-05-04T19:04:20Z</time>
      </trkpt>
      <trkpt lat="44.78357" lon="5.61661">
        <ele>977</ele>
        <time>2017-05-04T19:04:26Z</time>
      </trkpt>
      <trkpt lat="44.78354" lon="5.61673">
        <ele>964</ele>
        <time>2017-05-04T19:04:45Z</time>
      </trkpt>
      <trkpt lat="44.78353" lon="5.61683">
        <ele>964</ele>
        <time>2017-05-04T19:04:57Z</time>
      </trkpt>
      <trkpt lat="44.78351" lon="5.61706">
        <ele>962</ele>
        <time>2017-05-04T19:05:06Z</time>
      </trkpt>
      <trkpt lat="44.7835" lon="5.61729">
        <ele>957</ele>
        <time>2017-05-04T19:05:11Z</time>
      </trkpt>
      <trkpt lat="44.78353" lon="5.61772">
        <ele>944</ele>
        <time>2017-05-04T19:05:29Z</time>
      </trkpt>
      <trkpt lat="44.78362" lon="5.61853">
        <ele>927</ele>
        <time>2017-05-04T19:05:43Z</time>
      </trkpt>
      <trkpt lat="44.78384" lon="5.61895">
        <ele>927</ele>
        <time>2017-05-04T19:06:02Z</time>
      </trkpt>
      <trkpt lat="44.78413" lon="5.61951">
        <ele>914</ele>
        <time>2017-05-04T19:06:05Z</time>
      </trkpt>
      <trkpt lat="44.78432" lon="5.61977">
        <ele>922</ele>
        <time>2017-05-04T19:06:16Z</time>
      </trkpt>
      <trkpt lat="44.78442" lon="5.62001">
        <ele>907</ele>
        <time>2017-05-04T19:06:29Z</time>
      </trkpt>
      <trkpt lat="44.78458" lon="5.62045">
        <ele>905</ele>
        <time>2017-05-04T19:06:44Z</time>
      </trkpt>
      <trkpt lat="44.78463" lon="5.62094">
        <ele>892</ele>
        <time>2017-05-04T19:07:00Z</time>
      </trkpt>
      <trkpt lat="44.78469" lon="5.62114">
        <ele>891</ele>
        <time>2017-05-04T19:07:16Z</time>
      </trkpt>
      <trkpt lat="44.7848" lon="5.6213">
        <ele>889</ele>
        <time>2017-05-04T19:07:32Z</time>
      </trkpt>
      <trkpt lat="44.78494" lon="5.62142">
        <ele>887</ele>
        <time>2017-05-04T19:07:44Z</time>
      </trkpt>
      <trkpt lat="44.785" lon="5.62149">
        <ele>886</ele>
        <time>2017-05-04T19:08:00Z</time>
      </trkpt>
      <trkpt lat="44.7851" lon="5.62167">
        <ele>879</ele>
        <time>2017-05-04T19:08:15Z</time>
      </trkpt>
      <trkpt lat="44.78514" lon="5.62185">
        <ele>878</ele>
        <time>2017-05-04T19:08:17Z</time>
      </trkpt>
      <trkpt lat="44.78531" lon="5.62219">
        <ele>875</ele>
        <time>2017-05-04T19:08:30Z</time>
      </trkpt>
      <trkpt lat="44.78532" lon="5.62222">
        <ele>875</ele>
        <time>2017-05-04T19:08:50Z</time>
      </trkpt>
      <trkpt lat="44.78535" lon="5.62239">
        <ele>874</ele>
        <time>2017-05-04T19:09:01Z</time>
      </trkpt>
      <trkpt lat="44.78535" lon="5.62255">
        <ele>865</ele>
        <time>2017-05-04T19:09:09Z</time>
      </trkpt>
      <trkpt lat="44.78538" lon="5.62271">
        <ele>865</ele>
        <time>2017-05-04T19:09:19Z</time>
      </trkpt>
      <trkpt lat="44.78528" lon="5.62268">
        <ele>865</ele>
        <time>2017-05-04T19:09:38Z</time>
      </trkpt>
      <trkpt lat="44.78504" lon="5.6228">
        <ele>865</ele>
        <time>2017-05-04T19:09:52Z</time>
      </trkpt>
      <trkpt lat="44.78494" lon="5.62304">
        <ele>874</ele>
        <time>2017-05-04T19:09:58Z</time>
      </trkpt>
      <trkpt lat="44.78489" lon="5.62339">
        <ele>869</ele>
        <time>2017-05-04T19:10:11Z</time>
      </trkpt>
      <trkpt lat="44.78481" lon="5.62374">
        <ele>873</ele>
        <time>2017-05-04T19:10:17Z</time>
      </trkpt>
      <trkpt lat="44.78471" lon="5.62395">
        <ele>874</ele>
        <time>2017-05-04T19:10:29Z</time>
      </trkpt>
      <trkpt lat="44.78459" lon="5.62418">
        <ele>875</ele>
        <time>2017-05-04T19:10:33Z</time>
      </trkpt>
      <trkpt lat="44.78457" lon="5.62432">
        <ele>876</ele>
        <time>2017-05-04T19:10:36Z</time>
      </trkpt>
      <trkpt lat="44.78465" lon="5.62466">
        <ele>874</ele>
        <time>2017-05-04T19:10:40Z</time>
      </trkpt>
      <trkpt lat="44.78463" lon="5.62497">
        <ele>874</ele>
        <time>2017-05-04T19:10:58Z</time>
      </trkpt>
      <trkpt lat="44.78462" lon="5.6251">
        <ele>878</ele>
        <time>2017-05-04T19:11:02Z</time>
      </trkpt>
      <trkpt lat="44.78459" lon="5.62519">
        <ele>879</ele>
        <time>2017-05-04T19:11:20Z</time>
      </trkpt>
      <trkpt lat="44.78452" lon="5.62523">
        <ele>881</ele>
        <time>2017-05-04T19:11:38Z</time>
      </trkpt>
      <trkpt lat="44.78441" lon="5.62521">
        <ele>883</ele>
        <time>2017-05-04T19:11:40Z</time>
      </trkpt>
      <trkpt lat="44.78436" lon="5.62512">
        <ele>884</ele>
        <time>2017-05-04T19:11:55Z</time>
      </trkpt>
      <trkpt lat="44.78438" lon="5.62497">
        <ele>881</ele>
        <time>2017-05-04T19:12:12Z</time>
      </trkpt>
      <trkpt lat="44.78444" lon="5.62482">
        <ele>879</ele>
        <time>2017-05-04T19:12:22Z</time>
      </trkpt>
      <trkpt lat="44.78445" lon="5.62468">
        <ele>878</ele>
        <time>2017-05-04T19:12:41Z</time>
      </trkpt>
      <trkpt lat="44.78442" lon="5.62457">
        <ele>878</ele>
        <time>2017-05-04T19:13:01Z</time>
      </trkpt>
      <trkpt lat="44.78435" lon="5.62449">
        <ele>880</ele>
        <time>2017-05-04T19:13:18Z</time>
      </trkpt>
      <trkpt lat="44.78426" lon="5.62442">
        <ele>881</ele>
        <time>2017-05-04T19:13:32Z</time>
      </trkpt>
      <trkpt lat="44.78422" lon="5.62429">
        <ele>885</ele>
        <time>2017-05-04T19:13:35Z</time>
      </trkpt>
      <trkpt lat="44.78424" lon="5.62414">
        <ele>887</ele>
        <time>2017-05-04T19:13:37Z</time>
      </trkpt>
      <trkpt lat="44.7843" lon="5.62397">
        <ele>883</ele>
        <time>2017-05-04T19:13:43Z</time>
      </trkpt>
      <trkpt lat="44.78436" lon="5.6238">
        <ele>881</ele>
        <time>2017-05-04T19:13:46Z</time>
      </trkpt>
      <trkpt lat="44.78436" lon="5.62362">
        <ele>883</ele>
        <time>2017-05-04T19:13:58Z</time>
      </trkpt>
      <trkpt lat="44.78425" lon="5.62263">
        <ele>888</ele>
        <time>2017-05-04T19:14:17Z</time>
      </trkpt>
      <trkpt lat="44.7842" lon="5.62244">
        <ele>891</ele>
        <time>2017-05-04T19:14:27Z</time>
      </trkpt>
      <trkpt lat="44.78411" lon="5.62229">
        <ele>901</ele>
        <time>2017-05-04T19:14:35Z</time>
      </trkpt>
      <trkpt lat="44.78401" lon="5.62215">
        <ele>903</ele>
        <time>2017-05-04T19:14:46Z</time>
      </trkpt>
      <trkpt lat="44.78389" lon="5.6219">
        <ele>904</ele>
        <time>2017-05-04T19:15:05Z</time>
      </trkpt>
      <trkpt lat="44.78375" lon="5.62167">
        <ele>906</ele>
        <time>2017-05-04T19:15:22Z</time>
      </trkpt>
      <trkpt lat="44.78365" lon="5.62152">
        <ele>903</ele>
        <time>2017-05-04T19:15:34Z</time>
      </trkpt>
      <trkpt lat="44.78352" lon="5.62142">
        <ele>904</ele>
        <time>2017-05-04T19:15:44Z</time>
      </trkpt>
      <trkpt lat="44.7834" lon="5.62131">
        <ele>904</ele>
        <time>2017-05-04T19:15:50Z</time>
      </trkpt>
      <trkpt lat="44.78322" lon="5.62091">
        <ele>914</ele>
        <time>2017-05-04T19:15:52Z</time>
      </trkpt>
      <trkpt lat="44.78297" lon="5.62042">
        <ele>917</ele>
        <time>2017-05-04T19:16:08Z</time>
      </trkpt>
      <trkpt lat="44.78264" lon="5.61996">
        <ele>923</ele>
        <time>2017-05-04T19:16:24Z</time>
      </trkpt>
      <trkpt lat="44.78252" lon="5.6198">
        <ele>922</ele>
        <time>2017-05-04T19:16:27Z</time>
      </trkpt>
      <trkpt lat="44.78248" lon="5.61961">
        <ele>941</ele>
        <time>2017-05-04T19:16:44Z</time>
      </trkpt>
      <trkpt lat="44.78249" lon="5.61938">
        <ele>936</ele>
        <time>2017-05-04T19:17:04Z</time>
      </trkpt>
      <trkpt lat="44.78252" lon="5.61917">
        <ele>923</ele>
        <time>2017-05-04T19:17:16Z</time>
      </trkpt>
      <trkpt lat="44.78248" lon="5.61899">
        <ele>931</ele>
        <time>2017-05-04T19:17:19Z</time>
      </trkpt>
      <trkpt lat="44.78237" lon="5.61884">
        <ele>934</ele>
        <time>2017-05-04T19:17:25Z</time>
      </trkpt>
      <trkpt lat="44.78224" lon="5.61879">
        <ele>937</ele>
        <time>2017-05-04T19:17:42Z</time>
      </trkpt>
      <trkpt lat="44.78217" lon="5.61867">
        <ele>938</ele>
        <time>2017-05-04T19:17:45Z</time>
      </trkpt>
      <trkpt lat="44.78215" lon="5.61843">
        <ele>937</ele>
        <time>2017-05-04T19:18:05Z</time>
      </trkpt>
      <trkpt lat="44.78208" lon="5.6182">
        <ele>936</ele>
        <time>2017-05-04T19:18:12Z</time>
      </trkpt>
      <trkpt lat="44.78202" lon="5.61799">
        <ele>937</ele>
        <time>2017-05-04T19:18:18Z</time>
      </trkpt>
      <trkpt lat="44.78199" lon="5.6178">
        <ele>937</ele>
        <time>2017-05-04T19:18:36Z</time>
      </trkpt>
      <trkpt lat="44.78202" lon="5.61761">
        <ele>936</ele>
        <time>2017-05-04T19:18:51Z</time>
      </trkpt>
      <trkpt lat="44.782" lon="5.61752">
        <ele>937</ele>
        <time>2017-05-04T19:19:03Z</time>
      </trkpt>
      <trkpt lat="44.78194" lon="5.61742">
        <ele>935</ele>
        <time>2017-05-04T19:19:06Z</time>
      </trkpt>
      <trkpt lat="44.78185" lon="5.61735">
        <ele>937</ele>
        <time>2017-05-04T19:19:24Z</time>
      </trkpt>
      <trkpt lat="44.78174" lon="5.61729">
        <ele>938</ele>
        <time>2017-05-04T19:19:41Z</time>
      </trkpt>
      <trkpt lat="44.78167" lon="5.61721">
        <ele>937</ele>
        <time>2017-05-04T19:19:57Z</time>
      </trkpt>
      <trkpt lat="44.7816" lon="5.61714">
        <ele>956</ele>
        <time>2017-05-04T19:20:05Z</time>
      </trkpt>
      <trkpt lat="44.78155" lon="5.61705">
        <ele>956</ele>
        <time>2017-05-04T19:20:13Z</time>
      </trkpt>
      <trkpt lat="44.78141" lon="5.61679">
        <ele>954</ele>
        <time>2017-05-04T19:20:28Z</time>
      </trkpt>
      <trkpt lat="44.78134" lon="5.61664">
        <ele>945</ele>
        <time>2017-05-04T19:20:37Z</time>
      </trkpt>
      <trkpt lat="44.78127" lon="5.61656">
        <ele>947</ele>
        <time>2017-05-04T19:20:39Z</time>
      </trkpt>
      <trkpt lat="44.78113" lon="5.61643">
        <ele>949</ele>
        <time>2017-05-04T19:20:48Z</time>
      </trkpt>
      <trkpt lat="44.78092" lon="5.61603">
        <ele>946</ele>
        <time>2017-05-04T19:21:08Z</time>
      </trkpt>
      <trkpt lat="44.78081" lon="5.61588">
        <ele>950</ele>
        <time>2017-05-04T19:21:11Z</time>
      </trkpt>
      <trkpt lat="44.78065" lon="5.61578">
        <ele>949</ele>
        <time>2017-05-04T19:21:16Z</time>
      </trkpt>
      <trkpt lat="44.78045" lon="5.61567">
        <ele>952</ele>
        <time>2017-05-04T19:21:32Z</time>
      </trkpt>
      <trkpt lat="44.78028" lon="5.61561">
        <ele>954</ele>
        <time>2017-05-04T19:21:52Z</time>
      </trkpt>
      <trkpt lat="44.78014" lon="5.61565">
        <ele>958</ele>
        <time>2017-05-04T19:22:01Z</time>
      </trkpt>
      <trkpt lat="44.77997" lon="5.61571">
        <ele>968</ele>
        <time>2017-05-04T19:22:08Z</time>
      </trkpt>
      <trkpt lat="44.77982" lon="5.6157">
        <ele>969</ele>
        <time>2017-05-04T19:22:25Z</time>
      </trkpt>
      <trkpt lat="44.77963" lon="5.61566">
        <ele>971</ele>
        <time>2017-05-04T19:22:33Z</time>
      </trkpt>
      <trkpt lat="44.77947" lon="5.6156">
        <ele>972</ele>
        <time>2017-05-04T19:22:36Z</time>
      </trkpt>
      <trkpt lat="44.77934" lon="5.61551">
        <ele>973</ele>
        <time>2017-05-04T19:22:41Z</time>
      </trkpt>
      <trkpt lat="44.77904" lon="5.61521">
        <ele>980</ele>
        <time>2017-05-04T19:22:44Z</time>
      </trkpt>
      <trkpt lat="44.7789" lon="5.61505">
        <ele>981</ele>
        <time>2017-05-04T19:22:52Z</time>
      </trkpt>
      <trkpt lat="44.77873" lon="5.61501">
        <ele>986</ele>
        <time>2017-05-04T19:23:00Z</time>
      </trkpt>
      <trkpt lat="44.77857" lon="5.61497">
        <ele>976</ele>
        <time>2017-05-04T19:23:04Z</time>
      </trkpt>
      <trkpt lat="44.77837" lon="5.61488">
        <ele>981</ele>
        <time>2017-05-04T19:23:18Z</time>
      </trkpt>
      <trkpt lat="44.77802" lon="5.61472">
        <ele>990</ele>
        <time>2017-05-04T19:23:23Z</time>
      </trkpt>
      <trkpt lat="44.77784" lon="5.61461">
        <ele>991</ele>
        <time>2017-05-04T19:23:27Z</time>
      </trkpt>
      <trkpt lat="44.77756" lon="5.61437">
        <ele>990</ele>
        <time>2017-05-04T19:23:29Z</time>
      </trkpt>
      <trkpt lat="44.77736" lon="5.61425">
        <ele>1001</ele>
        <time>2017-05-04T19:23:48Z</time>
      </trkpt>
      <trkpt lat="44.77728" lon="5.6142">
        <ele>1004</ele>
        <time>2017-05-04T19:23:59Z</time>
      </trkpt>
      <trkpt lat="44.77722" lon="5.61414">
        <ele>998</ele>
        <time>2017-05-04T19:24:03Z</time>
      </trkpt>
      <trkpt lat="44.77707" lon="5.61399">
        <ele>1002</ele>
        <time>2017-05-04T19:24:18Z</time>
      </trkpt>
      <trkpt lat="44.77688" lon="5.61383">
        <ele>1004</ele>
        <time>2017-05-04T19:24:23Z</time>
      </trkpt>
      <trkpt lat="44.77675" lon="5.61375">
        <ele>1005</ele>
        <time>2017-05-04T19:24:38Z</time>
      </trkpt>
      <trkpt lat="44.77664" lon="5.61373">
        <ele>1017</ele>
        <time>2017-05-04T19:24:44Z</time>
      </trkpt>
      <trkpt lat="44.77651" lon="5.61377">
        <ele>1019</ele>
        <time>2017-05-04T19:24:59Z</time>
      </trkpt>
      <trkpt lat="44.7764" lon="5.61379">
        <ele>1020</ele>
        <time>2017-05-04T19:25:13Z</time>
      </trkpt>
      <trkpt lat="44.7763" lon="5.61377">
        <ele>1022</ele>
        <time>2017-05-04T19:25:15Z</time>
      </trkpt>
      <trkpt lat="44.7762" lon="5.61367">
        <ele>1022</ele>
        <time>2017-05-04T19:25:35Z</time>
      </trkpt>
      <trkpt lat="44.77591" lon="5.61328">
        <ele>1024</ele>
        <time>2017-05-04T19:25:45Z</time>
      </trkpt>
      <trkpt lat="44.77581" lon="5.61312">
        <ele>1037</ele>
        <time>2017-05-04T19:25:57Z</time>
      </trkpt>
      <trkpt lat="44.77569" lon="5.6129">
        <ele>1042</ele>
        <time>2017-05-04T19:26:07Z</time>
      </trkpt>
      <trkpt lat="44.77559" lon="5.61252">
        <ele>1042</ele>
        <time>2017-05-04T19:26:22Z</time>
      </trkpt>
      <trkpt lat="44.77553" lon="5.61231">
        <ele>1044</ele>
        <time>2017-05-04T19:26:35Z</time>
      </trkpt>
      <trkpt lat="44.77544" lon="5.61207">
        <ele>1046</ele>
        <time>2017-05-04T19:26:45Z</time>
      </trkpt>
      <trkpt lat="44.77528" lon="5.61183">
        <ele>1047</ele>
        <time>2017-05-04T19:26:59Z</time>
      </trkpt>
      <trkpt lat="44.77517" lon="5.61168">
        <ele>1046</ele>
        <time>2017-05-04T19:27:08Z</time>
      </trkpt>
      <trkpt lat="44.77506" lon="5.61153">
        <ele>1047</ele>
        <time>2017-05-04T19:27:16Z</time>
      </trkpt>
      <trkpt lat="44.77502" lon="5.61137">
        <ele>1048</ele>
        <time>2017-05-04T19:27:27Z</time>
      </trkpt>
      <trkpt lat="44.77505" lon="5.61122">
        <ele>1048</ele>
        <time>2017-05-04T19:27:46Z</time>
      </trkpt>
      <trkpt lat="44.77511" lon="5.6111">
        <ele>1048</ele>
        <time>2017-05-04T19:27:48Z</time>
      </trkpt>
      <trkpt lat="44.77513" lon="5.61095">
        <ele>1047</ele>
        <time>2017-05-04T19:27:51Z</time>
      </trkpt>
      <trkpt lat="44.77512" lon="5.61076">
        <ele>1049</ele>
        <time>2017-05-04T19:27:57Z</time>
      </trkpt>
      <trkpt lat="44.77509" lon="5.61056">
        <ele>1052</ele>
        <time>2017-05-04T19:28:08Z</time>
      </trkpt>
      <trkpt lat="44.77505" lon="5.61049">
        <ele>1052</ele>
        <time>2017-05-04T19:28:19Z</time>
      </trkpt>
      <trkpt lat="44.775" lon="5.61044">
        <ele>1064</ele>
        <time>2017-05-04T19:28:38Z</time>
      </trkpt>
      <trkpt lat="44.7749" lon="5.61037">
        <ele>1066</ele>
        <time>2017-05-04T19:28:48Z</time>
      </trkpt>
      <trkpt lat="44.77484" lon="5.61019">
        <ele>1065</ele>
        <time>2017-05-04T19:28:53Z</time>
      </trkpt>
      <trkpt lat="44.77482" lon="5.60976">
        <ele>1063</ele>
        <time>2017-05-04T19:29:02Z</time>
      </trkpt>
      <trkpt lat="44.7748" lon="5.60955">
        <ele>1064</ele>
        <time>2017-05-04T19:29:05Z</time>
      </trkpt>
      <trkpt lat="44.77474" lon="5.60932">
        <ele>1063</ele>
        <time>2017-05-04T19:29:25Z</time>
      </trkpt>
      <trkpt lat="44.7747" lon="5.60909">
        <ele>1059</ele>
        <time>2017-05-04T19:29:31Z</time>
      </trkpt>
      <trkpt lat="44.77467" lon="5.60885">
        <ele>1060</ele>
        <time>2017-05-04T19:29:49Z</time>
      </trkpt>
      <trkpt lat="44.77472" lon="5.60833">
        <ele>1057</ele>
        <time>2017-05-04T19:30:09Z</time>
      </trkpt>
      <trkpt lat="44.77471" lon="5.60812">
        <ele>1059</ele>
        <time>2017-05-04T19:30:13Z</time>
      </trkpt>
      <trkpt lat="44.77467" lon="5.60788">
        <ele>1061</ele>
        <time>2017-05-04T19:30:21Z</time>
      </trkpt>
      <trkpt lat="44.77458" lon="5.60741">
        <ele>1068</ele>
        <time>2017-05-04T19:30:35Z</time>
      </trkpt>
      <trkpt lat="44.77448" lon="5.60694">
        <ele>1071</ele>
        <time>2017-05-04T19:30:47Z</time>
      </trkpt>
      <trkpt lat="44.77445" lon="5.60671">
        <ele>1071</ele>
        <time>2017-05-04T19:31:07Z</time>
      </trkpt>
      <trkpt lat="44.77446" lon="5.60651">
        <ele>1078</ele>
        <time>2017-05-04T19:31:25Z</time>
      </trkpt>
      <trkpt lat="44.77447" lon="5.60611">
        <ele>1080</ele>
        <time>2017-05-04T19:31:36Z</time>
      </trkpt>
      <trkpt lat="44.77438" lon="5.60588">
        <ele>1078</ele>
        <time>2017-05-04T19:31:44Z</time>
      </trkpt>
      <trkpt lat="44.77404" lon="5.60538">
        <ele>1078</ele>
        <time>2017-05-04T19:31:57Z</time>
      </trkpt>
      <trkpt lat="44.77376" lon="5.60509">
        <ele>1077</ele>
        <time>2017-05-04T19:32:03Z</time>
      </trkpt>
      <trkpt lat="44.77366" lon="5.60495">
        <ele>1082</ele>
        <time>2017-05-04T19:32:23Z</time>
      </trkpt>
      <trkpt lat="44.77361" lon="5.6048">
        <ele>1082</ele>
        <time>2017-05-04T19:32:38Z</time>
      </trkpt>
      <trkpt lat="44.77342" lon="5.60434">
        <ele>1083</ele>
        <time>2017-05-04T19:32:41Z</time>
      </trkpt>
      <trkpt lat="44.77324" lon="5.60405">
        <ele>1085</ele>
        <time>2017-05-04T19:32:49Z</time>
      </trkpt>
      <trkpt lat="44.77301" lon="5.60378">
        <ele>1089</ele>
        <time>2017-05-04T19:33:01Z</time>
      </trkpt>
      <trkpt lat="44.7728" lon="5.60363">
        <ele>1089</ele>
        <time>2017-05-04T19:33:19Z</time>
      </trkpt>
      <trkpt lat="44.77259" lon="5.60356">
        <ele>1090</ele>
        <time>2017-05-04T19:33:27Z</time>
      </trkpt>
      <trkpt lat="44.77254" lon="5.60357">
        <ele>1089</ele>
        <time>2017-05-04T19:33:35Z</time>
      </trkpt>
      <trkpt lat="44.7725" lon="5.60361">
        <ele>1089</ele>
        <time>2017-05-04T19:33:55Z</time>
      </trkpt>
      <trkpt lat="44.77247" lon="5.60371">
        <ele>1086</ele>
        <time>2017-05-04T19:34:09Z</time>
      </trkpt>
      <trkpt lat="44.77246" lon="5.60381">
        <ele>1085</ele>
        <time>2017-05-04T19:34:22Z</time>
      </trkpt>
      <trkpt lat="44.77249" lon="5.60389">
        <ele>1084</ele>
        <time>2017-05-04T19:34:39Z</time>
      </trkpt>
      <trkpt lat="44.77256" lon="5.604">
        <ele>1082</ele>
        <time>2017-05-04T19:34:45Z</time>
      </trkpt>
      <trkpt lat="44.77273" lon="5.60435">
        <ele>1078</ele>
        <time>2017-05-04T19:34:59Z</time>
      </trkpt>
      <trkpt lat="44.77276" lon="5.60446">
        <ele>1078</ele>
        <time>2017-05-04T19:35:12Z</time>
      </trkpt>
      <trkpt lat="44.77282" lon="5.60458">
        <ele>1078</ele>
        <time>2017-05-04T19:35:28Z</time>
      </trkpt>
      <trkpt lat="44.7729" lon="5.6047">
        <ele>1078</ele>
        <time>2017-05-04T19:35:34Z</time>
      </trkpt>
      <trkpt lat="44.77297" lon="5.60491">
        <ele>1077</ele>
        <time>2017-05-04T19:35:38Z</time>
      </trkpt>
      <trkpt lat="44.77309" lon="5.60522">
        <ele>1079</ele>
        <time>2017-05-04T19:35:42Z</time>
      </trkpt>
      <trkpt lat="44.77319" lon="5.60548">
        <ele>1080</ele>
        <time>2017-05-04T19:35:57Z</time>
      </trkpt>
      <trkpt lat="44.77321" lon="5.60566">
        <ele>1080</ele>
        <time>2017-05-04T19:36:13Z</time>
      </trkpt>
      <trkpt lat="44.77319" lon="5.60576">
        <ele>1079</ele>
        <time>2017-05-04T19:36:24Z</time>
      </trkpt>
      <trkpt lat="44.77316" lon="5.60582">
        <ele>1080</ele>
        <time>2017-05-04T19:36:29Z</time>
      </trkpt>
      <trkpt lat="44.77312" lon="5.60582">
        <ele>1080</ele>
        <time>2017-05-04T19:36:37Z</time>
      </trkpt>
      <trkpt lat="44.77307" lon="5.6058">
        <ele>1081</ele>
        <time>2017-05-04T19:36:48Z</time>
      </trkpt>
      <trkpt lat="44.77301" lon="5.60564">
        <ele>1082</ele>
        <time>2017-05-04T19:37:00Z</time>
      </trkpt>
      <trkpt lat="44.7728" lon="5.60493">
        <ele>1079</ele>
        <time>2017-05-04T19:37:02Z</time>
      </trkpt>
      <trkpt lat="44.77276" lon="5.60483">
        <ele>1079</ele>
        <time>2017-05-04T19:37:11Z</time>
      </trkpt>
      <trkpt lat="44.77242" lon="5.60498">
        <ele>1086</ele>
        <time>2017-05-04T19:37:30Z</time>
      </trkpt>
      <trkpt lat="44.77216" lon="5.6051">
        <ele>1098</ele>
        <time>2017-05-04T19:37:32Z</time>
      </trkpt>
      <trkpt lat="44.77191" lon="5.60522">
        <ele>1102</ele>
        <time>2017-05-04T19:37:37Z</time>
      </trkpt>
      <trkpt lat="44.77182" lon="5.60531">
        <ele>1103</ele>
        <time>2017-05-04T19:37:39Z</time>
      </trkpt>
      <trkpt lat="44.77177" lon="5.60546">
        <ele>1105</ele>
        <time>2017-05-04T19:37:45Z</time>
      </trkpt>
      <trkpt lat="44.77176" lon="5.60568">
        <ele>1108</ele>
        <time>2017-05-04T19:38:03Z</time>
      </trkpt>
      <trkpt lat="44.77162" lon="5.6063">
        <ele>1125</ele>
        <time>2017-05-04T19:38:21Z</time>
      </trkpt>
      <trkpt lat="44.77157" lon="5.6064">
        <ele>1126</ele>
        <time>2017-05-04T19:38:37Z</time>
      </trkpt>
      <trkpt lat="44.7714" lon="5.60651">
        <ele>1127</ele>
        <time>2017-05-04T19:38:43Z</time>
      </trkpt>
      <trkpt lat="44.77124" lon="5.60656">
        <ele>1129</ele>
        <time>2017-05-04T19:38:49Z</time>
      </trkpt>
      <trkpt lat="44.77087" lon="5.60672">
        <ele>1141</ele>
        <time>2017-05-04T19:38:56Z</time>
      </trkpt>
      <trkpt lat="44.77077" lon="5.60683">
        <ele>1150</ele>
        <time>2017-05-04T19:39:00Z</time>
      </trkpt>
      <trkpt lat="44.77071" lon="5.60705">
        <ele>1154</ele>
        <time>2017-05-04T19:39:13Z</time>
      </trkpt>
      <trkpt lat="44.77065" lon="5.60724">
        <ele>1156</ele>
        <time>2017-05-04T19:39:31Z</time>
      </trkpt>
      <trkpt lat="44.77058" lon="5.60731">
        <ele>1157</ele>
        <time>2017-05-04T19:39:35Z</time>
      </trkpt>
      <trkpt lat="44.77054" lon="5.60763">
        <ele>1165</ele>
        <time>2017-05-04T19:39:37Z</time>
      </trkpt>
      <trkpt lat="44.77029" lon="5.60824">
        <ele>1173</ele>
        <time>2017-05-04T19:39:45Z</time>
      </trkpt>
      <trkpt lat="44.76996" lon="5.60845">
        <ele>1194</ele>
        <time>2017-05-04T19:39:57Z</time>
      </trkpt>
      <trkpt lat="44.7698" lon="5.60851">
        <ele>1199</ele>
        <time>2017-05-04T19:40:08Z</time>
      </trkpt>
      <trkpt lat="44.76957" lon="5.60849">
        <ele>1205</ele>
        <time>2017-05-04T19:40:22Z</time>
      </trkpt>
      <trkpt lat="44.76938" lon="5.60846">
        <ele>1209</ele>
        <time>2017-05-04T19:40:33Z</time>
      </trkpt>
      <trkpt lat="44.76923" lon="5.60853">
        <ele>1211</ele>
        <time>2017-05-04T19:40:49Z</time>
      </trkpt>
      <trkpt lat="44.76895" lon="5.60869">
        <ele>1240</ele>
        <time>2017-05-04T19:41:07Z</time>
      </trkpt>
      <trkpt lat="44.76888" lon="5.60853">
        <ele>1240</ele>
        <time>2017-05-04T19:41:20Z</time>
      </trkpt>
      <trkpt lat="44.76875" lon="5.60823">
        <ele>1236</ele>
        <time>2017-05-04T19:41:39Z</time>
      </trkpt>
      <trkpt lat="44.76866" lon="5.60813">
        <ele>1239</ele>
        <time>2017-05-04T19:41:41Z</time>
      </trkpt>
      <trkpt lat="44.76844" lon="5.60799">
        <ele>1243</ele>
        <time>2017-05-04T19:41:52Z</time>
      </trkpt>
      <trkpt lat="44.76831" lon="5.60788">
        <ele>1271</ele>
        <time>2017-05-04T19:41:56Z</time>
      </trkpt>
      <trkpt lat="44.7682" lon="5.60768">
        <ele>1268</ele>
        <time>2017-05-04T19:42:09Z</time>
      </trkpt>
      <trkpt lat="44.76812" lon="5.60756">
        <ele>1268</ele>
        <time>2017-05-04T19:42:28Z</time>
      </trkpt>
      <trkpt lat="44.76804" lon="5.60754">
        <ele>1271</ele>
        <time>2017-05-04T19:42:34Z</time>
      </trkpt>
      <trkpt lat="44.76796" lon="5.60757">
        <ele>1274</ele>
        <time>2017-05-04T19:42:44Z</time>
      </trkpt>
      <trkpt lat="44.76793" lon="5.60757">
        <ele>1275</ele>
        <time>2017-05-04T19:42:59Z</time>
      </trkpt>
      <trkpt lat="44.7678" lon="5.60755">
        <ele>1279</ele>
        <time>2017-05-04T19:43:04Z</time>
      </trkpt>
      <trkpt lat="44.76774" lon="5.60744">
        <ele>1277</ele>
        <time>2017-05-04T19:43:18Z</time>
      </trkpt>
      <trkpt lat="44.76761" lon="5.60716">
        <ele>1277</ele>
        <time>2017-05-04T19:43:23Z</time>
      </trkpt>
      <trkpt lat="44.76746" lon="5.60672">
        <ele>1292</ele>
        <time>2017-05-04T19:43:32Z</time>
      </trkpt>
      <trkpt lat="44.76725" lon="5.60617">
        <ele>1296</ele>
        <time>2017-05-04T19:43:48Z</time>
      </trkpt>
      <trkpt lat="44.76718" lon="5.60606">
        <ele>1296</ele>
        <time>2017-05-04T19:44:03Z</time>
      </trkpt>
      <trkpt lat="44.76707" lon="5.606">
        <ele>1297</ele>
        <time>2017-05-04T19:44:18Z</time>
      </trkpt>
      <trkpt lat="44.76691" lon="5.60606">
        <ele>1297</ele>
        <time>2017-05-04T19:44:30Z</time>
      </trkpt>
      <trkpt lat="44.76669" lon="5.60616">
        <ele>1299</ele>
        <time>2017-05-04T19:44:42Z</time>
      </trkpt>
      <trkpt lat="44.7662" lon="5.60619">
        <ele>1298</ele>
        <time>2017-05-04T19:44:44Z</time>
      </trkpt>
      <trkpt lat="44.76608" lon="5.60626">
        <ele>1299</ele>
        <time>2017-05-04T19:44:59Z</time>
      </trkpt>
      <trkpt lat="44.76596" lon="5.6064">
        <ele>1301</ele>
        <time>2017-05-04T19:45:13Z</time>
      </trkpt>
      <trkpt lat="44.76582" lon="5.60656">
        <ele>1301</ele>
        <time>2017-05-04T19:45:23Z</time>
      </trkpt>
      <trkpt lat="44.7656" lon="5.60668">
        <ele>1312</ele>
        <time>2017-05-04T19:45:39Z</time>
      </trkpt>
      <trkpt lat="44.76511" lon="5.60687">
        <ele>1308</ele>
        <time>2017-05-04T19:45:53Z</time>
      </trkpt>
      <trkpt lat="44.7648" lon="5.60703">
        <ele>1304</ele>
        <time>2017-05-04T19:46:04Z</time>
      </trkpt>
      <trkpt lat="44.76457" lon="5.60723">
        <ele>1306</ele>
        <time>2017-05-04T19:46:13Z</time>
      </trkpt>
      <trkpt lat="44.76442" lon="5.60727">
        <ele>1306</ele>
        <time>2017-05-04T19:46:15Z</time>
      </trkpt>
      <trkpt lat="44.7641" lon="5.60722">
        <ele>1298</ele>
        <time>2017-05-04T19:46:30Z</time>
      </trkpt>
      <trkpt lat="44.76392" lon="5.60726">
        <ele>1297</ele>
        <time>2017-05-04T19:46:38Z</time>
      </trkpt>
      <trkpt lat="44.76374" lon="5.60733">
        <ele>1296</ele>
        <time>2017-05-04T19:46:46Z</time>
      </trkpt>
      <trkpt lat="44.76337" lon="5.60742">
        <ele>1297</ele>
        <time>2017-05-04T19:47:04Z</time>
      </trkpt>
      <trkpt lat="44.76318" lon="5.60749">
        <ele>1294</ele>
        <time>2017-05-04T19:47:24Z</time>
      </trkpt>
      <trkpt lat="44.76299" lon="5.60761">
        <ele>1310</ele>
        <time>2017-05-04T19:47:37Z</time>
      </trkpt>
      <trkpt lat="44.76289" lon="5.60766">
        <ele>1311</ele>
        <time>2017-05-04T19:47:49Z</time>
      </trkpt>
      <trkpt lat="44.76278" lon="5.60766">
        <ele>1310</ele>
        <time>2017-05-04T19:48:09Z</time>
      </trkpt>
      <trkpt lat="44.76265" lon="5.60763">
        <ele>1308</ele>
        <time>2017-05-04T19:48:16Z</time>
      </trkpt>
      <trkpt lat="44.76255" lon="5.60757">
        <ele>1305</ele>
        <time>2017-05-04T19:48:25Z</time>
      </trkpt>
      <trkpt lat="44.76229" lon="5.60774">
        <ele>1314</ele>
        <time>2017-05-04T19:48:45Z</time>
      </trkpt>
      <trkpt lat="44.76209" lon="5.60797">
        <ele>1319</ele>
        <time>2017-05-04T19:48:57Z</time>
      </trkpt>
      <trkpt lat="44.76185" lon="5.60805">
        <ele>1321</ele>
        <time>2017-05-04T19:49:16Z</time>
      </trkpt>
      <trkpt lat="44.76169" lon="5.60817">
        <ele>1324</ele>
        <time>2017-05-04T19:49:22Z</time>
      </trkpt>
      <trkpt lat="44.76155" lon="5.60832">
        <ele>1331</ele>
        <time>2017-05-04T19:49:42Z</time>
      </trkpt>
      <trkpt lat="44.7614" lon="5.60857">
        <ele>1345</ele>
        <time>2017-05-04T19:49:54Z</time>
      </trkpt>
      <trkpt lat="44.76128" lon="5.60867">
        <ele>1348</ele>
        <time>2017-05-04T19:50:14Z</time>
      </trkpt>
      <trkpt lat="44.76123" lon="5.60869">
        <ele>1349</ele>
        <time>2017-05-04T19:50:17Z</time>
      </trkpt>
      <trkpt lat="44.76117" lon="5.60867">
        <ele>1349</ele>
        <time>2017-05-04T19:50:26Z</time>
      </trkpt>
      <trkpt lat="44.7611" lon="5.60862">
        <ele>1349</ele>
        <time>2017-05-04T19:50:31Z</time>
      </trkpt>
      <trkpt lat="44.76101" lon="5.60843">
        <ele>1349</ele>
        <time>2017-05-04T19:50:46Z</time>
      </trkpt>
      <trkpt lat="44.76081" lon="5.6078">
        <ele>1361</ele>
        <time>2017-05-04T19:50:56Z</time>
      </trkpt>
      <trkpt lat="44.7605" lon="5.60715">
        <ele>1361</ele>
        <time>2017-05-04T19:51:06Z</time>
      </trkpt>
      <trkpt lat="44.76033" lon="5.60684">
        <ele>1365</ele>
        <time>2017-05-04T19:51:26Z</time>
      </trkpt>
      <trkpt lat="44.76024" lon="5.60662">
        <ele>1368</ele>
        <time>2017-05-04T19:51:45Z</time>
      </trkpt>
      <trkpt lat="44.76015" lon="5.60621">
        <ele>1368</ele>
        <time>2017-05-04T19:52:04Z</time>
      </trkpt>
      <trkpt lat="44.76013" lon="5.60601">
        <ele>1369</ele>
        <time>2017-05-04T19:52:14Z</time>
      </trkpt>
      <trkpt lat="44.76014" lon="5.60591">
        <ele>1371</ele>
        <time>2017-05-04T19:52:33Z</time>
      </trkpt>
      <trkpt lat="44.76039" lon="5.60571">
        <ele>1375</ele>
        <time>2017-05-04T19:52:42Z</time>
      </trkpt>
      <trkpt lat="44.7604" lon="5.60559">
        <ele>1376</ele>
        <time>2017-05-04T19:52:55Z</time>
      </trkpt>
      <trkpt lat="44.76026" lon="5.60525">
        <ele>1380</ele>
        <time>2017-05-04T19:53:10Z</time>
      </trkpt>
      <trkpt lat="44.76026" lon="5.60519">
        <ele>1381</ele>
        <time>2017-05-04T19:53:28Z</time>
      </trkpt>
      <trkpt lat="44.76036" lon="5.60517">
        <ele>1380</ele>
        <time>2017-05-04T19:53:43Z</time>
      </trkpt>
      <trkpt lat="44.76072" lon="5.60532">
        <ele>1378</ele>
        <time>2017-05-04T19:53:52Z</time>
      </trkpt>
      <trkpt lat="44.76078" lon="5.60533">
        <ele>1377</ele>
        <time>2017-05-04T19:53:57Z</time>
      </trkpt>
      <trkpt lat="44.76113" lon="5.60508">
        <ele>1364</ele>
        <time>2017-05-04T19:54:11Z</time>
      </trkpt>
      <trkpt lat="44.76145" lon="5.60482">
        <ele>1368</ele>
        <time>2017-05-04T19:54:29Z</time>
      </trkpt>
      <trkpt lat="44.76148" lon="5.60467">
        <ele>1370</ele>
        <time>2017-05-04T19:54:49Z</time>
      </trkpt>
      <trkpt lat="44.76138" lon="5.60451">
        <ele>1373</ele>
        <time>2017-05-04T19:54:53Z</time>
      </trkpt>
      <trkpt lat="44.76109" lon="5.60477">
        <ele>1378</ele>
        <time>2017-05-04T19:55:04Z</time>
      </trkpt>
      <trkpt lat="44.76073" lon="5.60487">
        <ele>1391</ele>
        <time>2017-05-04T19:55:19Z</time>
      </trkpt>
      <trkpt lat="44.76048" lon="5.60482">
        <ele>1394</ele>
        <time>2017-05-04T19:55:24Z</time>
      </trkpt>
      <trkpt lat="44.76032" lon="5.60461">
        <ele>1398</ele>
        <time>2017-05-04T19:55:31Z</time>
      </trkpt>
      <trkpt lat="44.76001" lon="5.60431">
        <ele>1406</ele>
        <time>2017-05-04T19:55:33Z</time>
      </trkpt>
      <trkpt lat="44.75988" lon="5.6042">
        <ele>1413</ele>
        <time>2017-05-04T19:55:49Z</time>
      </trkpt>
      <trkpt lat="44.75999" lon="5.60414">
        <ele>1416</ele>
        <time>2017-05-04T19:56:04Z</time>
      </trkpt>
      <trkpt lat="44.76001" lon="5.60413">
        <ele>1414</ele>
        <time>2017-05-04T19:56:19Z</time>
      </trkpt>
      <trkpt lat="44.7599" lon="5.60413">
        <ele>1422</ele>
        <time>2017-05-04T19:56:35Z</time>
      </trkpt>
      <trkpt lat="44.7596" lon="5.60419">
        <ele>1416</ele>
        <time>2017-05-04T19:56:45Z</time>
      </trkpt>
      <trkpt lat="44.75915" lon="5.60427">
        <ele>1434</ele>
        <time>2017-05-04T19:56:54Z</time>
      </trkpt>
      <trkpt lat="44.75906" lon="5.60426">
        <ele>1434</ele>
        <time>2017-05-04T19:56:57Z</time>
      </trkpt>
      <trkpt lat="44.75901" lon="5.60424">
        <ele>1434</ele>
        <time>2017-05-04T19:57:08Z</time>
      </trkpt>
      <trkpt lat="44.75891" lon="5.60423">
        <ele>1435</ele>
        <time>2017-05-04T19:57:16Z</time>
      </trkpt>
      <trkpt lat="44.75881" lon="5.60425">
        <ele>1436</ele>
        <time>2017-05-04T19:57:28Z</time>
      </trkpt>
      <trkpt lat="44.75866" lon="5.60428">
        <ele>1438</ele>
        <time>2017-05-04T19:57:31Z</time>
      </trkpt>
      <trkpt lat="44.75849" lon="5.60427">
        <ele>1441</ele>
        <time>2017-05-04T19:57:49Z</time>
      </trkpt>
      <trkpt lat="44.75835" lon="5.60424">
        <ele>1445</ele>
        <time>2017-05-04T19:57:56Z</time>
      </trkpt>
      <trkpt lat="44.7582" lon="5.60418">
        <ele>1452</ele>
        <time>2017-05-04T19:58:07Z</time>
      </trkpt>
      <trkpt lat="44.75807" lon="5.60407">
        <ele>1454</ele>
        <time>2017-05-04T19:58:18Z</time>
      </trkpt>
      <trkpt lat="44.75797" lon="5.60403">
        <ele>1455</ele>
        <time>2017-05-04T19:58:31Z</time>
      </trkpt>
      <trkpt lat="44.7579" lon="5.60404">
        <ele>1456</ele>
        <time>2017-05-04T19:58:47Z</time>
      </trkpt>
      <trkpt lat="44.75783" lon="5.60409">
        <ele>1457</ele>
        <time>2017-05-04T19:58:50Z</time>
      </trkpt>
      <trkpt lat="44.75778" lon="5.6037">
        <ele>1455</ele>
        <time>2017-05-04T19:58:57Z</time>
      </trkpt>
      <trkpt lat="44.75778" lon="5.60361">
        <ele>1454</ele>
        <time>2017-05-04T19:59:09Z</time>
      </trkpt>
    </trkseg>
  </trk>
</gpx>